Darstellungsparameter: Aktuell verwendete Einstellungen:
Skalierung der Graphiken ... ?
xyx+y,   Skalierungsfaktor:      Skalierung: Modus: x, Faktor: 1
Darstellungszeitraum ... ?
Vom - - bis: - -   Zeitraum: 03.08.2010 - 02.08.2020
Min/Max/Avg-Anzeige ... ?
Zeige MMA aktuell
Zeige MMA Monat
Zeige MMA alles
Zeige --A aktuell
Zeige --A Monat
Zeige --A alles
Keine MMA-Anzeige
MMA:
Keine MMA-Graphiken
MMA-Basis: 03.08.2010 - 02.08.2020
Quicknavigation für Darstellung... ?
Tage:      1T, 2T, 3T, 5T -1T -2T -3T -5T +1T +2T +3T +5T
Wochen: 1W, 2W, 3W -1W -2W -3W +1W +2W +3W
Monate: 1M, 3M, 6M -1M -3M -6M +1M +3M +6M
Jahre:    1J, 3J, 5J, 10J -1J -3J -5J -10J +1J +3J +5J +10J
Nutze für die Darstellung ... ?
Originaldaten oder ...
Mittelwerte Minima Maxima auf...
Stundenbasis Tagesbasis Wochenbasis
Monatsbasis Jahresbasis      Datenbasis: Mittelwerte auf Stundenbasis
Darstellen als:
Statistik (Auto) Statistik J:M      Darstellung:
Zur Graphik,    zurück zur Übersicht aller Sensoren.
 
Tabellarische Datenbersicht: ?
 
Sensor: Nr:Datum:Temp:Abs-Feuchte:Windchill:Wind:
Aussen-T/F 1 03-08-2010 00:00:00 15.94 C 12.08 g/m*3 15.94 C 0 km/h
2 03-08-2010 01:00:00 15.96 C 12.02 g/m*3 15.96 C 0 km/h
3 03-08-2010 02:00:00 15.46 C 11.76 g/m*3 15.46 C 0 km/h
4 03-08-2010 03:00:00 15.26 C 12.06 g/m*3 15.26 C 0 km/h
5 03-08-2010 04:00:00 15.02 C 12.04 g/m*3 15.02 C 0 km/h
6 03-08-2010 05:00:00 14.96 C 12.08 g/m*3 14.96 C 0 km/h
7 03-08-2010 06:00:00 14.62 C 11.9 g/m*3 14.62 C 0 km/h
8 03-08-2010 07:00:00 15.06 C 12.23 g/m*3 15.06 C 0 km/h
9 03-08-2010 08:00:00 15.96 C 12.37 g/m*3 15.96 C 0 km/h
10 03-08-2010 09:00:00 16.78 C 11.71 g/m*3 16.78 C 0 km/h
11 03-08-2010 10:00:00 17.64 C 11.03 g/m*3 17.64 C 0 km/h
12 03-08-2010 11:00:00 18.94 C 9.58 g/m*3 18.94 C 0 km/h
13 03-08-2010 12:00:00 21.22 C 7.94 g/m*3 21.22 C 0 km/h
14 03-08-2010 13:00:00 21.34 C 7.66 g/m*3 21.34 C 0 km/h
15 03-08-2010 14:00:00 21.88 C 8.29 g/m*3 21.88 C 0 km/h
16 03-08-2010 15:00:00 24.2 C 6.29 g/m*3 24.2 C 0 km/h
17 03-08-2010 16:00:00 25.38 C 5.31 g/m*3 25.38 C 0 km/h
18 03-08-2010 17:00:00 25.84 C 4.97 g/m*3 25.84 C 0 km/h
19 03-08-2010 18:00:00 26.12 C 5.15 g/m*3 26.12 C 0 km/h
20 03-08-2010 19:00:00 23.6 C 5.91 g/m*3 23.6 C 0 km/h
21 03-08-2010 20:00:00 21.72 C 7.22 g/m*3 21.72 C 0 km/h
22 03-08-2010 21:00:00 18.32 C 7.61 g/m*3 18.32 C 0 km/h
23 03-08-2010 22:00:00 17.26 C 8.29 g/m*3 17.26 C 0 km/h
24 03-08-2010 23:00:00 16.12 C 8.51 g/m*3 16.12 C 0 km/h
25 04-08-2010 00:00:00 15.44 C 8.98 g/m*3 15.44 C 0 km/h
Sensor: Nr:Datum:Temp:Abs-Feuchte:Windchill:Wind:
Aussen-T/F 26 04-08-2010 01:00:00 15.68 C 9.22 g/m*3 15.68 C 0 km/h
27 04-08-2010 02:00:00 15.42 C 9.71 g/m*3 15.42 C 0 km/h
28 04-08-2010 03:00:00 15.36 C 9.7 g/m*3 15.36 C 0 km/h
29 04-08-2010 04:00:00 15.2 C 9.53 g/m*3 15.2 C 0 km/h
30 04-08-2010 05:00:00 15.14 C 9.57 g/m*3 15.14 C 0 km/h
31 04-08-2010 06:00:00 15.28 C 9.78 g/m*3 15.28 C 0 km/h
32 04-08-2010 07:00:00 15.88 C 10.01 g/m*3 15.88 C 0 km/h
33 04-08-2010 08:00:00 16.86 C 9.96 g/m*3 16.86 C 0 km/h
34 04-08-2010 09:00:00 18.8 C 9.86 g/m*3 18.8 C 0 km/h
35 04-08-2010 10:00:00 21.08 C 9.13 g/m*3 21.08 C 0 km/h
36 04-08-2010 11:00:00 22.5 C 8.11 g/m*3 22.5 C 0 km/h
37 04-08-2010 12:00:00 23.72 C 7.02 g/m*3 23.72 C 0 km/h
38 04-08-2010 13:00:00 24.98 C 6.39 g/m*3 24.98 C 0 km/h
39 04-08-2010 14:00:00 24.56 C 6.65 g/m*3 24.56 C 0 km/h
40 04-08-2010 15:00:00 23.88 C 6.83 g/m*3 23.88 C 0 km/h
41 04-08-2010 16:00:00 23.36 C 7.01 g/m*3 23.36 C 0 km/h
42 04-08-2010 17:00:00 23.1 C 7.23 g/m*3 23.1 C 0 km/h
43 04-08-2010 18:00:00 23.32 C 7.37 g/m*3 23.32 C 0 km/h
44 04-08-2010 19:00:00 22.44 C 7.84 g/m*3 22.44 C 0 km/h
45 04-08-2010 20:00:00 21.14 C 8.98 g/m*3 21.14 C 0 km/h
46 04-08-2010 21:00:00 20.1 C 9.11 g/m*3 20.1 C 0 km/h
47 04-08-2010 22:00:00 19.325 C 10.09 g/m*3 19.33 C 0 km/h
48 04-08-2010 23:00:00 18.32 C 11.46 g/m*3 18.32 C 0 km/h
49 05-08-2010 00:00:00 16.78 C 12.37 g/m*3 16.78 C 0 km/h
50 05-08-2010 01:00:00 16.28 C 12.44 g/m*3 16.28 C 0 km/h
Sensor: Nr:Datum:Temp:Abs-Feuchte:Windchill:Wind:
Aussen-T/F 51 05-08-2010 02:00:00 15.82 C 12.37 g/m*3 15.82 C 0 km/h
52 05-08-2010 03:00:00 15.54 C 12.3 g/m*3 15.54 C 0 km/h
53 05-08-2010 04:00:00 15.3 C 12.14 g/m*3 15.3 C 0 km/h
54 05-08-2010 05:00:00 15.32 C 12.21 g/m*3 15.32 C 0 km/h
55 05-08-2010 06:00:00 15.68 C 12.56 g/m*3 15.68 C 0 km/h
56 05-08-2010 07:00:00 15.72 C 12.57 g/m*3 15.72 C 0 km/h
57 05-08-2010 08:00:00 16.2 C 12.55 g/m*3 16.2 C 0 km/h
58 05-08-2010 09:00:00 16.84 C 11.44 g/m*3 16.84 C 0 km/h
59 05-08-2010 10:00:00 17.46 C 10.38 g/m*3 17.46 C 0 km/h
60 05-08-2010 11:00:00 18.36 C 9.67 g/m*3 18.36 C 0 km/h
61 05-08-2010 12:00:00 18.42 C 9.35 g/m*3 18.42 C 0 km/h
62 05-08-2010 13:00:00 18.98 C 8.2 g/m*3 18.98 C 0 km/h
63 05-08-2010 14:00:00 21.28 C 7.56 g/m*3 21.28 C 0 km/h
64 05-08-2010 15:00:00 23 C 6.41 g/m*3 23 C 0 km/h
65 05-08-2010 16:00:00 25.08 C 5.69 g/m*3 25.08 C 0 km/h
66 05-08-2010 17:00:00 23.98 C 5.3 g/m*3 23.98 C 0 km/h
67 05-08-2010 18:00:00 22.7 C 5.62 g/m*3 22.7 C 0 km/h
68 05-08-2010 19:00:00 21.26 C 6.17 g/m*3 21.26 C 0 km/h
69 05-08-2010 20:00:00 20.22 C 6.9 g/m*3 20.22 C 0 km/h
70 05-08-2010 21:00:00 18.94 C 7.15 g/m*3 18.94 C 0 km/h
71 05-08-2010 22:00:00 17.7 C 7.48 g/m*3 17.7 C 0 km/h
72 05-08-2010 23:00:00 17 C 8.1 g/m*3 17 C 0 km/h
73 06-08-2010 00:00:00 16.02 C 8.48 g/m*3 16.02 C 0 km/h
74 06-08-2010 01:00:00 15.26 C 8.62 g/m*3 15.26 C 0 km/h
75 06-08-2010 02:00:00 14.52 C 8.87 g/m*3 14.52 C 0 km/h
Sensor: Nr:Datum:Temp:Abs-Feuchte:Windchill:Wind:
Aussen-T/F 76 06-08-2010 03:00:00 13.96 C 8.86 g/m*3 13.96 C 0 km/h
77 06-08-2010 04:00:00 13.44 C 9.3 g/m*3 13.44 C 0 km/h
78 06-08-2010 05:00:00 12.96 C 9.34 g/m*3 12.96 C 0 km/h
79 06-08-2010 06:00:00 13.34 C 9.29 g/m*3 13.34 C 0 km/h
80 06-08-2010 07:00:00 13.18 C 9.27 g/m*3 13.18 C 0 km/h
81 06-08-2010 08:00:00 13.48 C 9.49 g/m*3 13.48 C 0 km/h
82 06-08-2010 09:00:00 15.46 C 9.44 g/m*3 15.46 C 0 km/h
83 06-08-2010 10:00:00 17.84 C 8.31 g/m*3 17.84 C 0 km/h
84 06-08-2010 11:00:00 19.84 C 7.22 g/m*3 19.84 C 0 km/h
85 06-08-2010 12:00:00 21.34 C 6.17 g/m*3 21.34 C 0 km/h
86 06-08-2010 13:00:00 23.7 C 4.79 g/m*3 23.7 C 0 km/h
87 06-08-2010 14:00:00 24.84 C 4.56 g/m*3 24.84 C 0 km/h
88 06-08-2010 15:00:00 25.28 C 4.68 g/m*3 25.28 C 0 km/h
89 06-08-2010 16:00:00 28.1 C 5.47 g/m*3 28.1 C 0 km/h
90 06-08-2010 17:00:00 24.86 C 7.63 g/m*3 24.86 C 0 km/h
91 06-08-2010 18:00:00 26.42 C 4.98 g/m*3 26.42 C 0 km/h
92 06-08-2010 19:00:00 26.2 C 4.92 g/m*3 26.2 C 0 km/h
93 06-08-2010 20:00:00 23.66 C 5.29 g/m*3 23.66 C 0 km/h
94 06-08-2010 21:00:00 19.3 C 6.14 g/m*3 19.3 C 0 km/h
95 06-08-2010 22:00:00 17.72 C 6.34 g/m*3 17.72 C 0 km/h
96 06-08-2010 23:00:00 16.4 C 6.67 g/m*3 16.4 C 0 km/h
97 07-08-2010 00:00:00 15.04 C 7.15 g/m*3 15.04 C 0 km/h
98 07-08-2010 01:00:00 13.94 C 7.55 g/m*3 13.94 C 0 km/h
99 07-08-2010 02:00:00 13 C 7.89 g/m*3 13 C 0 km/h
100 07-08-2010 03:00:00 12.32 C 7.74 g/m*3 12.32 C 0 km/h
Sensor: Nr:Datum:Temp:Abs-Feuchte:Windchill:Wind:
Aussen-T/F 101 07-08-2010 04:00:00 11.64 C 7.71 g/m*3 11.64 C 0 km/h
102 07-08-2010 05:00:00 11.06 C 7.7 g/m*3 11.06 C 0 km/h
103 07-08-2010 06:00:00 10.48 C 7.77 g/m*3 10.48 C 0 km/h
104 07-08-2010 07:00:00 10.7 C 7.96 g/m*3 10.7 C 0 km/h
105 07-08-2010 08:00:00 11.74 C 8.07 g/m*3 11.74 C 0 km/h
106 07-08-2010 09:00:00 14.06 C 8.4 g/m*3 14.06 C 0 km/h
107 07-08-2010 10:00:00 18.22 C 8.5 g/m*3 18.22 C 0 km/h
108 07-08-2010 11:00:00 21.26 C 6.36 g/m*3 21.26 C 0 km/h
109 07-08-2010 12:00:00 22.86 C 5.46 g/m*3 22.86 C 0 km/h
110 07-08-2010 13:00:00 25.48 C 4.87 g/m*3 25.48 C 0 km/h
111 07-08-2010 14:00:00 26.66 C 5.05 g/m*3 26.66 C 0 km/h
112 07-08-2010 15:00:00 27.78 C 5.37 g/m*3 27.78 C 0 km/h
113 07-08-2010 16:00:00 29.2 C 5.81 g/m*3 29.2 C 0 km/h
114 07-08-2010 17:00:00 29.3 C 5.84 g/m*3 29.3 C 0 km/h
115 07-08-2010 18:00:00 27.4 C 6.26 g/m*3 27.4 C 0 km/h
116 07-08-2010 19:00:00 25.16 C 6.83 g/m*3 25.16 C 0 km/h
117 07-08-2010 20:00:00 23.86 C 6.99 g/m*3 23.86 C 0 km/h
118 07-08-2010 21:00:00 22.46 C 7.05 g/m*3 22.46 C 0 km/h
119 07-08-2010 22:00:00 21.96 C 7.4 g/m*3 21.96 C 0 km/h
120 07-08-2010 23:00:00 21.6 C 7.74 g/m*3 21.6 C 0 km/h
121 08-08-2010 00:00:00 21.04 C 8.12 g/m*3 21.04 C 0 km/h
122 08-08-2010 01:00:00 20.16 C 8.44 g/m*3 20.16 C 0 km/h
123 08-08-2010 02:00:00 19.82 C 9.44 g/m*3 19.82 C 0 km/h
124 08-08-2010 03:00:00 18.68 C 10.01 g/m*3 18.68 C 0 km/h
125 08-08-2010 04:00:00 18.36 C 10.39 g/m*3 18.36 C 0 km/h
Sensor: Nr:Datum:Temp:Abs-Feuchte:Windchill:Wind:
Aussen-T/F 126 08-08-2010 05:00:00 17.56 C 11.46 g/m*3 17.56 C 0 km/h
127 08-08-2010 06:00:00 16.68 C 12.49 g/m*3 16.68 C 0 km/h
128 08-08-2010 07:00:00 16.66 C 12.96 g/m*3 16.66 C 0 km/h
129 08-08-2010 08:00:00 17.2 C 13.47 g/m*3 17.2 C 0 km/h
130 08-08-2010 09:00:00 17.64 C 13.35 g/m*3 17.64 C 0 km/h
131 08-08-2010 10:00:00 18.46 C 12.66 g/m*3 18.46 C 0 km/h
132 08-08-2010 11:00:00 16.48 C 12.15 g/m*3 16.48 C 0 km/h
133 08-08-2010 12:00:00 16.58 C 12.56 g/m*3 16.58 C 0 km/h
134 08-08-2010 13:00:00 17.16 C 12.86 g/m*3 17.16 C 0 km/h
135 08-08-2010 14:00:00 18.98 C 12.57 g/m*3 18.98 C 0 km/h
136 08-08-2010 15:00:00 20.18 C 12.5 g/m*3 20.18 C 0 km/h
137 08-08-2010 16:00:00 19.94 C 12.36 g/m*3 19.94 C 0 km/h
138 08-08-2010 17:00:00 21.68 C 12 g/m*3 21.68 C 0 km/h
139 08-08-2010 18:00:00 21.42 C 10.21 g/m*3 21.42 C 0 km/h
140 08-08-2010 19:00:00 19.98 C 10.77 g/m*3 19.98 C 0 km/h
141 08-08-2010 20:00:00 17.72 C 11.81 g/m*3 17.72 C 0 km/h
142 08-08-2010 21:00:00 17.46 C 11.42 g/m*3 17.46 C 0 km/h
143 08-08-2010 22:00:00 17.1 C 11.5 g/m*3 17.1 C 0 km/h
144 08-08-2010 23:00:00 16.7 C 11.68 g/m*3 16.7 C 0 km/h
145 09-08-2010 00:00:00 16.42 C 12.05 g/m*3 16.42 C 0 km/h
146 09-08-2010 01:00:00 16.44 C 12.17 g/m*3 16.44 C 0 km/h
147 09-08-2010 02:00:00 15.6 C 11.68 g/m*3 15.6 C 0 km/h
148 09-08-2010 03:00:00 15.6 C 11.7 g/m*3 15.6 C 0 km/h
149 09-08-2010 04:00:00 15.74 C 11.4 g/m*3 15.74 C 0 km/h
150 09-08-2010 05:00:00 14.84 C 10.97 g/m*3 14.84 C 0 km/h
Sensor: Nr:Datum:Temp:Abs-Feuchte:Windchill:Wind:
Aussen-T/F 151 09-08-2010 06:00:00 14.6 C 11.31 g/m*3 14.6 C 0 km/h
152 09-08-2010 07:00:00 14.6 C 11.34 g/m*3 14.6 C 0 km/h
153 09-08-2010 08:00:00 15.22 C 11.05 g/m*3 15.22 C 0 km/h
154 09-08-2010 09:00:00 15.8 C 10.82 g/m*3 15.8 C 0 km/h
155 09-08-2010 10:00:00 17.4 C 10.55 g/m*3 17.4 C 0 km/h
156 09-08-2010 11:00:00 19.6 C 9.25 g/m*3 19.6 C 0 km/h
157 09-08-2010 12:00:00 21.3 C 8.61 g/m*3 21.3 C 0 km/h
158 09-08-2010 13:00:00 24.36 C 8.17 g/m*3 24.36 C 0 km/h
159 09-08-2010 14:00:00 24.1 C 7.83 g/m*3 24.1 C 0 km/h
160 09-08-2010 15:00:00 25.54 C 7.59 g/m*3 25.54 C 0 km/h
161 09-08-2010 16:00:00 26.18 C 6.84 g/m*3 26.18 C 0 km/h
162 09-08-2010 17:00:00 26.22 C 8.08 g/m*3 26.22 C 0 km/h
163 09-08-2010 18:00:00 27.5 C 7.88 g/m*3 27.5 C 0 km/h
164 09-08-2010 19:00:00 23.52 C 8.81 g/m*3 23.52 C 0 km/h
165 09-08-2010 20:00:00 21.26 C 8.55 g/m*3 21.26 C 0 km/h
166 09-08-2010 21:00:00 19.76 C 8.79 g/m*3 19.76 C 0 km/h
167 09-08-2010 22:00:00 18.64 C 8.97 g/m*3 18.64 C 0 km/h
168 09-08-2010 23:00:00 18.12 C 9.25 g/m*3 18.12 C 0 km/h
169 10-08-2010 00:00:00 17.62 C 9.79 g/m*3 17.62 C 0 km/h
170 10-08-2010 01:00:00 17.52 C 10.15 g/m*3 17.52 C 0 km/h
171 10-08-2010 02:00:00 17.38 C 10.04 g/m*3 17.38 C 0 km/h
172 10-08-2010 03:00:00 17.14 C 10.1 g/m*3 17.14 C 0 km/h
173 10-08-2010 04:00:00 16.86 C 10.24 g/m*3 16.86 C 0 km/h
174 10-08-2010 05:00:00 15.62 C 10.09 g/m*3 15.62 C 0 km/h
175 10-08-2010 06:00:00 14.66 C 9.92 g/m*3 14.66 C 0 km/h
Sensor: Nr:Datum:Temp:Abs-Feuchte:Windchill:Wind:
Aussen-T/F 176 10-08-2010 07:00:00 14.88 C 10.31 g/m*3 14.88 C 0 km/h
177 10-08-2010 08:00:00 15.84 C 10.71 g/m*3 15.84 C 0 km/h
178 10-08-2010 09:00:00 18.2 C 10.6 g/m*3 18.2 C 0 km/h
179 10-08-2010 10:00:00 20.92 C 11.01 g/m*3 20.92 C 0 km/h
180 10-08-2010 11:00:00 23.74 C 9.52 g/m*3 23.74 C 0 km/h
181 10-08-2010 12:00:00 25.9 C 6.83 g/m*3 25.9 C 0 km/h
182 10-08-2010 13:00:00 28.16 C 5.98 g/m*3 28.16 C 0 km/h
183 10-08-2010 14:00:00 29.04 C 6.22 g/m*3 29.04 C 0 km/h
184 10-08-2010 15:00:00 28.46 C 7.36 g/m*3 28.46 C 0 km/h
185 10-08-2010 16:00:00 29.88 C 6.51 g/m*3 29.88 C 0 km/h
186 10-08-2010 17:00:00 29.94 C 6.47 g/m*3 29.94 C 0 km/h
187 10-08-2010 18:00:00 29.68 C 6.74 g/m*3 29.68 C 0 km/h
188 10-08-2010 19:00:00 26.94 C 8.16 g/m*3 26.94 C 0 km/h
189 10-08-2010 20:00:00 24.76 C 8.27 g/m*3 24.76 C 0 km/h
190 10-08-2010 21:00:00 23.36 C 8.77 g/m*3 23.36 C 0 km/h
191 10-08-2010 22:00:00 22.86 C 8.93 g/m*3 22.86 C 0 km/h
192 10-08-2010 23:00:00 21.9 C 9.26 g/m*3 21.9 C 0 km/h
193 11-08-2010 00:00:00 21.46 C 9.67 g/m*3 21.46 C 0 km/h
194 11-08-2010 01:00:00 20.54 C 10.56 g/m*3 20.54 C 0 km/h
195 11-08-2010 02:00:00 18.38 C 12.32 g/m*3 18.38 C 0 km/h
196 11-08-2010 03:00:00 17.64 C 13.14 g/m*3 17.64 C 0 km/h
197 11-08-2010 04:00:00 17.52 C 13.4 g/m*3 17.52 C 0 km/h
198 11-08-2010 05:00:00 17.42 C 13.24 g/m*3 17.42 C 0 km/h
199 11-08-2010 06:00:00 17.4 C 13.04 g/m*3 17.4 C 0 km/h
200 11-08-2010 07:00:00 17.62 C 13.03 g/m*3 17.62 C 0 km/h
Sensor: Nr:Datum:Temp:Abs-Feuchte:Windchill:Wind:
Aussen-T/F 201 11-08-2010 08:00:00 18.68 C 13.02 g/m*3 18.68 C 0 km/h
202 11-08-2010 09:00:00 19.64 C 11.51 g/m*3 19.64 C 0 km/h
203 11-08-2010 10:00:00 20.8 C 11.08 g/m*3 20.8 C 0 km/h
204 11-08-2010 11:00:00 20.62 C 11.18 g/m*3 20.62 C 0 km/h
205 11-08-2010 12:00:00 22.46 C 11 g/m*3 22.46 C 0 km/h
206 11-08-2010 13:00:00 23.8 C 10.37 g/m*3 23.8 C 0 km/h
207 11-08-2010 14:00:00 24.4 C 10.1 g/m*3 24.4 C 0 km/h
208 11-08-2010 15:00:00 25.56 C 9.88 g/m*3 25.56 C 0 km/h
209 11-08-2010 16:00:00 22.88 C 12 g/m*3 22.88 C 0 km/h
210 11-08-2010 17:00:00 21.74 C 14 g/m*3 21.74 C 0 km/h
211 11-08-2010 18:00:00 22.86 C 14.31 g/m*3 22.86 C 0 km/h
212 11-08-2010 19:00:00 21.28 C 13.7 g/m*3 21.28 C 0 km/h
213 11-08-2010 20:00:00 19.56 C 13.57 g/m*3 19.56 C 0 km/h
214 11-08-2010 21:00:00 18.84 C 14.4 g/m*3 18.84 C 0 km/h
215 11-08-2010 22:00:00 18.48 C 14.38 g/m*3 18.48 C 0 km/h
216 11-08-2010 23:00:00 18.3 C 14.38 g/m*3 18.3 C 0 km/h
217 12-08-2010 00:00:00 17.88 C 14.27 g/m*3 17.88 C 0 km/h
218 12-08-2010 01:00:00 17.52 C 14.03 g/m*3 17.52 C 0 km/h
219 12-08-2010 02:00:00 17.16 C 13.73 g/m*3 17.16 C 0 km/h
220 12-08-2010 03:00:00 16.86 C 13.49 g/m*3 16.86 C 0 km/h
221 12-08-2010 04:00:00 16.46 C 13.22 g/m*3 16.46 C 0 km/h
222 12-08-2010 05:00:00 16.48 C 13.3 g/m*3 16.48 C 0 km/h
223 12-08-2010 06:00:00 16.72 C 13.52 g/m*3 16.72 C 0 km/h
224 12-08-2010 07:00:00 16.86 C 13.6 g/m*3 16.86 C 0 km/h
225 12-08-2010 08:00:00 16.64 C 12.89 g/m*3 16.64 C 0 km/h
Sensor: Nr:Datum:Temp:Abs-Feuchte:Windchill:Wind:
Aussen-T/F 226 12-08-2010 09:00:00 17.72 C 13.44 g/m*3 17.72 C 0 km/h
227 12-08-2010 10:00:00 18.58 C 12.24 g/m*3 18.58 C 0 km/h
228 12-08-2010 11:00:00 18.62 C 12.17 g/m*3 18.62 C 0 km/h
229 12-08-2010 12:00:00 19.56 C 11.25 g/m*3 19.56 C 0 km/h
230 12-08-2010 13:00:00 20.26 C 9.58 g/m*3 20.26 C 0 km/h
231 12-08-2010 14:00:00 20.3 C 9.04 g/m*3 20.3 C 0 km/h
232 12-08-2010 15:00:00 23.02 C 8.4 g/m*3 23.02 C 0 km/h
233 12-08-2010 16:00:00 22.56 C 7.14 g/m*3 22.56 C 0 km/h
234 12-08-2010 17:00:00 25.42 C 5.89 g/m*3 25.42 C 0 km/h
235 12-08-2010 18:00:00 23.3 C 6.65 g/m*3 23.3 C 0 km/h
236 12-08-2010 19:00:00 21.68 C 8.23 g/m*3 21.68 C 0 km/h
237 12-08-2010 20:00:00 20.1 C 8.45 g/m*3 20.1 C 0 km/h
238 12-08-2010 21:00:00 19.14 C 7.99 g/m*3 19.14 C 0 km/h
239 12-08-2010 22:00:00 18.44 C 8.58 g/m*3 18.44 C 0 km/h
240 12-08-2010 23:00:00 17.34 C 9.19 g/m*3 17.34 C 0 km/h
241 13-08-2010 00:00:00 16.82 C 9.42 g/m*3 16.82 C 0 km/h
242 13-08-2010 01:00:00 16.18 C 9.26 g/m*3 16.18 C 0 km/h
243 13-08-2010 02:00:00 15.82 C 9.68 g/m*3 15.82 C 0 km/h
244 13-08-2010 03:00:00 15.34 C 9.84 g/m*3 15.34 C 0 km/h
245 13-08-2010 04:00:00 15.04 C 10 g/m*3 15.04 C 0 km/h
246 13-08-2010 05:00:00 14.76 C 9.98 g/m*3 14.76 C 0 km/h
247 13-08-2010 06:00:00 14.7 C 10.05 g/m*3 14.7 C 0 km/h
248 13-08-2010 07:00:00 15.02 C 10.12 g/m*3 15.02 C 0 km/h
249 13-08-2010 08:00:00 15.16 C 10.33 g/m*3 15.16 C 0 km/h
250 13-08-2010 09:00:00 16.26 C 10.3 g/m*3 16.26 C 0 km/h
Sensor: Nr:Datum:Temp:Abs-Feuchte:Windchill:Wind:
Aussen-T/F 251 13-08-2010 10:00:00 18.84 C 9.65 g/m*3 18.84 C 0 km/h
252 13-08-2010 11:00:00 21.24 C 8.4 g/m*3 21.24 C 0 km/h
253 13-08-2010 12:00:00 22.2 C 7.74 g/m*3 22.2 C 0 km/h
254 13-08-2010 13:00:00 23 C 6.99 g/m*3 23 C 0 km/h
255 13-08-2010 14:00:00 23.92 C 6.5 g/m*3 23.92 C 0 km/h
256 13-08-2010 15:00:00 24.42 C 6.02 g/m*3 24.42 C 0 km/h
257 13-08-2010 16:00:00 24.24 C 6.75 g/m*3 24.24 C 0 km/h
258 13-08-2010 17:00:00 23.66 C 7.43 g/m*3 23.66 C 0 km/h
259 13-08-2010 18:00:00 22.5 C 8.15 g/m*3 22.5 C 0 km/h
260 13-08-2010 19:00:00 21.84 C 7.88 g/m*3 21.84 C 0 km/h
261 13-08-2010 20:00:00 19.9 C 7.94 g/m*3 19.9 C 0 km/h
262 13-08-2010 21:00:00 17.66 C 7.83 g/m*3 17.66 C 0 km/h
263 13-08-2010 22:00:00 16.72 C 8.2 g/m*3 16.72 C 0 km/h
264 13-08-2010 23:00:00 15.44 C 8.64 g/m*3 15.44 C 0 km/h
265 14-08-2010 00:00:00 14.7 C 8.91 g/m*3 14.7 C 0 km/h
266 14-08-2010 01:00:00 13.98 C 9.11 g/m*3 13.98 C 0 km/h
267 14-08-2010 02:00:00 13.32 C 9 g/m*3 13.32 C 0 km/h
268 14-08-2010 03:00:00 12.6 C 8.87 g/m*3 12.6 C 0 km/h
269 14-08-2010 04:00:00 12.06 C 8.75 g/m*3 12.06 C 0 km/h
270 14-08-2010 05:00:00 11.62 C 8.76 g/m*3 11.62 C 0 km/h
271 14-08-2010 06:00:00 11.12 C 8.73 g/m*3 11.12 C 0 km/h
272 14-08-2010 07:00:00 11.28 C 8.9 g/m*3 11.28 C 0 km/h
273 14-08-2010 08:00:00 12.32 C 9.42 g/m*3 12.32 C 0 km/h
274 14-08-2010 09:00:00 14.4 C 9.94 g/m*3 14.4 C 0 km/h
275 14-08-2010 10:00:00 17.62 C 10.39 g/m*3 17.62 C 0 km/h
Sensor: Nr:Datum:Temp:Abs-Feuchte:Windchill:Wind:
Aussen-T/F 276 14-08-2010 11:00:00 20.68 C 10.36 g/m*3 20.68 C 0 km/h
277 14-08-2010 12:00:00 22.96 C 9.19 g/m*3 22.96 C 0 km/h
278 14-08-2010 13:00:00 26.24 C 7.4 g/m*3 26.24 C 0 km/h
279 14-08-2010 14:00:00 27.62 C 6.98 g/m*3 27.62 C 0 km/h
280 14-08-2010 15:00:00 28.04 C 6.7 g/m*3 28.04 C 0 km/h
281 14-08-2010 16:00:00 30.1 C 6.46 g/m*3 30.1 C 0 km/h
282 14-08-2010 17:00:00 30.88 C 6.36 g/m*3 30.88 C 0 km/h
283 14-08-2010 18:00:00 31.22 C 6.48 g/m*3 31.22 C 0 km/h
284 14-08-2010 19:00:00 27.86 C 7.56 g/m*3 27.86 C 0 km/h
285 14-08-2010 20:00:00 24.86 C 8.18 g/m*3 24.86 C 0 km/h
286 14-08-2010 21:00:00 22.14 C 8.73 g/m*3 22.14 C 0 km/h
287 14-08-2010 22:00:00 21.24 C 9.14 g/m*3 21.24 C 0 km/h
288 14-08-2010 23:00:00 20.36 C 9.14 g/m*3 20.36 C 0 km/h
289 15-08-2010 00:00:00 19.74 C 8.82 g/m*3 19.74 C 0 km/h
290 15-08-2010 01:00:00 19.38 C 8.73 g/m*3 19.38 C 0 km/h
291 15-08-2010 02:00:00 18.98 C 8.98 g/m*3 18.98 C 0 km/h
292 15-08-2010 03:00:00 18.6 C 9.29 g/m*3 18.6 C 0 km/h
293 15-08-2010 04:00:00 18.14 C 9.14 g/m*3 18.14 C 0 km/h
294 15-08-2010 05:00:00 18.06 C 8.88 g/m*3 18.06 C 0 km/h
295 15-08-2010 06:00:00 17.9 C 9.04 g/m*3 17.9 C 0 km/h
296 15-08-2010 07:00:00 17.1 C 9.69 g/m*3 17.1 C 0 km/h
297 15-08-2010 08:00:00 15.24 C 11.48 g/m*3 15.24 C 0 km/h
298 15-08-2010 09:00:00 15.2 C 11.99 g/m*3 15.2 C 0 km/h
299 15-08-2010 10:00:00 15.48 C 12.44 g/m*3 15.48 C 0 km/h
300 15-08-2010 11:00:00 15.82 C 12.8 g/m*3 15.82 C 0 km/h
Sensor: Nr:Datum:Temp:Abs-Feuchte:Windchill:Wind:
Aussen-T/F 301 15-08-2010 12:00:00 16.04 C 12.97 g/m*3 16.04 C 0 km/h
302 15-08-2010 13:00:00 16.14 C 13.05 g/m*3 16.14 C 0 km/h
303 15-08-2010 14:00:00 16.44 C 13.29 g/m*3 16.44 C 0 km/h
304 15-08-2010 15:00:00 16.4 C 13.26 g/m*3 16.4 C 0 km/h
305 15-08-2010 16:00:00 16.48 C 13.32 g/m*3 16.48 C 0 km/h
306 15-08-2010 17:00:00 16.68 C 13.48 g/m*3 16.68 C 0 km/h
307 15-08-2010 18:00:00 16.6 C 13.42 g/m*3 16.6 C 0 km/h
308 15-08-2010 19:00:00 16.6 C 13.42 g/m*3 16.6 C 0 km/h
309 15-08-2010 20:00:00 16.38 C 13.24 g/m*3 16.38 C 0 km/h
310 15-08-2010 21:00:00 16.24 C 13.13 g/m*3 16.24 C 0 km/h
311 15-08-2010 22:00:00 16.14 C 13.05 g/m*3 16.14 C 0 km/h
312 15-08-2010 23:00:00 15.5 C 12.56 g/m*3 15.5 C 0 km/h
313 16-08-2010 00:00:00 14.9 C 12.11 g/m*3 14.9 C 0 km/h
314 16-08-2010 01:00:00 14.72 C 11.87 g/m*3 14.72 C 0 km/h
315 16-08-2010 02:00:00 14.6 C 11.61 g/m*3 14.6 C 0 km/h
316 16-08-2010 03:00:00 14.6 C 11.64 g/m*3 14.6 C 0 km/h
317 16-08-2010 04:00:00 14.5 C 11.34 g/m*3 14.5 C 0 km/h
318 16-08-2010 05:00:00 14.5 C 11.39 g/m*3 14.5 C 0 km/h
319 16-08-2010 06:00:00 14.54 C 11.37 g/m*3 14.54 C 0 km/h
320 16-08-2010 07:00:00 14.84 C 11.45 g/m*3 14.84 C 0 km/h
321 16-08-2010 08:00:00 15.92 C 11.44 g/m*3 15.92 C 0 km/h
322 16-08-2010 09:00:00 17.4 C 11.09 g/m*3 17.4 C 0 km/h
323 16-08-2010 10:00:00 17.2 C 10.84 g/m*3 17.2 C 0 km/h
324 16-08-2010 11:00:00 17.7 C 11.09 g/m*3 17.7 C 0 km/h
325 16-08-2010 12:00:00 17.76 C 11.45 g/m*3 17.76 C 0 km/h
Sensor: Nr:Datum:Temp:Abs-Feuchte:Windchill:Wind:
Aussen-T/F 326 16-08-2010 13:00:00 18.38 C 10.59 g/m*3 18.38 C 0 km/h
327 16-08-2010 14:00:00 19.88 C 9.88 g/m*3 19.88 C 0 km/h
328 16-08-2010 15:00:00 19.72 C 9.42 g/m*3 19.72 C 0 km/h
329 16-08-2010 16:00:00 19.76 C 9.75 g/m*3 19.76 C 0 km/h
330 16-08-2010 17:00:00 19.96 C 9.79 g/m*3 19.96 C 0 km/h
331 16-08-2010 18:00:00 19.76 C 9.65 g/m*3 19.76 C 0 km/h
332 16-08-2010 19:00:00 18.6 C 10.06 g/m*3 18.6 C 0 km/h
333 16-08-2010 20:00:00 17.9 C 10.63 g/m*3 17.9 C 0 km/h
334 16-08-2010 21:00:00 17.44 C 11.32 g/m*3 17.44 C 0 km/h
335 16-08-2010 22:00:00 17.58 C 11.83 g/m*3 17.58 C 0 km/h
336 16-08-2010 23:00:00 17.76 C 12.05 g/m*3 17.76 C 0 km/h
337 17-08-2010 00:00:00 17.62 C 11.95 g/m*3 17.62 C 0 km/h
338 17-08-2010 01:00:00 16.68 C 12.29 g/m*3 16.68 C 0 km/h
339 17-08-2010 02:00:00 16.48 C 12.37 g/m*3 16.48 C 0 km/h
340 17-08-2010 03:00:00 16.42 C 11.79 g/m*3 16.42 C 0 km/h
341 17-08-2010 04:00:00 16.42 C 11.18 g/m*3 16.42 C 0 km/h
342 17-08-2010 05:00:00 15.62 C 11.34 g/m*3 15.62 C 0 km/h
343 17-08-2010 06:00:00 15.84 C 11.23 g/m*3 15.84 C 0 km/h
344 17-08-2010 07:00:00 16.36 C 10.83 g/m*3 16.36 C 0 km/h
345 17-08-2010 08:00:00 16.72 C 10.33 g/m*3 16.72 C 0 km/h
346 17-08-2010 09:00:00 16.98 C 9.65 g/m*3 16.98 C 0 km/h
347 17-08-2010 10:00:00 17.06 C 9.35 g/m*3 17.06 C 0 km/h
348 17-08-2010 11:00:00 17.58 C 9.2 g/m*3 17.58 C 0 km/h
349 17-08-2010 12:00:00 16.62 C 10.13 g/m*3 16.62 C 0 km/h
350 17-08-2010 13:00:00 17.3 C 11.73 g/m*3 17.3 C 0 km/h
Sensor: Nr:Datum:Temp:Abs-Feuchte:Windchill:Wind:
Aussen-T/F 351 17-08-2010 14:00:00 17.74 C 9.16 g/m*3 17.74 C 0 km/h
352 17-08-2010 15:00:00 17.08 C 8.75 g/m*3 17.08 C 0 km/h
353 17-08-2010 16:00:00 14.7 C 9.74 g/m*3 14.7 C 0 km/h
354 17-08-2010 17:00:00 14.42 C 9.98 g/m*3 14.42 C 0 km/h
355 17-08-2010 18:00:00 14.8 C 11 g/m*3 14.8 C 0 km/h
356 17-08-2010 19:00:00 14.84 C 11.05 g/m*3 14.84 C 0 km/h
357 17-08-2010 20:00:00 14.32 C 11.02 g/m*3 14.32 C 0 km/h
358 17-08-2010 21:00:00 14.38 C 11.31 g/m*3 14.38 C 0 km/h
359 17-08-2010 22:00:00 14.62 C 10.75 g/m*3 14.62 C 0 km/h
360 17-08-2010 23:00:00 15 C 10.05 g/m*3 15 C 0 km/h
361 18-08-2010 00:00:00 15.52 C 9.66 g/m*3 15.52 C 0 km/h
362 18-08-2010 01:00:00 15.76 C 9.43 g/m*3 15.76 C 0 km/h
363 18-08-2010 02:00:00 15.54 C 9.43 g/m*3 15.54 C 0 km/h
364 18-08-2010 03:00:00 15.46 C 9.49 g/m*3 15.46 C 0 km/h
365 18-08-2010 04:00:00 15.2 C 9.55 g/m*3 15.2 C 0 km/h
366 18-08-2010 05:00:00 14.96 C 9.8 g/m*3 14.96 C 0 km/h
367 18-08-2010 06:00:00 15.08 C 9.56 g/m*3 15.08 C 0 km/h
368 18-08-2010 07:00:00 15.44 C 9.69 g/m*3 15.44 C 0 km/h
369 18-08-2010 08:00:00 16.16 C 9.88 g/m*3 16.16 C 0 km/h
370 18-08-2010 09:00:00 17.1 C 10.16 g/m*3 17.1 C 0 km/h
371 18-08-2010 10:00:00 18.16 C 10.2 g/m*3 18.16 C 0 km/h
372 18-08-2010 11:00:00 18.7 C 10.18 g/m*3 18.7 C 0 km/h
373 18-08-2010 12:00:00 18.82 C 10.67 g/m*3 18.82 C 0 km/h
374 18-08-2010 13:00:00 20.8 C 10.25 g/m*3 20.8 C 0 km/h
375 18-08-2010 14:00:00 22.84 C 9.04 g/m*3 22.84 C 0 km/h
Sensor: Nr:Datum:Temp:Abs-Feuchte:Windchill:Wind:
Aussen-T/F 376 18-08-2010 15:00:00 22.24 C 9.01 g/m*3 22.24 C 0 km/h
377 18-08-2010 16:00:00 23.68 C 9.02 g/m*3 23.68 C 0 km/h
378 18-08-2010 17:00:00 23.88 C 8.86 g/m*3 23.88 C 0 km/h
379 18-08-2010 18:00:00 22.36 C 9.15 g/m*3 22.36 C 0 km/h
380 18-08-2010 19:00:00 20.68 C 9.35 g/m*3 20.68 C 0 km/h
381 18-08-2010 20:00:00 19.44 C 10 g/m*3 19.44 C 0 km/h
382 18-08-2010 21:00:00 18.82 C 10.19 g/m*3 18.82 C 0 km/h
383 18-08-2010 22:00:00 17.6 C 10.59 g/m*3 17.6 C 0 km/h
384 18-08-2010 23:00:00 17.58 C 10.19 g/m*3 17.58 C 0 km/h
385 19-08-2010 00:00:00 17.36 C 9.14 g/m*3 17.36 C 0 km/h
386 19-08-2010 01:00:00 16.86 C 9.18 g/m*3 16.86 C 0 km/h
387 19-08-2010 02:00:00 16.32 C 8.81 g/m*3 16.32 C 0 km/h
388 19-08-2010 03:00:00 15.9 C 9.21 g/m*3 15.9 C 0 km/h
389 19-08-2010 04:00:00 15.54 C 9.38 g/m*3 15.54 C 0 km/h
390 19-08-2010 05:00:00 15.1 C 9.31 g/m*3 15.1 C 0 km/h
391 19-08-2010 06:00:00 14.18 C 8.9 g/m*3 14.18 C 0 km/h
392 19-08-2010 07:00:00 13.92 C 8.21 g/m*3 13.92 C 0 km/h
393 19-08-2010 08:00:00 14.78 C 8.05 g/m*3 14.78 C 0 km/h
394 19-08-2010 09:00:00 15.72 C 8.06 g/m*3 15.72 C 0 km/h
395 19-08-2010 10:00:00 17.9 C 7.7 g/m*3 17.9 C 0 km/h
396 19-08-2010 11:00:00 20 C 7.26 g/m*3 20 C 0 km/h
397 19-08-2010 12:00:00 21.44 C 6.65 g/m*3 21.44 C 0 km/h
398 19-08-2010 13:00:00 22.64 C 6.16 g/m*3 22.64 C 0 km/h
399 19-08-2010 14:00:00 23.04 C 6.02 g/m*3 23.04 C 0 km/h
400 19-08-2010 15:00:00 23.74 C 6.22 g/m*3 23.74 C 0 km/h
Sensor: Nr:Datum:Temp:Abs-Feuchte:Windchill:Wind:
Aussen-T/F 401 19-08-2010 16:00:00 23.28 C 7.64 g/m*3 23.28 C 0 km/h
402 19-08-2010 17:00:00 23.9 C 7.53 g/m*3 23.9 C 0 km/h
403 19-08-2010 18:00:00 25.42 C 5.75 g/m*3 25.42 C 0 km/h
404 19-08-2010 19:00:00 25.24 C 6.63 g/m*3 25.24 C 0 km/h
405 19-08-2010 20:00:00 20.5 C 7.15 g/m*3 20.5 C 0 km/h
406 19-08-2010 21:00:00 18.08 C 7.78 g/m*3 18.08 C 0 km/h
407 19-08-2010 22:00:00 16.86 C 8.01 g/m*3 16.86 C 0 km/h
408 19-08-2010 23:00:00 15.62 C 8.36 g/m*3 15.62 C 0 km/h
409 20-08-2010 00:00:00 14.72 C 8.55 g/m*3 14.72 C 0 km/h
410 20-08-2010 01:00:00 14.04 C 8.61 g/m*3 14.04 C 0 km/h
411 20-08-2010 02:00:00 13.34 C 8.59 g/m*3 13.34 C 0 km/h
412 20-08-2010 03:00:00 12.8 C 8.62 g/m*3 12.8 C 0 km/h
413 20-08-2010 04:00:00 12.26 C 8.58 g/m*3 12.26 C 0 km/h
414 20-08-2010 05:00:00 11.9 C 8.56 g/m*3 11.9 C 0 km/h
415 20-08-2010 06:00:00 11.48 C 8.54 g/m*3 11.48 C 0 km/h
416 20-08-2010 07:00:00 11.76 C 8.78 g/m*3 11.76 C 0 km/h
417 20-08-2010 08:00:00 12.54 C 9.19 g/m*3 12.54 C 0 km/h
418 20-08-2010 09:00:00 14.5 C 9.85 g/m*3 14.5 C 0 km/h
419 20-08-2010 10:00:00 18.02 C 10.3 g/m*3 18.02 C 0 km/h
420 20-08-2010 11:00:00 20.98 C 10.87 g/m*3 20.98 C 0 km/h
421 20-08-2010 12:00:00 23.76 C 10.86 g/m*3 23.76 C 0 km/h
422 20-08-2010 13:00:00 26.76 C 9.04 g/m*3 26.76 C 0 km/h
423 20-08-2010 14:00:00 28.36 C 7.82 g/m*3 28.36 C 0 km/h
424 20-08-2010 15:00:00 29.54 C 7.45 g/m*3 29.54 C 0 km/h
425 20-08-2010 16:00:00 30.72 C 7.57 g/m*3 30.72 C 0 km/h
Sensor: Nr:Datum:Temp:Abs-Feuchte:Windchill:Wind:
Aussen-T/F 426 20-08-2010 17:00:00 31.16 C 7.29 g/m*3 31.16 C 0 km/h
427 20-08-2010 18:00:00 31.22 C 7.64 g/m*3 31.22 C 0 km/h
428 20-08-2010 19:00:00 29.58 C 8.42 g/m*3 29.58 C 0 km/h
429 20-08-2010 20:00:00 25.1 C 9.07 g/m*3 25.1 C 0 km/h
430 20-08-2010 21:00:00 23.08 C 9.58 g/m*3 23.08 C 0 km/h
431 20-08-2010 22:00:00 22.025 C 10.2 g/m*3 22.03 C 0 km/h
432 20-08-2010 23:00:00 20.9 C 10.64 g/m*3 20.9 C 0 km/h
433 21-08-2010 00:00:00 19.76 C 10.77 g/m*3 19.76 C 0 km/h
434 21-08-2010 01:00:00 18.84 C 11.01 g/m*3 18.84 C 0 km/h
435 21-08-2010 02:00:00 18.16 C 11.04 g/m*3 18.16 C 0 km/h
436 21-08-2010 03:00:00 17.66 C 11.11 g/m*3 17.66 C 0 km/h
437 21-08-2010 04:00:00 17.06 C 11.12 g/m*3 17.06 C 0 km/h
438 21-08-2010 05:00:00 16.46 C 10.95 g/m*3 16.46 C 0 km/h
439 21-08-2010 06:00:00 16.04 C 10.9 g/m*3 16.04 C 0 km/h
440 21-08-2010 07:00:00 16 C 11.06 g/m*3 16 C 0 km/h
441 21-08-2010 08:00:00 16.78 C 11.54 g/m*3 16.78 C 0 km/h
442 21-08-2010 09:00:00 18.42 C 12.22 g/m*3 18.42 C 0 km/h
443 21-08-2010 10:00:00 21.4 C 12.86 g/m*3 21.4 C 0 km/h
444 21-08-2010 11:00:00 24.76 C 12.17 g/m*3 24.76 C 0 km/h
445 21-08-2010 12:00:00 27.54 C 9.81 g/m*3 27.54 C 0 km/h
446 21-08-2010 13:00:00 29.12 C 9.19 g/m*3 29.12 C 0 km/h
447 21-08-2010 14:00:00 30.42 C 8.69 g/m*3 30.42 C 0 km/h
448 21-08-2010 15:00:00 31.28 C 8.51 g/m*3 31.28 C 0 km/h
449 21-08-2010 16:00:00 32.14 C 7.89 g/m*3 32.14 C 0 km/h
450 21-08-2010 17:00:00 32.38 C 7.58 g/m*3 32.38 C 0 km/h
Sensor: Nr:Datum:Temp:Abs-Feuchte:Windchill:Wind:
Aussen-T/F 451 21-08-2010 18:00:00 32.42 C 7.39 g/m*3 32.42 C 0 km/h
452 21-08-2010 19:00:00 31.66 C 7.96 g/m*3 31.66 C 0 km/h
453 21-08-2010 20:00:00 28.82 C 9.33 g/m*3 28.82 C 0 km/h
454 21-08-2010 21:00:00 25.72 C 10.26 g/m*3 25.72 C 0 km/h
455 21-08-2010 22:00:00 24.34 C 10.87 g/m*3 24.34 C 0 km/h
456 21-08-2010 23:00:00 23.16 C 11.24 g/m*3 23.16 C 0 km/h
457 22-08-2010 00:00:00 22 C 11.45 g/m*3 22 C 0 km/h
458 22-08-2010 01:00:00 21.04 C 11.68 g/m*3 21.04 C 0 km/h
459 22-08-2010 02:00:00 20.14 C 11.88 g/m*3 20.14 C 0 km/h
460 22-08-2010 03:00:00 19.52 C 12.1 g/m*3 19.52 C 0 km/h
461 22-08-2010 04:00:00 19.16 C 12.11 g/m*3 19.16 C 0 km/h
462 22-08-2010 05:00:00 18.54 C 12.08 g/m*3 18.54 C 0 km/h
463 22-08-2010 06:00:00 18 C 12.01 g/m*3 18 C 0 km/h
464 22-08-2010 07:00:00 18.3 C 12.2 g/m*3 18.3 C 0 km/h
465 22-08-2010 08:00:00 18.96 C 12.62 g/m*3 18.96 C 0 km/h
466 22-08-2010 09:00:00 20.32 C 12.64 g/m*3 20.32 C 0 km/h
467 22-08-2010 10:00:00 23.1 C 12.69 g/m*3 23.1 C 0 km/h
468 22-08-2010 11:00:00 24.88 C 12.71 g/m*3 24.88 C 0 km/h
469 22-08-2010 12:00:00 27.46 C 11.67 g/m*3 27.46 C 0 km/h
470 22-08-2010 13:00:00 28.44 C 10.53 g/m*3 28.44 C 0 km/h
471 22-08-2010 14:00:00 28.74 C 10.48 g/m*3 28.74 C 0 km/h
472 22-08-2010 15:00:00 25.76 C 12.2 g/m*3 25.76 C 0 km/h
473 22-08-2010 16:00:00 27.8 C 11.89 g/m*3 27.8 C 0 km/h
474 22-08-2010 17:00:00 26.68 C 11.88 g/m*3 26.68 C 0 km/h
475 22-08-2010 18:00:00 26.28 C 11.72 g/m*3 26.28 C 0 km/h
Sensor: Nr:Datum:Temp:Abs-Feuchte:Windchill:Wind:
Aussen-T/F 476 22-08-2010 19:00:00 25.52 C 11.57 g/m*3 25.52 C 0 km/h
477 22-08-2010 20:00:00 24.42 C 10.65 g/m*3 24.42 C 0 km/h
478 22-08-2010 21:00:00 23.16 C 11.49 g/m*3 23.16 C 0 km/h
479 22-08-2010 22:00:00 22.66 C 11.69 g/m*3 22.66 C 0 km/h
480 22-08-2010 23:00:00 21.52 C 11.89 g/m*3 21.52 C 0 km/h
481 23-08-2010 00:00:00 20.88 C 12.01 g/m*3 20.88 C 0 km/h
482 23-08-2010 01:00:00 20.38 C 12.16 g/m*3 20.38 C 0 km/h
483 23-08-2010 02:00:00 20.02 C 12.32 g/m*3 20.02 C 0 km/h
484 23-08-2010 03:00:00 19.82 C 12.31 g/m*3 19.82 C 0 km/h
485 23-08-2010 04:00:00 19.52 C 12.33 g/m*3 19.52 C 0 km/h
486 23-08-2010 05:00:00 19.44 C 12.21 g/m*3 19.44 C 0 km/h
487 23-08-2010 06:00:00 19.48 C 12.34 g/m*3 19.48 C 0 km/h
488 23-08-2010 07:00:00 19.92 C 12.49 g/m*3 19.92 C 0 km/h
489 23-08-2010 08:00:00 19.74 C 13.31 g/m*3 19.74 C 0 km/h
490 23-08-2010 09:00:00 19.44 C 14.52 g/m*3 19.44 C 0 km/h
491 23-08-2010 10:00:00 20.64 C 15.07 g/m*3 20.64 C 0 km/h
492 23-08-2010 11:00:00 22.26 C 14.78 g/m*3 22.26 C 0 km/h
493 23-08-2010 12:00:00 23.08 C 15.61 g/m*3 23.08 C 0 km/h
494 23-08-2010 13:00:00 23.68 C 14.36 g/m*3 23.68 C 0 km/h
495 23-08-2010 14:00:00 24.34 C 14.28 g/m*3 24.34 C 0 km/h
496 23-08-2010 15:00:00 25.86 C 12.32 g/m*3 25.86 C 0 km/h
497 23-08-2010 16:00:00 25.94 C 11.4 g/m*3 25.94 C 0 km/h
498 23-08-2010 17:00:00 23.58 C 11.98 g/m*3 23.58 C 0 km/h
499 23-08-2010 18:00:00 21.12 C 13.76 g/m*3 21.12 C 0 km/h
500 23-08-2010 19:00:00 20.76 C 13.77 g/m*3 20.76 C 0 km/h
Sensor: Nr:Datum:Temp:Abs-Feuchte:Windchill:Wind:
Aussen-T/F 501 23-08-2010 20:00:00 20.34 C 12.94 g/m*3 20.34 C 0 km/h
502 23-08-2010 21:00:00 19.8 C 12.61 g/m*3 19.8 C 0 km/h
503 23-08-2010 22:00:00 19.58 C 12.24 g/m*3 19.58 C 0 km/h
504 23-08-2010 23:00:00 19.3 C 11.94 g/m*3 19.3 C 0 km/h
505 24-08-2010 00:00:00 19.18 C 12.09 g/m*3 19.18 C 0 km/h
506 24-08-2010 01:00:00 19.2 C 12.43 g/m*3 19.2 C 0 km/h
507 24-08-2010 02:00:00 19.68 C 12.28 g/m*3 19.68 C 0 km/h
508 24-08-2010 03:00:00 18.34 C 11.85 g/m*3 18.34 C 0 km/h
509 24-08-2010 04:00:00 18.06 C 9.53 g/m*3 18.06 C 0 km/h
510 24-08-2010 05:00:00 17.24 C 9.51 g/m*3 17.24 C 0 km/h
511 24-08-2010 06:00:00 17.08 C 9.48 g/m*3 17.08 C 0 km/h
512 24-08-2010 07:00:00 16.44 C 9.23 g/m*3 16.44 C 0 km/h
513 24-08-2010 08:00:00 16.16 C 8.45 g/m*3 16.16 C 0 km/h
514 24-08-2010 09:00:00 16.76 C 7.3 g/m*3 16.76 C 0 km/h
515 24-08-2010 10:00:00 17.88 C 7.23 g/m*3 17.88 C 0 km/h
516 24-08-2010 11:00:00 19.08 C 6.88 g/m*3 19.08 C 0 km/h
517 24-08-2010 12:00:00 20.04 C 6.34 g/m*3 20.04 C 0 km/h
518 24-08-2010 13:00:00 21 C 5.94 g/m*3 21 C 0 km/h
519 24-08-2010 14:00:00 21.46 C 5.49 g/m*3 21.46 C 0 km/h
520 24-08-2010 15:00:00 21.82 C 5.11 g/m*3 21.82 C 0 km/h
521 24-08-2010 16:00:00 23.04 C 4.61 g/m*3 23.04 C 0 km/h
522 24-08-2010 17:00:00 23.22 C 4.7 g/m*3 23.22 C 0 km/h
523 24-08-2010 18:00:00 22.92 C 5.11 g/m*3 22.92 C 0 km/h
524 24-08-2010 19:00:00 21.68 C 5.18 g/m*3 21.68 C 0 km/h
525 24-08-2010 20:00:00 19.76 C 5.79 g/m*3 19.76 C 0 km/h
Sensor: Nr:Datum:Temp:Abs-Feuchte:Windchill:Wind:
Aussen-T/F 526 24-08-2010 21:00:00 18.28 C 6.12 g/m*3 18.28 C 0 km/h
527 24-08-2010 22:00:00 17.4 C 6.28 g/m*3 17.4 C 0 km/h
528 24-08-2010 23:00:00 16.78 C 6.43 g/m*3 16.78 C 0 km/h
529 25-08-2010 00:00:00 16.16 C 6.55 g/m*3 16.16 C 0 km/h
530 25-08-2010 01:00:00 15.52 C 6.8 g/m*3 15.52 C 0 km/h
531 25-08-2010 02:00:00 14.66 C 7.11 g/m*3 14.66 C 0 km/h
532 25-08-2010 03:00:00 13.76 C 7.56 g/m*3 13.76 C 0 km/h
533 25-08-2010 04:00:00 13.4 C 7.7 g/m*3 13.4 C 0 km/h
534 25-08-2010 05:00:00 13.38 C 7.52 g/m*3 13.38 C 0 km/h
535 25-08-2010 06:00:00 12.94 C 7.71 g/m*3 12.94 C 0 km/h
536 25-08-2010 07:00:00 12.76 C 7.84 g/m*3 12.76 C 0 km/h
537 25-08-2010 08:00:00 13.54 C 7.86 g/m*3 13.54 C 0 km/h
538 25-08-2010 09:00:00 14.92 C 7.91 g/m*3 14.92 C 0 km/h
539 25-08-2010 10:00:00 16.3 C 7.8 g/m*3 16.3 C 0 km/h
540 25-08-2010 11:00:00 17.9 C 7.82 g/m*3 17.9 C 0 km/h
541 25-08-2010 12:00:00 20 C 7.19 g/m*3 20 C 0 km/h
542 25-08-2010 13:00:00 20.82 C 6.67 g/m*3 20.82 C 0 km/h
543 25-08-2010 14:00:00 21.46 C 6.43 g/m*3 21.46 C 0 km/h
544 25-08-2010 15:00:00 23.54 C 6.1 g/m*3 23.54 C 0 km/h
545 25-08-2010 16:00:00 24.46 C 5.67 g/m*3 24.46 C 0 km/h
546 25-08-2010 17:00:00 23.2 C 6.65 g/m*3 23.2 C 0 km/h
547 25-08-2010 18:00:00 21.9 C 7.1 g/m*3 21.9 C 0 km/h
548 25-08-2010 19:00:00 20.22 C 7.91 g/m*3 20.22 C 0 km/h
549 25-08-2010 20:00:00 19.04 C 8.23 g/m*3 19.04 C 0 km/h
550 25-08-2010 21:00:00 18.12 C 8.35 g/m*3 18.12 C 0 km/h
Sensor: Nr:Datum:Temp:Abs-Feuchte:Windchill:Wind:
Aussen-T/F 551 25-08-2010 22:00:00 17.56 C 8.5 g/m*3 17.56 C 0 km/h
552 25-08-2010 23:00:00 17.3 C 8.81 g/m*3 17.3 C 0 km/h
553 26-08-2010 00:00:00 17.28 C 9.06 g/m*3 17.28 C 0 km/h
554 26-08-2010 01:00:00 17.48 C 9.11 g/m*3 17.48 C 0 km/h
555 26-08-2010 02:00:00 16.88 C 9.97 g/m*3 16.88 C 0 km/h
556 26-08-2010 03:00:00 16.86 C 10.04 g/m*3 16.86 C 0 km/h
557 26-08-2010 04:00:00 16.94 C 9.86 g/m*3 16.94 C 0 km/h
558 26-08-2010 05:00:00 18.28 C 10.31 g/m*3 18.28 C 0 km/h
559 26-08-2010 06:00:00 18.18 C 10.53 g/m*3 18.18 C 0 km/h
560 26-08-2010 07:00:00 19.26 C 10.69 g/m*3 19.26 C 0 km/h
561 26-08-2010 08:00:00 20.2 C 11.12 g/m*3 20.2 C 0 km/h
562 26-08-2010 09:00:00 21.52 C 11.33 g/m*3 21.52 C 0 km/h
563 26-08-2010 10:00:00 22.76 C 11.19 g/m*3 22.76 C 0 km/h
564 26-08-2010 11:00:00 23.76 C 11.16 g/m*3 23.76 C 0 km/h
565 26-08-2010 12:00:00 23.54 C 11.15 g/m*3 23.54 C 0 km/h
566 26-08-2010 13:00:00 22.96 C 11.2 g/m*3 22.96 C 0 km/h
567 26-08-2010 14:00:00 23.8 C 11.19 g/m*3 23.8 C 0 km/h
568 26-08-2010 15:00:00 23.68 C 11.32 g/m*3 23.68 C 0 km/h
569 26-08-2010 16:00:00 23.94 C 11.28 g/m*3 23.94 C 0 km/h
570 26-08-2010 17:00:00 23.62 C 11.29 g/m*3 23.62 C 0 km/h
571 26-08-2010 18:00:00 23.18 C 11.67 g/m*3 23.18 C 0 km/h
572 26-08-2010 19:00:00 21.66 C 13.36 g/m*3 21.66 C 0 km/h
573 26-08-2010 20:00:00 20.94 C 14.49 g/m*3 20.94 C 0 km/h
574 26-08-2010 21:00:00 20.42 C 14.03 g/m*3 20.42 C 0 km/h
575 26-08-2010 22:00:00 19.76 C 14.62 g/m*3 19.76 C 0 km/h
Sensor: Nr:Datum:Temp:Abs-Feuchte:Windchill:Wind:
Aussen-T/F 576 26-08-2010 23:00:00 19.44 C 14.95 g/m*3 19.44 C 0 km/h
577 27-08-2010 00:00:00 18.98 C 14.91 g/m*3 18.98 C 0 km/h
578 27-08-2010 01:00:00 18.76 C 14.97 g/m*3 18.76 C 0 km/h
579 27-08-2010 02:00:00 18.62 C 14.98 g/m*3 18.62 C 0 km/h
580 27-08-2010 03:00:00 18.38 C 14.77 g/m*3 18.38 C 0 km/h
581 27-08-2010 04:00:00 18.34 C 14.73 g/m*3 18.34 C 0 km/h
582 27-08-2010 05:00:00 18.4 C 14.88 g/m*3 18.4 C 0 km/h
583 27-08-2010 06:00:00 18.82 C 15.32 g/m*3 18.82 C 0 km/h
584 27-08-2010 07:00:00 18.68 C 15.03 g/m*3 18.68 C 0 km/h
585 27-08-2010 08:00:00 18.58 C 14.94 g/m*3 18.58 C 0 km/h
586 27-08-2010 09:00:00 19.26 C 15.06 g/m*3 19.26 C 0 km/h
587 27-08-2010 10:00:00 19.32 C 14.35 g/m*3 19.32 C 0 km/h
588 27-08-2010 11:00:00 18.16 C 13.58 g/m*3 18.16 C 0 km/h
589 27-08-2010 12:00:00 20.1 C 13.52 g/m*3 20.1 C 0 km/h
590 27-08-2010 13:00:00 22.92 C 12.6 g/m*3 22.92 C 0 km/h
591 27-08-2010 14:00:00 20.76 C 12.07 g/m*3 20.76 C 0 km/h
592 27-08-2010 15:00:00 18.92 C 13.49 g/m*3 18.92 C 0 km/h
593 27-08-2010 16:00:00 21.9 C 12.89 g/m*3 21.9 C 0 km/h
594 27-08-2010 17:00:00 21.3 C 11.71 g/m*3 21.3 C 0 km/h
595 27-08-2010 18:00:00 16.8 C 12.01 g/m*3 16.8 C 0 km/h
596 27-08-2010 19:00:00 15.64 C 10.93 g/m*3 15.64 C 0 km/h
597 27-08-2010 20:00:00 15.12 C 10.44 g/m*3 15.12 C 0 km/h
598 27-08-2010 21:00:00 14.58 C 10.17 g/m*3 14.58 C 0 km/h
599 27-08-2010 22:00:00 14.74 C 10.02 g/m*3 14.74 C 0 km/h
600 27-08-2010 23:00:00 13.96 C 9.34 g/m*3 13.96 C 0 km/h
Sensor: Nr:Datum:Temp:Abs-Feuchte:Windchill:Wind:
Aussen-T/F 601 28-08-2010 00:00:00 13.78 C 9.21 g/m*3 13.78 C 0 km/h
602 28-08-2010 01:00:00 13.1 C 9.88 g/m*3 13.1 C 0 km/h
603 28-08-2010 02:00:00 13.14 C 9.82 g/m*3 13.14 C 0 km/h
604 28-08-2010 03:00:00 13.1 C 9.56 g/m*3 13.1 C 0 km/h
605 28-08-2010 04:00:00 12.54 C 9.3 g/m*3 12.54 C 0 km/h
606 28-08-2010 05:00:00 12.12 C 9.15 g/m*3 12.12 C 0 km/h
607 28-08-2010 06:00:00 11.58 C 8.76 g/m*3 11.58 C 0 km/h
608 28-08-2010 07:00:00 11.72 C 8.88 g/m*3 11.72 C 0 km/h
609 28-08-2010 08:00:00 13.08 C 8.94 g/m*3 13.08 C 0 km/h
610 28-08-2010 09:00:00 14.22 C 8.58 g/m*3 14.22 C 0 km/h
611 28-08-2010 10:00:00 15.14 C 8.35 g/m*3 15.14 C 0 km/h
612 28-08-2010 11:00:00 16.44 C 7.81 g/m*3 16.44 C 0 km/h
613 28-08-2010 12:00:00 15.42 C 8.71 g/m*3 15.42 C 0 km/h
614 28-08-2010 13:00:00 16.24 C 10.62 g/m*3 16.24 C 0 km/h
615 28-08-2010 14:00:00 15.6 C 7.69 g/m*3 15.6 C 0 km/h
616 28-08-2010 15:00:00 16.72 C 7.46 g/m*3 16.72 C 0 km/h
617 28-08-2010 16:00:00 15.1 C 8.08 g/m*3 15.1 C 0 km/h
618 28-08-2010 17:00:00 15.6 C 8.67 g/m*3 15.6 C 0 km/h
619 28-08-2010 18:00:00 17.56 C 7.42 g/m*3 17.56 C 0 km/h
620 28-08-2010 19:00:00 15.26 C 8.34 g/m*3 15.26 C 0 km/h
621 28-08-2010 20:00:00 13.1 C 9.04 g/m*3 13.1 C 0 km/h
622 28-08-2010 21:00:00 12.46 C 9.12 g/m*3 12.46 C 0 km/h
623 28-08-2010 22:00:00 12.24 C 8.96 g/m*3 12.24 C 0 km/h
624 28-08-2010 23:00:00 12.36 C 8.72 g/m*3 12.36 C 0 km/h
625 29-08-2010 00:00:00 11.9 C 8.47 g/m*3 11.9 C 0 km/h
Sensor: Nr:Datum:Temp:Abs-Feuchte:Windchill:Wind:
Aussen-T/F 626 29-08-2010 01:00:00 11.5 C 8.45 g/m*3 11.5 C 0 km/h
627 29-08-2010 02:00:00 11.74 C 8.54 g/m*3 11.74 C 0 km/h
628 29-08-2010 03:00:00 11.76 C 8.48 g/m*3 11.76 C 0 km/h
629 29-08-2010 04:00:00 11.5 C 8.39 g/m*3 11.5 C 0 km/h
630 29-08-2010 05:00:00 11.74 C 8.33 g/m*3 11.74 C 0 km/h
631 29-08-2010 06:00:00 12.1 C 8.3 g/m*3 12.1 C 0 km/h
632 29-08-2010 07:00:00 12.2 C 8.33 g/m*3 12.2 C 0 km/h
633 29-08-2010 08:00:00 12.44 C 8.35 g/m*3 12.44 C 0 km/h
634 29-08-2010 09:00:00 14 C 8.18 g/m*3 14 C 0 km/h
635 29-08-2010 10:00:00 15.4 C 8.04 g/m*3 15.4 C 0 km/h
636 29-08-2010 11:00:00 16.26 C 7.92 g/m*3 16.26 C 0 km/h
637 29-08-2010 12:00:00 15.12 C 9.04 g/m*3 15.12 C 0 km/h
638 29-08-2010 13:00:00 16.04 C 8.71 g/m*3 16.04 C 0 km/h
639 29-08-2010 14:00:00 16.46 C 8.4 g/m*3 16.46 C 0 km/h
640 29-08-2010 15:00:00 15.08 C 8.92 g/m*3 15.08 C 0 km/h
641 29-08-2010 16:00:00 15.76 C 8.51 g/m*3 15.76 C 0 km/h
642 29-08-2010 17:00:00 14.96 C 8.31 g/m*3 14.96 C 0 km/h
643 29-08-2010 18:00:00 13.06 C 9.31 g/m*3 13.06 C 0 km/h
644 29-08-2010 19:00:00 12 C 9.29 g/m*3 12 C 0 km/h
645 29-08-2010 20:00:00 11.78 C 8.96 g/m*3 11.78 C 0 km/h
646 29-08-2010 21:00:00 11.64 C 8.71 g/m*3 11.64 C 0 km/h
647 29-08-2010 22:00:00 9.2 C 8.02 g/m*3 9.2 C 0 km/h
648 29-08-2010 23:00:00 9.12 C 8.16 g/m*3 9.12 C 0 km/h
649 30-08-2010 00:00:00 9.2 C 7.98 g/m*3 9.2 C 0 km/h
650 30-08-2010 01:00:00 9.94 C 7.84 g/m*3 9.94 C 0 km/h
Sensor: Nr:Datum:Temp:Abs-Feuchte:Windchill:Wind:
Aussen-T/F 651 30-08-2010 02:00:00 10.52 C 7.77 g/m*3 10.52 C 0 km/h
652 30-08-2010 03:00:00 10.82 C 7.66 g/m*3 10.82 C 0 km/h
653 30-08-2010 04:00:00 10.26 C 7.99 g/m*3 10.26 C 0 km/h
654 30-08-2010 05:00:00 9.62 C 8.02 g/m*3 9.62 C 0 km/h
655 30-08-2010 06:00:00 10.06 C 8.47 g/m*3 10.06 C 0 km/h
656 30-08-2010 07:00:00 9.96 C 8.4 g/m*3 9.96 C 0 km/h
657 30-08-2010 08:00:00 10.82 C 8.63 g/m*3 10.82 C 0 km/h
658 30-08-2010 09:00:00 10.98 C 8.64 g/m*3 10.98 C 0 km/h
659 30-08-2010 10:00:00 11.86 C 8.83 g/m*3 11.86 C 0 km/h
660 30-08-2010 11:00:00 13 C 8.32 g/m*3 13 C 0 km/h
661 30-08-2010 12:00:00 14.02 C 7.63 g/m*3 14.02 C 0 km/h
662 30-08-2010 13:00:00 16.04 C 6.77 g/m*3 16.04 C 0 km/h
663 30-08-2010 14:00:00 16.28 C 7.73 g/m*3 16.28 C 0 km/h
664 30-08-2010 15:00:00 17.48 C 7.8 g/m*3 17.48 C 0 km/h
665 30-08-2010 16:00:00 15.86 C 9.16 g/m*3 15.86 C 0 km/h
666 30-08-2010 17:00:00 15.04 C 9.23 g/m*3 15.04 C 0 km/h
667 30-08-2010 18:00:00 14.32 C 8.76 g/m*3 14.32 C 0 km/h
668 30-08-2010 19:00:00 14.04 C 8.97 g/m*3 14.04 C 0 km/h
669 30-08-2010 20:00:00 13.76 C 8.72 g/m*3 13.76 C 0 km/h
670 30-08-2010 21:00:00 12.72 C 9.56 g/m*3 12.72 C 0 km/h
671 30-08-2010 22:00:00 12.72 C 9.92 g/m*3 12.72 C 0 km/h
672 30-08-2010 23:00:00 12.3 C 9.69 g/m*3 12.3 C 0 km/h
673 31-08-2010 00:00:00 12.22 C 9.62 g/m*3 12.22 C 0 km/h
674 31-08-2010 01:00:00 12.42 C 9.45 g/m*3 12.42 C 0 km/h
675 31-08-2010 02:00:00 12.36 C 9.31 g/m*3 12.36 C 0 km/h
Sensor: Nr:Datum:Temp:Abs-Feuchte:Windchill:Wind:
Aussen-T/F 676 31-08-2010 03:00:00 12.1 C 9.07 g/m*3 12.1 C 0 km/h
677 31-08-2010 04:00:00 11.52 C 9.06 g/m*3 11.52 C 0 km/h
678 31-08-2010 05:00:00 11.38 C 9.04 g/m*3 11.38 C 0 km/h
679 31-08-2010 06:00:00 11.7 C 9.22 g/m*3 11.7 C 0 km/h
680 31-08-2010 07:00:00 12.2 C 9.09 g/m*3 12.2 C 0 km/h
681 31-08-2010 08:00:00 12.64 C 9.07 g/m*3 12.64 C 0 km/h
682 31-08-2010 09:00:00 13.58 C 8.86 g/m*3 13.58 C 0 km/h
683 31-08-2010 10:00:00 14.14 C 8.35 g/m*3 14.14 C 0 km/h
684 31-08-2010 11:00:00 15.6 C 8.09 g/m*3 15.6 C 0 km/h
685 31-08-2010 12:00:00 16.88 C 7.93 g/m*3 16.88 C 0 km/h
686 31-08-2010 13:00:00 17.96 C 6.99 g/m*3 17.96 C 0 km/h
687 31-08-2010 14:00:00 20.16 C 6.45 g/m*3 20.16 C 0 km/h
688 31-08-2010 15:00:00 21.2 C 5.86 g/m*3 21.2 C 0 km/h
689 31-08-2010 16:00:00 21.46 C 5.64 g/m*3 21.46 C 0 km/h
690 31-08-2010 17:00:00 21.82 C 5.57 g/m*3 21.82 C 0 km/h
691 31-08-2010 18:00:00 22.26 C 5.67 g/m*3 22.26 C 0 km/h
692 31-08-2010 19:00:00 20.32 C 6.55 g/m*3 20.32 C 0 km/h
693 31-08-2010 20:00:00 16.38 C 7.17 g/m*3 16.38 C 0 km/h
694 31-08-2010 21:00:00 14.44 C 7.61 g/m*3 14.44 C 0 km/h
695 31-08-2010 22:00:00 13.24 C 8.1 g/m*3 13.24 C 0 km/h
696 31-08-2010 23:00:00 12.32 C 8.09 g/m*3 12.32 C 0 km/h
697 01-09-2010 00:00:00 11.58 C 8.08 g/m*3 11.58 C 0 km/h
698 01-09-2010 01:00:00 10.98 C 8.1 g/m*3 10.98 C 0 km/h
699 01-09-2010 02:00:00 10.36 C 7.96 g/m*3 10.36 C 0 km/h
700 01-09-2010 03:00:00 9.74 C 7.97 g/m*3 9.74 C 0 km/h
Sensor: Nr:Datum:Temp:Abs-Feuchte:Windchill:Wind:
Aussen-T/F 701 01-09-2010 04:00:00 9.14 C 7.86 g/m*3 9.14 C 0 km/h
702 01-09-2010 05:00:00 8.92 C 7.95 g/m*3 8.92 C 0 km/h
703 01-09-2010 06:00:00 8.94 C 8.04 g/m*3 8.94 C 0 km/h
704 01-09-2010 07:00:00 9.02 C 7.98 g/m*3 9.02 C 0 km/h
705 01-09-2010 08:00:00 9.26 C 8.05 g/m*3 9.26 C 0 km/h
706 01-09-2010 09:00:00 10.22 C 8.14 g/m*3 10.22 C 0 km/h
707 01-09-2010 10:00:00 12.1 C 8.56 g/m*3 12.1 C 0 km/h
708 01-09-2010 11:00:00 14.26 C 8.78 g/m*3 14.26 C 0 km/h
709 01-09-2010 12:00:00 17.24 C 8.54 g/m*3 17.24 C 0 km/h
710 01-09-2010 13:00:00 19.52 C 7.96 g/m*3 19.52 C 0 km/h
711 01-09-2010 14:00:00 21.18 C 7.03 g/m*3 21.18 C 0 km/h
712 01-09-2010 15:00:00 23.6 C 6 g/m*3 23.6 C 0 km/h
713 01-09-2010 16:00:00 23.8 C 6.02 g/m*3 23.8 C 0 km/h
714 01-09-2010 17:00:00 22.04 C 6.38 g/m*3 22.04 C 0 km/h
715 01-09-2010 18:00:00 21.1 C 6.96 g/m*3 21.1 C 0 km/h
716 01-09-2010 19:00:00 19.62 C 7.88 g/m*3 19.62 C 0 km/h
717 01-09-2010 20:00:00 17.36 C 8.72 g/m*3 17.36 C 0 km/h
718 01-09-2010 21:00:00 16.24 C 8.85 g/m*3 16.24 C 0 km/h
719 01-09-2010 22:00:00 15.55 C 8.82 g/m*3 15.55 C 0 km/h
720 01-09-2010 23:00:00 14.16 C 8.28 g/m*3 14.16 C 0 km/h
721 02-09-2010 00:00:00 13.02 C 8.22 g/m*3 13.02 C 0 km/h
722 02-09-2010 01:00:00 12.32 C 8.37 g/m*3 12.32 C 0 km/h
723 02-09-2010 02:00:00 11.6 C 8.56 g/m*3 11.6 C 0 km/h
724 02-09-2010 03:00:00 11 C 8.31 g/m*3 11 C 0 km/h
725 02-09-2010 04:00:00 10.44 C 8.29 g/m*3 10.44 C 0 km/h
Sensor: Nr:Datum:Temp:Abs-Feuchte:Windchill:Wind:
Aussen-T/F 726 02-09-2010 05:00:00 10.32 C 8.5 g/m*3 10.32 C 0 km/h
727 02-09-2010 06:00:00 10.34 C 8.6 g/m*3 10.34 C 0 km/h
728 02-09-2010 07:00:00 10.68 C 8.81 g/m*3 10.68 C 0 km/h
729 02-09-2010 08:00:00 11.34 C 8.96 g/m*3 11.34 C 0 km/h
730 02-09-2010 09:00:00 12.4 C 8.98 g/m*3 12.4 C 0 km/h
731 02-09-2010 10:00:00 14.02 C 8.65 g/m*3 14.02 C 0 km/h
732 02-09-2010 11:00:00 15.46 C 9.02 g/m*3 15.46 C 0 km/h
733 02-09-2010 12:00:00 18.66 C 8.75 g/m*3 18.66 C 0 km/h
734 02-09-2010 13:00:00 20.84 C 7.37 g/m*3 20.84 C 0 km/h
735 02-09-2010 14:00:00 22.2 C 7.22 g/m*3 22.2 C 0 km/h
736 02-09-2010 15:00:00 21.42 C 6.91 g/m*3 21.42 C 0 km/h
737 02-09-2010 16:00:00 20.6 C 6.91 g/m*3 20.6 C 0 km/h
738 02-09-2010 17:00:00 19.54 C 7.13 g/m*3 19.54 C 0 km/h
739 02-09-2010 18:00:00 18.66 C 7.41 g/m*3 18.66 C 0 km/h
740 02-09-2010 19:00:00 17.64 C 8.93 g/m*3 17.64 C 0 km/h
741 02-09-2010 20:00:00 15.14 C 10.01 g/m*3 15.14 C 0 km/h
742 02-09-2010 21:00:00 14.42 C 9.85 g/m*3 14.42 C 0 km/h
743 02-09-2010 22:00:00 13.84 C 9.34 g/m*3 13.84 C 0 km/h
744 02-09-2010 23:00:00 12.98 C 9.2 g/m*3 12.98 C 0 km/h
745 03-09-2010 00:00:00 12.42 C 9.1 g/m*3 12.42 C 0 km/h
746 03-09-2010 01:00:00 11.82 C 8.92 g/m*3 11.82 C 0 km/h
747 03-09-2010 02:00:00 11.24 C 8.76 g/m*3 11.24 C 0 km/h
748 03-09-2010 03:00:00 10.72 C 8.63 g/m*3 10.72 C 0 km/h
749 03-09-2010 04:00:00 10.34 C 8.6 g/m*3 10.34 C 0 km/h
750 03-09-2010 05:00:00 10.4 C 8.75 g/m*3 10.4 C 0 km/h
Sensor: Nr:Datum:Temp:Abs-Feuchte:Windchill:Wind:
Aussen-T/F 751 03-09-2010 06:00:00 11.08 C 9.24 g/m*3 11.08 C 0 km/h
752 03-09-2010 07:00:00 11.36 C 9.32 g/m*3 11.36 C 0 km/h
753 03-09-2010 08:00:00 11.64 C 9.34 g/m*3 11.64 C 0 km/h
754 03-09-2010 09:00:00 12.44 C 9.29 g/m*3 12.44 C 0 km/h
755 03-09-2010 10:00:00 13.58 C 9.22 g/m*3 13.58 C 0 km/h
756 03-09-2010 11:00:00 15.9 C 8.94 g/m*3 15.9 C 0 km/h
757 03-09-2010 12:00:00 17.86 C 8.47 g/m*3 17.86 C 0 km/h
758 03-09-2010 13:00:00 19.68 C 8.18 g/m*3 19.68 C 0 km/h
759 03-09-2010 14:00:00 20.4 C 7.64 g/m*3 20.4 C 0 km/h
760 03-09-2010 15:00:00 22.78 C 7.02 g/m*3 22.78 C 0 km/h
761 03-09-2010 16:00:00 25.12 C 6.58 g/m*3 25.12 C 0 km/h
762 03-09-2010 17:00:00 24.12 C 6.53 g/m*3 24.12 C 0 km/h
763 03-09-2010 18:00:00 22.7 C 8.12 g/m*3 22.7 C 0 km/h
764 03-09-2010 19:00:00 20.7 C 8.86 g/m*3 20.7 C 0 km/h
765 03-09-2010 20:00:00 18.62 C 8.25 g/m*3 18.62 C 0 km/h
766 03-09-2010 21:00:00 16.32 C 8.56 g/m*3 16.32 C 0 km/h
767 03-09-2010 22:00:00 15.36 C 8.86 g/m*3 15.36 C 0 km/h
768 03-09-2010 23:00:00 15.34 C 9.22 g/m*3 15.34 C 0 km/h
769 04-09-2010 00:00:00 15.1 C 9.29 g/m*3 15.1 C 0 km/h
770 04-09-2010 01:00:00 14.82 C 9.41 g/m*3 14.82 C 0 km/h
771 04-09-2010 02:00:00 14.28 C 9.4 g/m*3 14.28 C 0 km/h
772 04-09-2010 03:00:00 13.72 C 9.41 g/m*3 13.72 C 0 km/h
773 04-09-2010 04:00:00 13.2 C 9.48 g/m*3 13.2 C 0 km/h
774 04-09-2010 05:00:00 13.1 C 9.59 g/m*3 13.1 C 0 km/h
775 04-09-2010 06:00:00 12.54 C 9.3 g/m*3 12.54 C 0 km/h
Sensor: Nr:Datum:Temp:Abs-Feuchte:Windchill:Wind:
Aussen-T/F 776 04-09-2010 07:00:00 12.08 C 9.25 g/m*3 12.08 C 0 km/h
777 04-09-2010 08:00:00 12.8 C 9.77 g/m*3 12.8 C 0 km/h
778 04-09-2010 09:00:00 14.44 C 9.96 g/m*3 14.44 C 0 km/h
779 04-09-2010 10:00:00 16.3 C 9.49 g/m*3 16.3 C 0 km/h
780 04-09-2010 11:00:00 18.88 C 8.77 g/m*3 18.88 C 0 km/h
781 04-09-2010 12:00:00 18.86 C 7.89 g/m*3 18.86 C 0 km/h
782 04-09-2010 13:00:00 19.58 C 7.62 g/m*3 19.58 C 0 km/h
783 04-09-2010 14:00:00 22.2 C 6.71 g/m*3 22.2 C 0 km/h
784 04-09-2010 15:00:00 22.88 C 6.29 g/m*3 22.88 C 0 km/h
785 04-09-2010 16:00:00 22.42 C 5.53 g/m*3 22.42 C 0 km/h
786 04-09-2010 17:00:00 23.12 C 4.88 g/m*3 23.12 C 0 km/h
787 04-09-2010 18:00:00 22.74 C 4.37 g/m*3 22.74 C 0 km/h
788 04-09-2010 19:00:00 19.74 C 5.55 g/m*3 19.74 C 0 km/h
789 04-09-2010 20:00:00 16.14 C 6.54 g/m*3 16.14 C 0 km/h
790 04-09-2010 21:00:00 14.92 C 6.94 g/m*3 14.92 C 0 km/h
791 04-09-2010 22:00:00 14.16 C 7.26 g/m*3 14.16 C 0 km/h
792 04-09-2010 23:00:00 13.12 C 7.59 g/m*3 13.12 C 0 km/h
793 05-09-2010 00:00:00 12.16 C 7.62 g/m*3 12.16 C 0 km/h
794 05-09-2010 01:00:00 11.22 C 7.53 g/m*3 11.22 C 0 km/h
795 05-09-2010 02:00:00 10.44 C 7.52 g/m*3 10.44 C 0 km/h
796 05-09-2010 03:00:00 9.72 C 7.4 g/m*3 9.72 C 0 km/h
797 05-09-2010 04:00:00 9.12 C 7.27 g/m*3 9.12 C 0 km/h
798 05-09-2010 05:00:00 8.64 C 7.27 g/m*3 8.64 C 0 km/h
799 05-09-2010 06:00:00 8.08 C 7.25 g/m*3 8.08 C 0 km/h
800 05-09-2010 07:00:00 8.4 C 7.52 g/m*3 8.4 C 0 km/h
Sensor: Nr:Datum:Temp:Abs-Feuchte:Windchill:Wind:
Aussen-T/F 801 05-09-2010 08:00:00 9.82 C 7.91 g/m*3 9.82 C 0 km/h
802 05-09-2010 09:00:00 11.1 C 7.88 g/m*3 11.1 C 0 km/h
803 05-09-2010 10:00:00 12.36 C 8.44 g/m*3 12.36 C 0 km/h
804 05-09-2010 11:00:00 15.42 C 8.16 g/m*3 15.42 C 0 km/h
805 05-09-2010 12:00:00 18.02 C 6.52 g/m*3 18.02 C 0 km/h
806 05-09-2010 13:00:00 20.14 C 5.92 g/m*3 20.14 C 0 km/h
807 05-09-2010 14:00:00 23.5 C 5.2 g/m*3 23.5 C 0 km/h
808 05-09-2010 15:00:00 24.16 C 4.83 g/m*3 24.16 C 0 km/h
809 05-09-2010 16:00:00 24.4 C 4.67 g/m*3 24.4 C 0 km/h
810 05-09-2010 17:00:00 24.6 C 5.04 g/m*3 24.6 C 0 km/h
811 05-09-2010 18:00:00 24.84 C 5.29 g/m*3 24.84 C 0 km/h
812 05-09-2010 19:00:00 19.38 C 6.4 g/m*3 19.38 C 0 km/h
813 05-09-2010 20:00:00 16.44 C 6.38 g/m*3 16.44 C 0 km/h
814 05-09-2010 21:00:00 14.9 C 6.81 g/m*3 14.9 C 0 km/h
815 05-09-2010 22:00:00 14.12 C 7.1 g/m*3 14.12 C 0 km/h
816 05-09-2010 23:00:00 13.94 C 6.92 g/m*3 13.94 C 0 km/h
817 06-09-2010 00:00:00 13.22 C 7.08 g/m*3 13.22 C 0 km/h
818 06-09-2010 01:00:00 12.36 C 7.11 g/m*3 12.36 C 0 km/h
819 06-09-2010 02:00:00 11.62 C 7.2 g/m*3 11.62 C 0 km/h
820 06-09-2010 03:00:00 11.1 C 7.15 g/m*3 11.1 C 0 km/h
821 06-09-2010 04:00:00 10.7 C 7.09 g/m*3 10.7 C 0 km/h
822 06-09-2010 05:00:00 10.24 C 7.02 g/m*3 10.24 C 0 km/h
823 06-09-2010 06:00:00 9.56 C 7 g/m*3 9.56 C 0 km/h
824 06-09-2010 07:00:00 9.28 C 7.07 g/m*3 9.28 C 0 km/h
825 06-09-2010 08:00:00 9.68 C 7.22 g/m*3 9.68 C 0 km/h
Sensor: Nr:Datum:Temp:Abs-Feuchte:Windchill:Wind:
Aussen-T/F 826 06-09-2010 09:00:00 10.94 C 7.52 g/m*3 10.94 C 0 km/h
827 06-09-2010 10:00:00 13.48 C 7.52 g/m*3 13.48 C 0 km/h
828 06-09-2010 11:00:00 16.32 C 7.14 g/m*3 16.32 C 0 km/h
829 06-09-2010 12:00:00 18.64 C 5.58 g/m*3 18.64 C 0 km/h
830 06-09-2010 13:00:00 20.24 C 5.4 g/m*3 20.24 C 0 km/h
831 06-09-2010 14:00:00 22.34 C 4.51 g/m*3 22.34 C 0 km/h
832 06-09-2010 15:00:00 24 C 4.35 g/m*3 24 C 0 km/h
833 06-09-2010 16:00:00 23.88 C 4.32 g/m*3 23.88 C 0 km/h
834 06-09-2010 17:00:00 24.42 C 4.46 g/m*3 24.42 C 0 km/h
835 06-09-2010 18:00:00 21.44 C 5.34 g/m*3 21.44 C 0 km/h
836 06-09-2010 19:00:00 18.72 C 5.87 g/m*3 18.72 C 0 km/h
837 06-09-2010 20:00:00 17.1 C 5.62 g/m*3 17.1 C 0 km/h
838 06-09-2010 21:00:00 16.22 C 5.44 g/m*3 16.22 C 0 km/h
839 06-09-2010 22:00:00 15.5 C 5.6 g/m*3 15.5 C 0 km/h
840 06-09-2010 23:00:00 15.2 C 5.63 g/m*3 15.2 C 0 km/h
841 07-09-2010 00:00:00 15.38 C 5.51 g/m*3 15.38 C 0 km/h
842 07-09-2010 01:00:00 15.42 C 5.39 g/m*3 15.42 C 0 km/h
843 07-09-2010 02:00:00 15.46 C 5.38 g/m*3 15.46 C 0 km/h
844 07-09-2010 03:00:00 14.34 C 6.03 g/m*3 14.34 C 0 km/h
845 07-09-2010 04:00:00 13.06 C 7.01 g/m*3 13.06 C 0 km/h
846 07-09-2010 05:00:00 12.98 C 7.11 g/m*3 12.98 C 0 km/h
847 07-09-2010 06:00:00 12.5 C 7.04 g/m*3 12.5 C 0 km/h
848 07-09-2010 07:00:00 12.12 C 7.09 g/m*3 12.12 C 0 km/h
849 07-09-2010 08:00:00 11.56 C 8.11 g/m*3 11.56 C 0 km/h
850 07-09-2010 09:00:00 11.46 C 8.41 g/m*3 11.46 C 0 km/h
Sensor: Nr:Datum:Temp:Abs-Feuchte:Windchill:Wind:
Aussen-T/F 851 07-09-2010 10:00:00 11.46 C 8.88 g/m*3 11.46 C 0 km/h
852 07-09-2010 11:00:00 11.64 C 9.21 g/m*3 11.64 C 0 km/h
853 07-09-2010 12:00:00 12.42 C 9.5 g/m*3 12.42 C 0 km/h
854 07-09-2010 13:00:00 12.78 C 9.31 g/m*3 12.78 C 0 km/h
855 07-09-2010 14:00:00 13.36 C 9.37 g/m*3 13.36 C 0 km/h
856 07-09-2010 15:00:00 14.58 C 9.12 g/m*3 14.58 C 0 km/h
857 07-09-2010 16:00:00 15.52 C 9.11 g/m*3 15.52 C 0 km/h
858 07-09-2010 17:00:00 14.88 C 9.06 g/m*3 14.88 C 0 km/h
859 07-09-2010 18:00:00 13.98 C 9.08 g/m*3 13.98 C 0 km/h
860 07-09-2010 19:00:00 13.78 C 9.38 g/m*3 13.78 C 0 km/h
861 07-09-2010 20:00:00 13.24 C 9.55 g/m*3 13.24 C 0 km/h
862 07-09-2010 21:00:00 12.96 C 9.89 g/m*3 12.96 C 0 km/h
863 07-09-2010 22:00:00 12.86 C 10.03 g/m*3 12.86 C 0 km/h
864 07-09-2010 23:00:00 12.92 C 10.16 g/m*3 12.92 C 0 km/h
865 08-09-2010 00:00:00 12.88 C 10.24 g/m*3 12.88 C 0 km/h
866 08-09-2010 01:00:00 13 C 10.37 g/m*3 13 C 0 km/h
867 08-09-2010 02:00:00 13.2 C 10.61 g/m*3 13.2 C 0 km/h
868 08-09-2010 03:00:00 13.56 C 10.92 g/m*3 13.56 C 0 km/h
869 08-09-2010 04:00:00 13.56 C 10.92 g/m*3 13.56 C 0 km/h
870 08-09-2010 05:00:00 14.16 C 11.4 g/m*3 14.16 C 0 km/h
871 08-09-2010 06:00:00 14.36 C 11.44 g/m*3 14.36 C 0 km/h
872 08-09-2010 07:00:00 14.22 C 11.25 g/m*3 14.22 C 0 km/h
873 08-09-2010 08:00:00 14.22 C 11.25 g/m*3 14.22 C 0 km/h
874 08-09-2010 09:00:00 15.22 C 11.62 g/m*3 15.22 C 0 km/h
875 08-09-2010 10:00:00 15.52 C 11.41 g/m*3 15.52 C 0 km/h
Sensor: Nr:Datum:Temp:Abs-Feuchte:Windchill:Wind:
Aussen-T/F 876 08-09-2010 11:00:00 15.24 C 11.03 g/m*3 15.24 C 0 km/h
877 08-09-2010 12:00:00 14.74 C 11.26 g/m*3 14.74 C 0 km/h
878 08-09-2010 13:00:00 16.22 C 12.12 g/m*3 16.22 C 0 km/h
879 08-09-2010 14:00:00 17.58 C 11.56 g/m*3 17.58 C 0 km/h
880 08-09-2010 15:00:00 17.94 C 11.17 g/m*3 17.94 C 0 km/h
881 08-09-2010 16:00:00 18.54 C 10.69 g/m*3 18.54 C 0 km/h
882 08-09-2010 17:00:00 19.88 C 10.23 g/m*3 19.88 C 0 km/h
883 08-09-2010 18:00:00 19.06 C 10.24 g/m*3 19.06 C 0 km/h
884 08-09-2010 19:00:00 18.2 C 10.54 g/m*3 18.2 C 0 km/h
885 08-09-2010 20:00:00 16.8 C 10.52 g/m*3 16.8 C 0 km/h
886 08-09-2010 21:00:00 15.72 C 9.7 g/m*3 15.72 C 0 km/h
887 08-09-2010 22:00:00 14.78 C 9.79 g/m*3 14.78 C 0 km/h
888 08-09-2010 23:00:00 14.48 C 10.01 g/m*3 14.48 C 0 km/h
889 09-09-2010 00:00:00 14.38 C 10.2 g/m*3 14.38 C 0 km/h
890 09-09-2010 01:00:00 15.04 C 10.08 g/m*3 15.04 C 0 km/h
891 09-09-2010 02:00:00 15.14 C 9.93 g/m*3 15.14 C 0 km/h
892 09-09-2010 03:00:00 15.32 C 9.78 g/m*3 15.32 C 0 km/h
893 09-09-2010 04:00:00 15.22 C 9.33 g/m*3 15.22 C 0 km/h
894 09-09-2010 05:00:00 14.9 C 9.02 g/m*3 14.9 C 0 km/h
895 09-09-2010 06:00:00 14.78 C 8.88 g/m*3 14.78 C 0 km/h
896 09-09-2010 07:00:00 14.58 C 9.07 g/m*3 14.58 C 0 km/h
897 09-09-2010 08:00:00 14.8 C 9.1 g/m*3 14.8 C 0 km/h
898 09-09-2010 09:00:00 15.26 C 9.09 g/m*3 15.26 C 0 km/h
899 09-09-2010 10:00:00 16.76 C 9.1 g/m*3 16.76 C 0 km/h
900 09-09-2010 11:00:00 17.78 C 8.88 g/m*3 17.78 C 0 km/h
Sensor: Nr:Datum:Temp:Abs-Feuchte:Windchill:Wind:
Aussen-T/F 901 09-09-2010 12:00:00 18.64 C 8.17 g/m*3 18.64 C 0 km/h
902 09-09-2010 13:00:00 18.8 C 8.21 g/m*3 18.8 C 0 km/h
903 09-09-2010 14:00:00 18.98 C 8.59 g/m*3 18.98 C 0 km/h
904 09-09-2010 15:00:00 19.38 C 9.13 g/m*3 19.38 C 0 km/h
905 09-09-2010 16:00:00 17.1 C 10.92 g/m*3 17.1 C 0 km/h
906 09-09-2010 17:00:00 17.92 C 11.62 g/m*3 17.92 C 0 km/h
907 09-09-2010 18:00:00 17.7 C 10.47 g/m*3 17.7 C 0 km/h
908 09-09-2010 19:00:00 16.54 C 9.46 g/m*3 16.54 C 0 km/h
909 09-09-2010 20:00:00 15.4 C 9.78 g/m*3 15.4 C 0 km/h
910 09-09-2010 21:00:00 14.8 C 10.26 g/m*3 14.8 C 0 km/h
911 09-09-2010 22:00:00 14.74 C 10.17 g/m*3 14.74 C 0 km/h
912 09-09-2010 23:00:00 14.98 C 9.71 g/m*3 14.98 C 0 km/h
913 10-09-2010 00:00:00 14.66 C 9.92 g/m*3 14.66 C 0 km/h
914 10-09-2010 01:00:00 14 C 9.77 g/m*3 14 C 0 km/h
915 10-09-2010 02:00:00 13.9 C 9.95 g/m*3 13.9 C 0 km/h
916 10-09-2010 03:00:00 13.9 C 10.07 g/m*3 13.9 C 0 km/h
917 10-09-2010 04:00:00 13.84 C 10.25 g/m*3 13.84 C 0 km/h
918 10-09-2010 05:00:00 13.06 C 9.99 g/m*3 13.06 C 0 km/h
919 10-09-2010 06:00:00 13.12 C 10.24 g/m*3 13.12 C 0 km/h
920 10-09-2010 07:00:00 13.18 C 9.84 g/m*3 13.18 C 0 km/h
921 10-09-2010 08:00:00 13.32 C 9.95 g/m*3 13.32 C 0 km/h
922 10-09-2010 09:00:00 14.6 C 9.54 g/m*3 14.6 C 0 km/h
923 10-09-2010 10:00:00 16.16 C 9.35 g/m*3 16.16 C 0 km/h
924 10-09-2010 11:00:00 17.88 C 9.21 g/m*3 17.88 C 0 km/h
925 10-09-2010 12:00:00 18.74 C 9.18 g/m*3 18.74 C 0 km/h
Sensor: Nr:Datum:Temp:Abs-Feuchte:Windchill:Wind:
Aussen-T/F 926 10-09-2010 13:00:00 19.18 C 8.66 g/m*3 19.18 C 0 km/h
927 10-09-2010 14:00:00 19.94 C 8.75 g/m*3 19.94 C 0 km/h
928 10-09-2010 15:00:00 20.82 C 8.59 g/m*3 20.82 C 0 km/h
929 10-09-2010 16:00:00 21.1 C 8.44 g/m*3 21.1 C 0 km/h
930 10-09-2010 17:00:00 20.18 C 8.98 g/m*3 20.18 C 0 km/h
931 10-09-2010 18:00:00 17.86 C 10.21 g/m*3 17.86 C 0 km/h
932 10-09-2010 19:00:00 16.26 C 11.43 g/m*3 16.26 C 0 km/h
933 10-09-2010 20:00:00 15.68 C 11.57 g/m*3 15.68 C 0 km/h
934 10-09-2010 21:00:00 15.8 C 11.68 g/m*3 15.8 C 0 km/h
935 10-09-2010 22:00:00 15.68 C 11.44 g/m*3 15.68 C 0 km/h
936 10-09-2010 23:00:00 15.46 C 11.18 g/m*3 15.46 C 0 km/h
937 11-09-2010 00:00:00 15.14 C 10.86 g/m*3 15.14 C 0 km/h
938 11-09-2010 01:00:00 15 C 10.8 g/m*3 15 C 0 km/h
939 11-09-2010 02:00:00 14.74 C 10.73 g/m*3 14.74 C 0 km/h
940 11-09-2010 03:00:00 14.08 C 10.42 g/m*3 14.08 C 0 km/h
941 11-09-2010 04:00:00 13.14 C 9.86 g/m*3 13.14 C 0 km/h
942 11-09-2010 05:00:00 12.64 C 9.78 g/m*3 12.64 C 0 km/h
943 11-09-2010 06:00:00 12.74 C 9.91 g/m*3 12.74 C 0 km/h
944 11-09-2010 07:00:00 12.16 C 9.54 g/m*3 12.16 C 0 km/h
945 11-09-2010 08:00:00 13.04 C 10.23 g/m*3 13.04 C 0 km/h
946 11-09-2010 09:00:00 13.76 C 10.55 g/m*3 13.76 C 0 km/h
947 11-09-2010 10:00:00 15.66 C 11.32 g/m*3 15.66 C 0 km/h
948 11-09-2010 11:00:00 18.24 C 11.37 g/m*3 18.24 C 0 km/h
949 11-09-2010 12:00:00 19.9 C 9.59 g/m*3 19.9 C 0 km/h
950 11-09-2010 13:00:00 21.76 C 8.81 g/m*3 21.76 C 0 km/h
Sensor: Nr:Datum:Temp:Abs-Feuchte:Windchill:Wind:
Aussen-T/F 951 11-09-2010 14:00:00 24.2 C 8.14 g/m*3 24.2 C 0 km/h
952 11-09-2010 15:00:00 26.04 C 7.86 g/m*3 26.04 C 0 km/h
953 11-09-2010 16:00:00 26.34 C 8.19 g/m*3 26.34 C 0 km/h
954 11-09-2010 17:00:00 27.62 C 8.31 g/m*3 27.62 C 0 km/h
955 11-09-2010 18:00:00 26.06 C 9.28 g/m*3 26.06 C 0 km/h
956 11-09-2010 19:00:00 21.76 C 9.72 g/m*3 21.76 C 0 km/h
957 11-09-2010 20:00:00 19.34 C 9.51 g/m*3 19.34 C 0 km/h
958 11-09-2010 21:00:00 18.1 C 10.01 g/m*3 18.1 C 0 km/h
959 11-09-2010 22:00:00 17.2 C 10.28 g/m*3 17.2 C 0 km/h
960 11-09-2010 23:00:00 16.56 C 10.4 g/m*3 16.56 C 0 km/h
961 12-09-2010 00:00:00 16.06 C 10.42 g/m*3 16.06 C 0 km/h
962 12-09-2010 01:00:00 15.34 C 10.34 g/m*3 15.34 C 0 km/h
963 12-09-2010 02:00:00 14.88 C 10.39 g/m*3 14.88 C 0 km/h
964 12-09-2010 03:00:00 14.46 C 10.2 g/m*3 14.46 C 0 km/h
965 12-09-2010 04:00:00 14.1 C 10.07 g/m*3 14.1 C 0 km/h
966 12-09-2010 05:00:00 13.76 C 9.98 g/m*3 13.76 C 0 km/h
967 12-09-2010 06:00:00 13.52 C 9.93 g/m*3 13.52 C 0 km/h
968 12-09-2010 07:00:00 13.7 C 10.14 g/m*3 13.7 C 0 km/h
969 12-09-2010 08:00:00 14.26 C 10.3 g/m*3 14.26 C 0 km/h
970 12-09-2010 09:00:00 14.84 C 10.51 g/m*3 14.84 C 0 km/h
971 12-09-2010 10:00:00 16.94 C 11.16 g/m*3 16.94 C 0 km/h
972 12-09-2010 11:00:00 20.02 C 10.69 g/m*3 20.02 C 0 km/h
973 12-09-2010 12:00:00 21.62 C 10.75 g/m*3 21.62 C 0 km/h
974 12-09-2010 13:00:00 24.4 C 9.84 g/m*3 24.4 C 0 km/h
975 12-09-2010 14:00:00 23.86 C 9.2 g/m*3 23.86 C 0 km/h
Sensor: Nr:Datum:Temp:Abs-Feuchte:Windchill:Wind:
Aussen-T/F 976 12-09-2010 15:00:00 19.32 C 8.87 g/m*3 19.32 C 0 km/h
977 12-09-2010 16:00:00 17.78 C 9.19 g/m*3 17.78 C 0 km/h
978 12-09-2010 17:00:00 16.2 C 9.68 g/m*3 16.2 C 0 km/h
979 12-09-2010 18:00:00 14.92 C 10.59 g/m*3 14.92 C 0 km/h
980 12-09-2010 19:00:00 14.26 C 10.79 g/m*3 14.26 C 0 km/h
981 12-09-2010 20:00:00 13.82 C 10.81 g/m*3 13.82 C 0 km/h
982 12-09-2010 21:00:00 13.78 C 10.97 g/m*3 13.78 C 0 km/h
983 12-09-2010 22:00:00 13.78 C 11.07 g/m*3 13.78 C 0 km/h
984 12-09-2010 23:00:00 13.58 C 10.93 g/m*3 13.58 C 0 km/h
985 13-09-2010 00:00:00 13.68 C 11 g/m*3 13.68 C 0 km/h
986 13-09-2010 01:00:00 13.7 C 11.01 g/m*3 13.7 C 0 km/h
987 13-09-2010 02:00:00 13.52 C 10.89 g/m*3 13.52 C 0 km/h
988 13-09-2010 03:00:00 13.26 C 10.58 g/m*3 13.26 C 0 km/h
989 13-09-2010 04:00:00 13 C 10.21 g/m*3 13 C 0 km/h
990 13-09-2010 05:00:00 13.26 C 9.77 g/m*3 13.26 C 0 km/h
991 13-09-2010 06:00:00 13.3 C 9.57 g/m*3 13.3 C 0 km/h
992 13-09-2010 07:00:00 12.72 C 9.18 g/m*3 12.72 C 0 km/h
993 13-09-2010 08:00:00 13.04 C 9.62 g/m*3 13.04 C 0 km/h
994 13-09-2010 09:00:00 13.98 C 9.47 g/m*3 13.98 C 0 km/h
995 13-09-2010 10:00:00 15.32 C 9.05 g/m*3 15.32 C 0 km/h
996 13-09-2010 11:00:00 16.5 C 8.57 g/m*3 16.5 C 0 km/h
997 13-09-2010 12:00:00 17.24 C 7.93 g/m*3 17.24 C 0 km/h
998 13-09-2010 13:00:00 18.94 C 7.53 g/m*3 18.94 C 0 km/h
999 13-09-2010 14:00:00 20.18 C 6.95 g/m*3 20.18 C 0 km/h
1000 13-09-2010 15:00:00 20.8 C 7.1 g/m*3 20.8 C 0 km/h
Sensor: Nr:Datum:Temp:Abs-Feuchte:Windchill:Wind:
Aussen-T/F 1001 13-09-2010 16:00:00 21.56 C 6.93 g/m*3 21.56 C 0 km/h
1002 13-09-2010 17:00:00 20.48 C 7.96 g/m*3 20.48 C 0 km/h
1003 13-09-2010 18:00:00 18.22 C 8.62 g/m*3 18.22 C 0 km/h
1004 13-09-2010 19:00:00 16.92 C 8.55 g/m*3 16.92 C 0 km/h
1005 13-09-2010 20:00:00 15.24 C 8.9 g/m*3 15.24 C 0 km/h
1006 13-09-2010 21:00:00 14.52 C 8.97 g/m*3 14.52 C 0 km/h
1007 13-09-2010 22:00:00 13.7 C 8.86 g/m*3 13.7 C 0 km/h
1008 13-09-2010 23:00:00 13.14 C 8.85 g/m*3 13.14 C 0 km/h
1009 14-09-2010 00:00:00 12.82 C 9.2 g/m*3 12.82 C 0 km/h
1010 14-09-2010 01:00:00 12.8 C 9.27 g/m*3 12.8 C 0 km/h
1011 14-09-2010 02:00:00 13.1 C 9.33 g/m*3 13.1 C 0 km/h
1012 14-09-2010 03:00:00 13.36 C 9.23 g/m*3 13.36 C 0 km/h
1013 14-09-2010 04:00:00 12.94 C 9.42 g/m*3 12.94 C 0 km/h
1014 14-09-2010 05:00:00 12.96 C 9.84 g/m*3 12.96 C 0 km/h
1015 14-09-2010 06:00:00 13.9 C 9.28 g/m*3 13.9 C 0 km/h
1016 14-09-2010 07:00:00 14.06 C 8.93 g/m*3 14.06 C 0 km/h
1017 14-09-2010 08:00:00 14.1 C 9.32 g/m*3 14.1 C 0 km/h
1018 14-09-2010 09:00:00 15.16 C 9.06 g/m*3 15.16 C 0 km/h
1019 14-09-2010 10:00:00 16.1 C 9.07 g/m*3 16.1 C 0 km/h
1020 14-09-2010 11:00:00 17.06 C 9.15 g/m*3 17.06 C 0 km/h
1021 14-09-2010 12:00:00 18.44 C 9.18 g/m*3 18.44 C 0 km/h
1022 14-09-2010 13:00:00 19.98 C 9.22 g/m*3 19.98 C 0 km/h
1023 14-09-2010 14:00:00 19.66 C 8.84 g/m*3 19.66 C 0 km/h
1024 14-09-2010 15:00:00 20.4 C 8.63 g/m*3 20.4 C 0 km/h
1025 14-09-2010 16:00:00 20.68 C 7.88 g/m*3 20.68 C 0 km/h
Sensor: Nr:Datum:Temp:Abs-Feuchte:Windchill:Wind:
Aussen-T/F 1026 14-09-2010 17:00:00 20.14 C 7.46 g/m*3 20.14 C 0 km/h
1027 14-09-2010 18:00:00 19.34 C 7.81 g/m*3 19.34 C 0 km/h
1028 14-09-2010 19:00:00 18.8 C 7.73 g/m*3 18.8 C 0 km/h
1029 14-09-2010 20:00:00 18.6 C 7.7 g/m*3 18.6 C 0 km/h
1030 14-09-2010 21:00:00 18.54 C 7.77 g/m*3 18.54 C 0 km/h
1031 14-09-2010 22:00:00 18.5 C 7.83 g/m*3 18.5 C 0 km/h
1032 14-09-2010 23:00:00 18.22 C 7.91 g/m*3 18.22 C 0 km/h
1033 15-09-2010 00:00:00 18.02 C 7.87 g/m*3 18.02 C 0 km/h
1034 15-09-2010 01:00:00 18.18 C 7.67 g/m*3 18.18 C 0 km/h
1035 15-09-2010 02:00:00 18.32 C 7.64 g/m*3 18.32 C 0 km/h
1036 15-09-2010 03:00:00 18.06 C 8.23 g/m*3 18.06 C 0 km/h
1037 15-09-2010 04:00:00 17.7 C 9.11 g/m*3 17.7 C 0 km/h
1038 15-09-2010 05:00:00 15 C 9.75 g/m*3 15 C 0 km/h
1039 15-09-2010 06:00:00 12.78 C 10.09 g/m*3 12.78 C 0 km/h
1040 15-09-2010 07:00:00 12.74 C 10.29 g/m*3 12.74 C 0 km/h
1041 15-09-2010 08:00:00 12.7 C 10.35 g/m*3 12.7 C 0 km/h
1042 15-09-2010 09:00:00 12.92 C 10.36 g/m*3 12.92 C 0 km/h
1043 15-09-2010 10:00:00 14.06 C 9.95 g/m*3 14.06 C 0 km/h
1044 15-09-2010 11:00:00 15.02 C 8.86 g/m*3 15.02 C 0 km/h
1045 15-09-2010 12:00:00 16.5 C 7.02 g/m*3 16.5 C 0 km/h
1046 15-09-2010 13:00:00 17.24 C 6.31 g/m*3 17.24 C 0 km/h
1047 15-09-2010 14:00:00 18.38 C 5.66 g/m*3 18.38 C 0 km/h
1048 15-09-2010 15:00:00 19.52 C 5.75 g/m*3 19.52 C 0 km/h
1049 15-09-2010 16:00:00 19.52 C 5.98 g/m*3 19.52 C 0 km/h
1050 15-09-2010 17:00:00 19.68 C 5.8 g/m*3 19.68 C 0 km/h
Sensor: Nr:Datum:Temp:Abs-Feuchte:Windchill:Wind:
Aussen-T/F 1051 15-09-2010 18:00:00 17.84 C 5.32 g/m*3 17.84 C 0 km/h
1052 15-09-2010 19:00:00 16.6 C 5.65 g/m*3 16.6 C 0 km/h
1053 15-09-2010 20:00:00 15.84 C 6.26 g/m*3 15.84 C 0 km/h
1054 15-09-2010 21:00:00 15.18 C 6.38 g/m*3 15.18 C 0 km/h
1055 15-09-2010 22:00:00 14.96 C 5.96 g/m*3 14.96 C 0 km/h
1056 15-09-2010 23:00:00 14.86 C 5.64 g/m*3 14.86 C 0 km/h
1057 16-09-2010 00:00:00 14.18 C 5.9 g/m*3 14.18 C 0 km/h
1058 16-09-2010 01:00:00 14.1 C 5.41 g/m*3 14.1 C 0 km/h
1059 16-09-2010 02:00:00 13.94 C 5.79 g/m*3 13.94 C 0 km/h
1060 16-09-2010 03:00:00 13.84 C 6.71 g/m*3 13.84 C 0 km/h
1061 16-09-2010 04:00:00 13.58 C 6.98 g/m*3 13.58 C 0 km/h
1062 16-09-2010 05:00:00 13.36 C 7.26 g/m*3 13.36 C 0 km/h
1063 16-09-2010 06:00:00 12.44 C 8.08 g/m*3 12.44 C 0 km/h
1064 16-09-2010 07:00:00 11.78 C 8.68 g/m*3 11.78 C 0 km/h
1065 16-09-2010 08:00:00 11.86 C 8.83 g/m*3 11.86 C 0 km/h
1066 16-09-2010 09:00:00 12.64 C 9.25 g/m*3 12.64 C 0 km/h
1067 16-09-2010 10:00:00 14.12 C 8.65 g/m*3 14.12 C 0 km/h
1068 16-09-2010 11:00:00 15.26 C 8.23 g/m*3 15.26 C 0 km/h
1069 16-09-2010 12:00:00 17.02 C 7.68 g/m*3 17.02 C 0 km/h
1070 16-09-2010 13:00:00 17.32 C 7.17 g/m*3 17.32 C 0 km/h
1071 16-09-2010 14:00:00 15.28 C 8.71 g/m*3 15.28 C 0 km/h
1072 16-09-2010 15:00:00 17.22 C 9.15 g/m*3 17.22 C 0 km/h
1073 16-09-2010 16:00:00 16.36 C 8.49 g/m*3 16.36 C 0 km/h
1074 16-09-2010 17:00:00 15.3 C 9.51 g/m*3 15.3 C 0 km/h
1075 16-09-2010 18:00:00 14.9 C 8.95 g/m*3 14.9 C 0 km/h
Sensor: Nr:Datum:Temp:Abs-Feuchte:Windchill:Wind:
Aussen-T/F 1076 16-09-2010 19:00:00 13.42 C 9.68 g/m*3 13.42 C 0 km/h
1077 16-09-2010 20:00:00 12.84 C 10.02 g/m*3 12.84 C 0 km/h
1078 16-09-2010 21:00:00 12.62 C 10.08 g/m*3 12.62 C 0 km/h
1079 16-09-2010 22:00:00 12.2 C 9.58 g/m*3 12.2 C 0 km/h
1080 16-09-2010 23:00:00 12.1 C 9.29 g/m*3 12.1 C 0 km/h
1081 17-09-2010 00:00:00 12.16 C 9.24 g/m*3 12.16 C 0 km/h
1082 17-09-2010 01:00:00 12.06 C 9.26 g/m*3 12.06 C 0 km/h
1083 17-09-2010 02:00:00 11.96 C 9.29 g/m*3 11.96 C 0 km/h
1084 17-09-2010 03:00:00 12.06 C 8.94 g/m*3 12.06 C 0 km/h
1085 17-09-2010 04:00:00 11.94 C 8.73 g/m*3 11.94 C 0 km/h
1086 17-09-2010 05:00:00 11.2 C 8.23 g/m*3 11.2 C 0 km/h
1087 17-09-2010 06:00:00 10.6 C 8.59 g/m*3 10.6 C 0 km/h
1088 17-09-2010 07:00:00 10.02 C 8.15 g/m*3 10.02 C 0 km/h
1089 17-09-2010 08:00:00 10.22 C 7.66 g/m*3 10.22 C 0 km/h
1090 17-09-2010 09:00:00 10.86 C 7.28 g/m*3 10.86 C 0 km/h
1091 17-09-2010 10:00:00 12.06 C 7.55 g/m*3 12.06 C 0 km/h
1092 17-09-2010 11:00:00 13.72 C 7.56 g/m*3 13.72 C 0 km/h
1093 17-09-2010 12:00:00 15.7 C 6.58 g/m*3 15.7 C 0 km/h
1094 17-09-2010 13:00:00 16.66 C 5.9 g/m*3 16.66 C 0 km/h
1095 17-09-2010 14:00:00 17.62 C 5.29 g/m*3 17.62 C 0 km/h
1096 17-09-2010 15:00:00 17.48 C 5.06 g/m*3 17.48 C 0 km/h
1097 17-09-2010 16:00:00 19.06 C 4.94 g/m*3 19.06 C 0 km/h
1098 17-09-2010 17:00:00 19.46 C 4.45 g/m*3 19.46 C 0 km/h
1099 17-09-2010 18:00:00 16.66 C 6.1 g/m*3 16.66 C 0 km/h
1100 17-09-2010 19:00:00 15.24 C 6.69 g/m*3 15.24 C 0 km/h
Sensor: Nr:Datum:Temp:Abs-Feuchte:Windchill:Wind:
Aussen-T/F 1101 17-09-2010 20:00:00 14.26 C 7.06 g/m*3 14.26 C 0 km/h
1102 17-09-2010 21:00:00 13.48 C 7.15 g/m*3 13.48 C 0 km/h
1103 17-09-2010 22:00:00 13.34 C 6.72 g/m*3 13.34 C 0 km/h
1104 17-09-2010 23:00:00 12.58 C 6.81 g/m*3 12.58 C 0 km/h
1105 18-09-2010 00:00:00 12.12 C 6.94 g/m*3 12.12 C 0 km/h
1106 18-09-2010 01:00:00 10.9 C 7 g/m*3 10.9 C 0 km/h
1107 18-09-2010 02:00:00 10 C 7.2 g/m*3 10 C 0 km/h
1108 18-09-2010 03:00:00 9.38 C 7.3 g/m*3 9.38 C 0 km/h
1109 18-09-2010 04:00:00 8.54 C 7.19 g/m*3 8.54 C 0 km/h
1110 18-09-2010 05:00:00 7.94 C 7.18 g/m*3 7.94 C 0 km/h
1111 18-09-2010 06:00:00 7.62 C 7.36 g/m*3 7.62 C 0 km/h
1112 18-09-2010 07:00:00 7.5 C 7.3 g/m*3 7.5 C 0 km/h
1113 18-09-2010 08:00:00 7.46 C 7.23 g/m*3 7.46 C 0 km/h
1114 18-09-2010 09:00:00 8.12 C 7.55 g/m*3 8.12 C 0 km/h
1115 18-09-2010 10:00:00 10.2 C 8.18 g/m*3 10.2 C 0 km/h
1116 18-09-2010 11:00:00 13.46 C 6.65 g/m*3 13.46 C 0 km/h
1117 18-09-2010 12:00:00 15.14 C 5.92 g/m*3 15.14 C 0 km/h
1118 18-09-2010 13:00:00 15.6 C 5.43 g/m*3 15.6 C 0 km/h
1119 18-09-2010 14:00:00 15.26 C 4.77 g/m*3 15.26 C 0 km/h
1120 18-09-2010 15:00:00 16.3 C 4.58 g/m*3 16.3 C 0 km/h
1121 18-09-2010 16:00:00 16.22 C 4.86 g/m*3 16.22 C 0 km/h
1122 18-09-2010 17:00:00 15.86 C 5.73 g/m*3 15.86 C 0 km/h
1123 18-09-2010 18:00:00 15.66 C 6.06 g/m*3 15.66 C 0 km/h
1124 18-09-2010 19:00:00 13.26 C 6.08 g/m*3 13.26 C 0 km/h
1125 18-09-2010 20:00:00 11.08 C 6.6 g/m*3 11.08 C 0 km/h
Sensor: Nr:Datum:Temp:Abs-Feuchte:Windchill:Wind:
Aussen-T/F 1126 18-09-2010 21:00:00 10.02 C 6.62 g/m*3 10.02 C 0 km/h
1127 18-09-2010 22:00:00 8.98 C 6.69 g/m*3 8.98 C 0 km/h
1128 18-09-2010 23:00:00 8.2 C 6.77 g/m*3 8.2 C 0 km/h
1129 19-09-2010 00:00:00 7.56 C 6.72 g/m*3 7.56 C 0 km/h
1130 19-09-2010 01:00:00 6.92 C 6.54 g/m*3 6.92 C 0 km/h
1131 19-09-2010 02:00:00 6.44 C 6.53 g/m*3 6.44 C 0 km/h
1132 19-09-2010 03:00:00 6.42 C 6.57 g/m*3 6.42 C 0 km/h
1133 19-09-2010 04:00:00 6.2 C 6.5 g/m*3 6.2 C 0 km/h
1134 19-09-2010 05:00:00 6.04 C 6.42 g/m*3 6.04 C 0 km/h
1135 19-09-2010 06:00:00 5.76 C 6.33 g/m*3 5.76 C 0 km/h
1136 19-09-2010 07:00:00 6 C 6.46 g/m*3 6 C 0 km/h
1137 19-09-2010 08:00:00 6.96 C 6.79 g/m*3 6.96 C 0 km/h
1138 19-09-2010 09:00:00 8.12 C 6.98 g/m*3 8.12 C 0 km/h
1139 19-09-2010 10:00:00 10.72 C 6.69 g/m*3 10.72 C 0 km/h
1140 19-09-2010 11:00:00 12.92 C 6.27 g/m*3 12.92 C 0 km/h
1141 19-09-2010 12:00:00 14.94 C 5.67 g/m*3 14.94 C 0 km/h
1142 19-09-2010 13:00:00 16.12 C 5.54 g/m*3 16.12 C 0 km/h
1143 19-09-2010 14:00:00 17.38 C 5.68 g/m*3 17.38 C 0 km/h
1144 19-09-2010 15:00:00 18.62 C 5.45 g/m*3 18.62 C 0 km/h
1145 19-09-2010 16:00:00 19.04 C 5.29 g/m*3 19.04 C 0 km/h
1146 19-09-2010 17:00:00 18.78 C 5.69 g/m*3 18.78 C 0 km/h
1147 19-09-2010 18:00:00 17.08 C 5.99 g/m*3 17.08 C 0 km/h
1148 19-09-2010 19:00:00 15.78 C 5.97 g/m*3 15.78 C 0 km/h
1149 19-09-2010 20:00:00 14.46 C 6.3 g/m*3 14.46 C 0 km/h
1150 19-09-2010 21:00:00 13.96 C 6.62 g/m*3 13.96 C 0 km/h
Sensor: Nr:Datum:Temp:Abs-Feuchte:Windchill:Wind:
Aussen-T/F 1151 19-09-2010 22:00:00 13.32 C 6.78 g/m*3 13.32 C 0 km/h
1152 19-09-2010 23:00:00 12.28 C 6.77 g/m*3 12.28 C 0 km/h
1153 20-09-2010 00:00:00 11.68 C 6.87 g/m*3 11.68 C 0 km/h
1154 20-09-2010 01:00:00 10.44 C 6.78 g/m*3 10.44 C 0 km/h
1155 20-09-2010 02:00:00 9.84 C 6.88 g/m*3 9.84 C 0 km/h
1156 20-09-2010 03:00:00 9.64 C 7.02 g/m*3 9.64 C 0 km/h
1157 20-09-2010 04:00:00 8.98 C 6.89 g/m*3 8.98 C 0 km/h
1158 20-09-2010 05:00:00 8.32 C 6.89 g/m*3 8.32 C 0 km/h
1159 20-09-2010 06:00:00 8.48 C 7.03 g/m*3 8.48 C 0 km/h
1160 20-09-2010 07:00:00 8.52 C 7.1 g/m*3 8.52 C 0 km/h
1161 20-09-2010 08:00:00 9.18 C 6.87 g/m*3 9.18 C 0 km/h
1162 20-09-2010 09:00:00 9.84 C 6.92 g/m*3 9.84 C 0 km/h
1163 20-09-2010 10:00:00 12.4 C 7.21 g/m*3 12.4 C 0 km/h
1164 20-09-2010 11:00:00 14.62 C 6.99 g/m*3 14.62 C 0 km/h
1165 20-09-2010 12:00:00 16.26 C 6.34 g/m*3 16.26 C 0 km/h
1166 20-09-2010 13:00:00 18.02 C 6.12 g/m*3 18.02 C 0 km/h
1167 20-09-2010 14:00:00 20.02 C 5.81 g/m*3 20.02 C 0 km/h
1168 20-09-2010 15:00:00 21.42 C 5.86 g/m*3 21.42 C 0 km/h
1169 20-09-2010 16:00:00 22.46 C 6.22 g/m*3 22.46 C 0 km/h
1170 20-09-2010 17:00:00 22.28 C 6.11 g/m*3 22.28 C 0 km/h
1171 20-09-2010 18:00:00 21.3 C 6.67 g/m*3 21.3 C 0 km/h
1172 20-09-2010 19:00:00 17.5 C 7.19 g/m*3 17.5 C 0 km/h
1173 20-09-2010 20:00:00 15.34 C 7.54 g/m*3 15.34 C 0 km/h
1174 20-09-2010 21:00:00 14.2 C 7.72 g/m*3 14.2 C 0 km/h
1175 20-09-2010 22:00:00 13.22 C 8.07 g/m*3 13.22 C 0 km/h
Sensor: Nr:Datum:Temp:Abs-Feuchte:Windchill:Wind:
Aussen-T/F 1176 20-09-2010 23:00:00 12.28 C 8.05 g/m*3 12.28 C 0 km/h
1177 21-09-2010 00:00:00 11.52 C 7.88 g/m*3 11.52 C 0 km/h
1178 21-09-2010 01:00:00 10.9 C 7.8 g/m*3 10.9 C 0 km/h
1179 21-09-2010 02:00:00 10.24 C 7.69 g/m*3 10.24 C 0 km/h
1180 21-09-2010 03:00:00 9.74 C 7.71 g/m*3 9.74 C 0 km/h
1181 21-09-2010 04:00:00 9.22 C 7.51 g/m*3 9.22 C 0 km/h
1182 21-09-2010 05:00:00 8.78 C 7.46 g/m*3 8.78 C 0 km/h
1183 21-09-2010 06:00:00 8.34 C 7.37 g/m*3 8.34 C 0 km/h
1184 21-09-2010 07:00:00 8.14 C 7.34 g/m*3 8.14 C 0 km/h
1185 21-09-2010 08:00:00 8.26 C 7.53 g/m*3 8.26 C 0 km/h
1186 21-09-2010 09:00:00 9.18 C 7.97 g/m*3 9.18 C 0 km/h
1187 21-09-2010 10:00:00 11.12 C 8.71 g/m*3 11.12 C 0 km/h
1188 21-09-2010 11:00:00 14.12 C 8.65 g/m*3 14.12 C 0 km/h
1189 21-09-2010 12:00:00 16.14 C 8.99 g/m*3 16.14 C 0 km/h
1190 21-09-2010 13:00:00 17.02 C 9.65 g/m*3 17.02 C 0 km/h
1191 21-09-2010 14:00:00 17.82 C 9.48 g/m*3 17.82 C 0 km/h
1192 21-09-2010 15:00:00 23.12 C 8.2 g/m*3 23.12 C 0 km/h
1193 21-09-2010 16:00:00 25.16 C 7.62 g/m*3 25.16 C 0 km/h
1194 21-09-2010 17:00:00 24.6 C 7.56 g/m*3 24.6 C 0 km/h
1195 21-09-2010 18:00:00 22.18 C 7.88 g/m*3 22.18 C 0 km/h
1196 21-09-2010 19:00:00 18.64 C 8.36 g/m*3 18.64 C 0 km/h
1197 21-09-2010 20:00:00 16.3 C 8.52 g/m*3 16.3 C 0 km/h
1198 21-09-2010 21:00:00 15.06 C 8.49 g/m*3 15.06 C 0 km/h
1199 21-09-2010 22:00:00 13.9 C 8.51 g/m*3 13.9 C 0 km/h
1200 21-09-2010 23:00:00 12.98 C 8.54 g/m*3 12.98 C 0 km/h
Sensor: Nr:Datum:Temp:Abs-Feuchte:Windchill:Wind:
Aussen-T/F 1201 22-09-2010 00:00:00 12.2 C 8.55 g/m*3 12.2 C 0 km/h
1202 22-09-2010 01:00:00 11.5 C 8.41 g/m*3 11.5 C 0 km/h
1203 22-09-2010 02:00:00 10.78 C 8.15 g/m*3 10.78 C 0 km/h
1204 22-09-2010 03:00:00 10.22 C 8 g/m*3 10.22 C 0 km/h
1205 22-09-2010 04:00:00 9.72 C 7.94 g/m*3 9.72 C 0 km/h
1206 22-09-2010 05:00:00 9.84 C 8.15 g/m*3 9.84 C 0 km/h
1207 22-09-2010 06:00:00 9.78 C 8.15 g/m*3 9.78 C 0 km/h
1208 22-09-2010 07:00:00 9.56 C 8.04 g/m*3 9.56 C 0 km/h
1209 22-09-2010 08:00:00 9.36 C 7.96 g/m*3 9.36 C 0 km/h
1210 22-09-2010 09:00:00 10.18 C 8.15 g/m*3 10.18 C 0 km/h
1211 22-09-2010 10:00:00 12.42 C 8.64 g/m*3 12.42 C 0 km/h
1212 22-09-2010 11:00:00 13.78 C 9.19 g/m*3 13.78 C 0 km/h
1213 22-09-2010 12:00:00 16.54 C 9.97 g/m*3 16.54 C 0 km/h
1214 22-09-2010 13:00:00 19.76 C 10.09 g/m*3 19.76 C 0 km/h
1215 22-09-2010 14:00:00 22.86 C 10.07 g/m*3 22.86 C 0 km/h
1216 22-09-2010 15:00:00 25.06 C 9.29 g/m*3 25.06 C 0 km/h
1217 22-09-2010 16:00:00 27.32 C 8.59 g/m*3 27.32 C 0 km/h
1218 22-09-2010 17:00:00 27.06 C 8.16 g/m*3 27.06 C 0 km/h
1219 22-09-2010 18:00:00 24.88 C 9.1 g/m*3 24.88 C 0 km/h
1220 22-09-2010 19:00:00 20.88 C 9.2 g/m*3 20.88 C 0 km/h
1221 22-09-2010 20:00:00 18.54 C 9.1 g/m*3 18.54 C 0 km/h
1222 22-09-2010 21:00:00 17.46 C 9.31 g/m*3 17.46 C 0 km/h
1223 22-09-2010 22:00:00 16.18 C 9.26 g/m*3 16.18 C 0 km/h
1224 22-09-2010 23:00:00 14.92 C 8.78 g/m*3 14.92 C 0 km/h
1225 23-09-2010 00:00:00 14.02 C 8.65 g/m*3 14.02 C 0 km/h
Sensor: Nr:Datum:Temp:Abs-Feuchte:Windchill:Wind:
Aussen-T/F 1226 23-09-2010 01:00:00 13.22 C 8.71 g/m*3 13.22 C 0 km/h
1227 23-09-2010 02:00:00 12.44 C 8.7 g/m*3 12.44 C 0 km/h
1228 23-09-2010 03:00:00 11.8 C 8.57 g/m*3 11.8 C 0 km/h
1229 23-09-2010 04:00:00 11.16 C 8.39 g/m*3 11.16 C 0 km/h
1230 23-09-2010 05:00:00 10.64 C 8.22 g/m*3 10.64 C 0 km/h
1231 23-09-2010 06:00:00 10.46 C 8.2 g/m*3 10.46 C 0 km/h
1232 23-09-2010 07:00:00 10.52 C 8.25 g/m*3 10.52 C 0 km/h
1233 23-09-2010 08:00:00 10.88 C 8.42 g/m*3 10.88 C 0 km/h
1234 23-09-2010 09:00:00 11.64 C 8.65 g/m*3 11.64 C 0 km/h
1235 23-09-2010 10:00:00 12.98 C 9.24 g/m*3 12.98 C 0 km/h
1236 23-09-2010 11:00:00 15.64 C 10.08 g/m*3 15.64 C 0 km/h
1237 23-09-2010 12:00:00 18.66 C 10.61 g/m*3 18.66 C 0 km/h
1238 23-09-2010 13:00:00 22.3 C 10.7 g/m*3 22.3 C 0 km/h
1239 23-09-2010 14:00:00 24.06 C 10.22 g/m*3 24.06 C 0 km/h
1240 23-09-2010 15:00:00 25.04 C 9.37 g/m*3 25.04 C 0 km/h
1241 23-09-2010 16:00:00 25.14 C 9.88 g/m*3 25.14 C 0 km/h
1242 23-09-2010 17:00:00 23.48 C 10.73 g/m*3 23.48 C 0 km/h
1243 23-09-2010 18:00:00 22.12 C 10.63 g/m*3 22.12 C 0 km/h
1244 23-09-2010 19:00:00 19.9 C 11.06 g/m*3 19.9 C 0 km/h
1245 23-09-2010 20:00:00 18.5 C 11.3 g/m*3 18.5 C 0 km/h
1246 23-09-2010 21:00:00 18.5 C 11.49 g/m*3 18.5 C 0 km/h
1247 23-09-2010 22:00:00 17.94 C 11.82 g/m*3 17.94 C 0 km/h
1248 23-09-2010 23:00:00 16.44 C 12.26 g/m*3 16.44 C 0 km/h
1249 24-09-2010 00:00:00 15.7 C 12.18 g/m*3 15.7 C 0 km/h
1250 24-09-2010 01:00:00 15.54 C 12.3 g/m*3 15.54 C 0 km/h
Sensor: Nr:Datum:Temp:Abs-Feuchte:Windchill:Wind:
Aussen-T/F 1251 24-09-2010 02:00:00 15.38 C 12.15 g/m*3 15.38 C 0 km/h
1252 24-09-2010 03:00:00 14.94 C 11.91 g/m*3 14.94 C 0 km/h
1253 24-09-2010 04:00:00 14.78 C 11.89 g/m*3 14.78 C 0 km/h
1254 24-09-2010 05:00:00 14.54 C 11.72 g/m*3 14.54 C 0 km/h
1255 24-09-2010 06:00:00 14.7 C 11.83 g/m*3 14.7 C 0 km/h
1256 24-09-2010 07:00:00 14.4 C 11.62 g/m*3 14.4 C 0 km/h
1257 24-09-2010 08:00:00 14.58 C 11.82 g/m*3 14.58 C 0 km/h
1258 24-09-2010 09:00:00 14.88 C 12.07 g/m*3 14.88 C 0 km/h
1259 24-09-2010 10:00:00 14.98 C 12.06 g/m*3 14.98 C 0 km/h
1260 24-09-2010 11:00:00 15.22 C 12.22 g/m*3 15.22 C 0 km/h
1261 24-09-2010 12:00:00 15.14 C 12.18 g/m*3 15.14 C 0 km/h
1262 24-09-2010 13:00:00 14.56 C 11.73 g/m*3 14.56 C 0 km/h
1263 24-09-2010 14:00:00 13.54 C 11.02 g/m*3 13.54 C 0 km/h
1264 24-09-2010 15:00:00 13.08 C 10.8 g/m*3 13.08 C 0 km/h
1265 24-09-2010 16:00:00 13.8 C 11.32 g/m*3 13.8 C 0 km/h
1266 24-09-2010 17:00:00 13.48 C 11.03 g/m*3 13.48 C 0 km/h
1267 24-09-2010 18:00:00 13.26 C 10.83 g/m*3 13.26 C 0 km/h
1268 24-09-2010 19:00:00 12.84 C 10.64 g/m*3 12.84 C 0 km/h
1269 24-09-2010 20:00:00 12.7 C 10.58 g/m*3 12.7 C 0 km/h
1270 24-09-2010 21:00:00 12.82 C 10.65 g/m*3 12.82 C 0 km/h
1271 24-09-2010 22:00:00 12.7 C 10.58 g/m*3 12.7 C 0 km/h
1272 24-09-2010 23:00:00 12.4 C 10.38 g/m*3 12.4 C 0 km/h
1273 25-09-2010 00:00:00 12.48 C 10.43 g/m*3 12.48 C 0 km/h
1274 25-09-2010 01:00:00 12.52 C 10.46 g/m*3 12.52 C 0 km/h
1275 25-09-2010 02:00:00 12.6 C 10.51 g/m*3 12.6 C 0 km/h
Sensor: Nr:Datum:Temp:Abs-Feuchte:Windchill:Wind:
Aussen-T/F 1276 25-09-2010 03:00:00 12.62 C 10.52 g/m*3 12.62 C 0 km/h
1277 25-09-2010 04:00:00 12.54 C 10.47 g/m*3 12.54 C 0 km/h
1278 25-09-2010 05:00:00 12.38 C 10.35 g/m*3 12.38 C 0 km/h
1279 25-09-2010 06:00:00 12.06 C 10.06 g/m*3 12.06 C 0 km/h
1280 25-09-2010 07:00:00 11.88 C 9.94 g/m*3 11.88 C 0 km/h
1281 25-09-2010 08:00:00 11.26 C 9.5 g/m*3 11.26 C 0 km/h
1282 25-09-2010 09:00:00 10.48 C 8.81 g/m*3 10.48 C 0 km/h
1283 25-09-2010 10:00:00 11.04 C 8.25 g/m*3 11.04 C 0 km/h
1284 25-09-2010 11:00:00 12.3 C 7.45 g/m*3 12.3 C 0 km/h
1285 25-09-2010 12:00:00 12.44 C 6.9 g/m*3 12.44 C 0 km/h
1286 25-09-2010 13:00:00 13.26 C 6.04 g/m*3 13.26 C 0 km/h
1287 25-09-2010 14:00:00 14.24 C 5.36 g/m*3 14.24 C 0 km/h
1288 25-09-2010 15:00:00 15.04 C 4.68 g/m*3 15.04 C 0 km/h
1289 25-09-2010 16:00:00 14.72 C 4.97 g/m*3 14.72 C 0 km/h
1290 25-09-2010 17:00:00 15.6 C 5.08 g/m*3 15.6 C 0 km/h
1291 25-09-2010 18:00:00 14.22 C 5.06 g/m*3 14.22 C 0 km/h
1292 25-09-2010 19:00:00 12.98 C 5.75 g/m*3 12.98 C 0 km/h
1293 25-09-2010 20:00:00 11.7 C 5.88 g/m*3 11.7 C 0 km/h
1294 25-09-2010 21:00:00 10.12 C 6.31 g/m*3 10.12 C 0 km/h
1295 25-09-2010 22:00:00 10.28 C 6.68 g/m*3 10.28 C 0 km/h
1296 25-09-2010 23:00:00 9.28 C 7.4 g/m*3 9.28 C 0 km/h
1297 26-09-2010 00:00:00 9.44 C 7.76 g/m*3 9.44 C 0 km/h
1298 26-09-2010 01:00:00 9.48 C 7.24 g/m*3 9.48 C 0 km/h
1299 26-09-2010 02:00:00 9.42 C 7.05 g/m*3 9.42 C 0 km/h
1300 26-09-2010 03:00:00 9.2 C 7.07 g/m*3 9.2 C 0 km/h
Sensor: Nr:Datum:Temp:Abs-Feuchte:Windchill:Wind:
Aussen-T/F 1301 26-09-2010 04:00:00 8.88 C 7.28 g/m*3 8.88 C 0 km/h
1302 26-09-2010 05:00:00 9.02 C 7.33 g/m*3 9.02 C 0 km/h
1303 26-09-2010 06:00:00 8.9 C 7.38 g/m*3 8.9 C 0 km/h
1304 26-09-2010 07:00:00 8.8 C 7.45 g/m*3 8.8 C 0 km/h
1305 26-09-2010 08:00:00 9.62 C 7.3 g/m*3 9.62 C 0 km/h
1306 26-09-2010 09:00:00 10.26 C 7.18 g/m*3 10.26 C 0 km/h
1307 26-09-2010 10:00:00 11.84 C 6.75 g/m*3 11.84 C 0 km/h
1308 26-09-2010 11:00:00 13.22 C 6.44 g/m*3 13.22 C 0 km/h
1309 26-09-2010 12:00:00 14.48 C 6.39 g/m*3 14.48 C 0 km/h
1310 26-09-2010 13:00:00 13 C 7.58 g/m*3 13 C 0 km/h
1311 26-09-2010 14:00:00 13.3 C 8.3 g/m*3 13.3 C 0 km/h
1312 26-09-2010 15:00:00 14.18 C 8.12 g/m*3 14.18 C 0 km/h
1313 26-09-2010 16:00:00 14.92 C 7.04 g/m*3 14.92 C 0 km/h
1314 26-09-2010 17:00:00 15.18 C 6.61 g/m*3 15.18 C 0 km/h
1315 26-09-2010 18:00:00 12.96 C 6.95 g/m*3 12.96 C 0 km/h
1316 26-09-2010 19:00:00 12.24 C 7.1 g/m*3 12.24 C 0 km/h
1317 26-09-2010 20:00:00 11.78 C 7.21 g/m*3 11.78 C 0 km/h
1318 26-09-2010 21:00:00 11.16 C 7.12 g/m*3 11.16 C 0 km/h
1319 26-09-2010 22:00:00 9.7 C 7.06 g/m*3 9.7 C 0 km/h
1320 26-09-2010 23:00:00 8.84 C 7.17 g/m*3 8.84 C 0 km/h
1321 27-09-2010 00:00:00 8.12 C 7.07 g/m*3 8.12 C 0 km/h
1322 27-09-2010 01:00:00 7.46 C 7.04 g/m*3 7.46 C 0 km/h
1323 27-09-2010 02:00:00 6.84 C 6.86 g/m*3 6.84 C 0 km/h
1324 27-09-2010 03:00:00 6.46 C 6.75 g/m*3 6.46 C 0 km/h
1325 27-09-2010 04:00:00 6.24 C 6.8 g/m*3 6.24 C 0 km/h
Sensor: Nr:Datum:Temp:Abs-Feuchte:Windchill:Wind:
Aussen-T/F 1326 27-09-2010 05:00:00 6.24 C 6.83 g/m*3 6.24 C 0 km/h
1327 27-09-2010 06:00:00 6.32 C 6.89 g/m*3 6.32 C 0 km/h
1328 27-09-2010 07:00:00 6.74 C 7.13 g/m*3 6.74 C 0 km/h
1329 27-09-2010 08:00:00 7.7 C 7.61 g/m*3 7.7 C 0 km/h
1330 27-09-2010 09:00:00 9.24 C 8.2 g/m*3 9.24 C 0 km/h
1331 27-09-2010 10:00:00 10.76 C 7.57 g/m*3 10.76 C 0 km/h
1332 27-09-2010 11:00:00 11.98 C 6.79 g/m*3 11.98 C 0 km/h
1333 27-09-2010 12:00:00 12.78 C 6.82 g/m*3 12.78 C 0 km/h
1334 27-09-2010 13:00:00 13.48 C 6.73 g/m*3 13.48 C 0 km/h
1335 27-09-2010 14:00:00 13.26 C 6.66 g/m*3 13.26 C 0 km/h
1336 27-09-2010 15:00:00 13.4 C 6.65 g/m*3 13.4 C 0 km/h
1337 27-09-2010 16:00:00 13.38 C 7.2 g/m*3 13.38 C 0 km/h
1338 27-09-2010 17:00:00 12.9 C 7.69 g/m*3 12.9 C 0 km/h
1339 27-09-2010 18:00:00 11.94 C 7.73 g/m*3 11.94 C 0 km/h
1340 27-09-2010 19:00:00 10.58 C 8.13 g/m*3 10.58 C 0 km/h
1341 27-09-2010 20:00:00 10.3 C 8.39 g/m*3 10.3 C 0 km/h
1342 27-09-2010 21:00:00 10.34 C 8.55 g/m*3 10.34 C 0 km/h
1343 27-09-2010 22:00:00 10.3 C 8.6 g/m*3 10.3 C 0 km/h
1344 27-09-2010 23:00:00 10.16 C 8.64 g/m*3 10.16 C 0 km/h
1345 28-09-2010 00:00:00 10 C 8.68 g/m*3 10 C 0 km/h
1346 28-09-2010 01:00:00 9.98 C 8.75 g/m*3 9.98 C 0 km/h
1347 28-09-2010 02:00:00 9.9 C 8.78 g/m*3 9.9 C 0 km/h
1348 28-09-2010 03:00:00 9.9 C 8.87 g/m*3 9.9 C 0 km/h
1349 28-09-2010 04:00:00 9.92 C 8.86 g/m*3 9.92 C 0 km/h
1350 28-09-2010 05:00:00 10 C 8.93 g/m*3 10 C 0 km/h
Sensor: Nr:Datum:Temp:Abs-Feuchte:Windchill:Wind:
Aussen-T/F 1351 28-09-2010 06:00:00 10.08 C 8.97 g/m*3 10.08 C 0 km/h
1352 28-09-2010 07:00:00 10 C 8.93 g/m*3 10 C 0 km/h
1353 28-09-2010 08:00:00 10.04 C 8.95 g/m*3 10.04 C 0 km/h
1354 28-09-2010 09:00:00 10.24 C 9.06 g/m*3 10.24 C 0 km/h
1355 28-09-2010 10:00:00 10.58 C 9.26 g/m*3 10.58 C 0 km/h
1356 28-09-2010 11:00:00 11.18 C 9.62 g/m*3 11.18 C 0 km/h
1357 28-09-2010 12:00:00 11.48 C 9.72 g/m*3 11.48 C 0 km/h
1358 28-09-2010 13:00:00 11.74 C 9.71 g/m*3 11.74 C 0 km/h
1359 28-09-2010 14:00:00 11.76 C 9.66 g/m*3 11.76 C 0 km/h
1360 28-09-2010 15:00:00 11.74 C 9.73 g/m*3 11.74 C 0 km/h
1361 28-09-2010 16:00:00 11.84 C 9.85 g/m*3 11.84 C 0 km/h
1362 28-09-2010 17:00:00 11.98 C 10.01 g/m*3 11.98 C 0 km/h
1363 28-09-2010 18:00:00 11.86 C 9.99 g/m*3 11.86 C 0 km/h
1364 28-09-2010 19:00:00 11.72 C 9.95 g/m*3 11.72 C 0 km/h
1365 28-09-2010 20:00:00 11.6 C 9.87 g/m*3 11.6 C 0 km/h
1366 28-09-2010 21:00:00 11.58 C 9.86 g/m*3 11.58 C 0 km/h
1367 28-09-2010 22:00:00 11.62 C 9.89 g/m*3 11.62 C 0 km/h
1368 28-09-2010 23:00:00 11.6 C 9.87 g/m*3 11.6 C 0 km/h
1369 29-09-2010 00:00:00 11.64 C 9.9 g/m*3 11.64 C 0 km/h
1370 29-09-2010 01:00:00 11.62 C 9.89 g/m*3 11.62 C 0 km/h
1371 29-09-2010 02:00:00 11.56 C 9.85 g/m*3 11.56 C 0 km/h
1372 29-09-2010 03:00:00 11.48 C 9.8 g/m*3 11.48 C 0 km/h
1373 29-09-2010 04:00:00 11.48 C 9.8 g/m*3 11.48 C 0 km/h
1374 29-09-2010 05:00:00 11.4 C 9.75 g/m*3 11.4 C 0 km/h
1375 29-09-2010 06:00:00 11.52 C 9.82 g/m*3 11.52 C 0 km/h
Sensor: Nr:Datum:Temp:Abs-Feuchte:Windchill:Wind:
Aussen-T/F 1376 29-09-2010 07:00:00 11.04 C 9.53 g/m*3 11.04 C 0 km/h
1377 29-09-2010 08:00:00 11.18 C 9.62 g/m*3 11.18 C 0 km/h
1378 29-09-2010 09:00:00 11.44 C 9.57 g/m*3 11.44 C 0 km/h
1379 29-09-2010 10:00:00 12.92 C 8.98 g/m*3 12.92 C 0 km/h
1380 29-09-2010 11:00:00 13.96 C 8.42 g/m*3 13.96 C 0 km/h
1381 29-09-2010 12:00:00 14.4 C 8.03 g/m*3 14.4 C 0 km/h
1382 29-09-2010 13:00:00 15.74 C 7.89 g/m*3 15.74 C 0 km/h
1383 29-09-2010 14:00:00 16.82 C 7.64 g/m*3 16.82 C 0 km/h
1384 29-09-2010 15:00:00 19.16 C 6.88 g/m*3 19.16 C 0 km/h
1385 29-09-2010 16:00:00 18.14 C 7.62 g/m*3 18.14 C 0 km/h
1386 29-09-2010 17:00:00 18.3 C 7.54 g/m*3 18.3 C 0 km/h
1387 29-09-2010 18:00:00 14.62 C 7.84 g/m*3 14.62 C 0 km/h
1388 29-09-2010 19:00:00 13.08 C 7.68 g/m*3 13.08 C 0 km/h
1389 29-09-2010 20:00:00 13.12 C 7.7 g/m*3 13.12 C 0 km/h
1390 29-09-2010 21:00:00 12.5 C 7.94 g/m*3 12.5 C 0 km/h
1391 29-09-2010 22:00:00 12.38 C 8.36 g/m*3 12.38 C 0 km/h
1392 29-09-2010 23:00:00 11.96 C 8.33 g/m*3 11.96 C 0 km/h
1393 30-09-2010 00:00:00 12.16 C 8.44 g/m*3 12.16 C 0 km/h
1394 30-09-2010 01:00:00 11.86 C 7.75 g/m*3 11.86 C 0 km/h
1395 30-09-2010 02:00:00 11.46 C 7.62 g/m*3 11.46 C 0 km/h
1396 30-09-2010 03:00:00 11.16 C 7.87 g/m*3 11.16 C 0 km/h
1397 30-09-2010 04:00:00 11.02 C 7.88 g/m*3 11.02 C 0 km/h
1398 30-09-2010 05:00:00 10.76 C 7.79 g/m*3 10.76 C 0 km/h
1399 30-09-2010 06:00:00 10.7 C 7.33 g/m*3 10.7 C 0 km/h
1400 30-09-2010 07:00:00 10.66 C 7.66 g/m*3 10.66 C 0 km/h
Sensor: Nr:Datum:Temp:Abs-Feuchte:Windchill:Wind:
Aussen-T/F 1401 30-09-2010 08:00:00 10.9 C 7.76 g/m*3 10.9 C 0 km/h
1402 30-09-2010 09:00:00 11.4 C 7.86 g/m*3 11.4 C 0 km/h
1403 30-09-2010 10:00:00 11.64 C 8.27 g/m*3 11.64 C 0 km/h
1404 30-09-2010 11:00:00 11.86 C 8.47 g/m*3 11.86 C 0 km/h
1405 30-09-2010 12:00:00 11.98 C 8.94 g/m*3 11.98 C 0 km/h
1406 30-09-2010 13:00:00 12.58 C 9.55 g/m*3 12.58 C 0 km/h
1407 30-09-2010 14:00:00 12.94 C 9.9 g/m*3 12.94 C 0 km/h
1408 30-09-2010 15:00:00 13.26 C 10.12 g/m*3 13.26 C 0 km/h
1409 30-09-2010 16:00:00 13.4 C 10.16 g/m*3 13.4 C 0 km/h
1410 30-09-2010 17:00:00 12.96 C 9.98 g/m*3 12.96 C 0 km/h
1411 30-09-2010 18:00:00 12.48 C 9.82 g/m*3 12.48 C 0 km/h
1412 30-09-2010 19:00:00 12.14 C 9.78 g/m*3 12.14 C 0 km/h
1413 30-09-2010 20:00:00 12.16 C 9.92 g/m*3 12.16 C 0 km/h
1414 30-09-2010 21:00:00 12.08 C 9.96 g/m*3 12.08 C 0 km/h
1415 30-09-2010 22:00:00 11.96 C 9.93 g/m*3 11.96 C 0 km/h
1416 30-09-2010 23:00:00 12 C 10 g/m*3 12 C 0 km/h
1417 01-10-2010 00:00:00 12.02 C 10.05 g/m*3 12.02 C 0 km/h
1418 01-10-2010 01:00:00 11.58 C 9.86 g/m*3 11.58 C 0 km/h
1419 01-10-2010 02:00:00 11.44 C 9.78 g/m*3 11.44 C 0 km/h
1420 01-10-2010 03:00:00 11.56 C 9.85 g/m*3 11.56 C 0 km/h
1421 01-10-2010 04:00:00 11.7 C 9.94 g/m*3 11.7 C 0 km/h
1422 01-10-2010 05:00:00 11.62 C 9.89 g/m*3 11.62 C 0 km/h
1423 01-10-2010 06:00:00 11.4 C 9.75 g/m*3 11.4 C 0 km/h
1424 01-10-2010 07:00:00 11 C 9.51 g/m*3 11 C 0 km/h
1425 01-10-2010 08:00:00 10.3 C 9.1 g/m*3 10.3 C 0 km/h
Sensor: Nr:Datum:Temp:Abs-Feuchte:Windchill:Wind:
Aussen-T/F 1426 01-10-2010 09:00:00 11.24 C 9.65 g/m*3 11.24 C 0 km/h
1427 01-10-2010 10:00:00 11.72 C 9.63 g/m*3 11.72 C 0 km/h
1428 01-10-2010 11:00:00 12.46 C 8.84 g/m*3 12.46 C 0 km/h
1429 01-10-2010 12:00:00 12.68 C 8.49 g/m*3 12.68 C 0 km/h
1430 01-10-2010 13:00:00 13.18 C 8.12 g/m*3 13.18 C 0 km/h
1431 01-10-2010 14:00:00 13.32 C 7.94 g/m*3 13.32 C 0 km/h
1432 01-10-2010 15:00:00 15.3 C 7.78 g/m*3 15.3 C 0 km/h
1433 01-10-2010 16:00:00 16.74 C 7.61 g/m*3 16.74 C 0 km/h
1434 01-10-2010 17:00:00 16.14 C 8.35 g/m*3 16.14 C 0 km/h
1435 01-10-2010 18:00:00 14.34 C 8.79 g/m*3 14.34 C 0 km/h
1436 01-10-2010 19:00:00 12.18 C 8.56 g/m*3 12.18 C 0 km/h
1437 01-10-2010 20:00:00 11.26 C 8.51 g/m*3 11.26 C 0 km/h
1438 01-10-2010 21:00:00 10.86 C 8.53 g/m*3 10.86 C 0 km/h
1439 01-10-2010 22:00:00 10.98 C 8.76 g/m*3 10.98 C 0 km/h
1440 01-10-2010 23:00:00 11.06 C 8.74 g/m*3 11.06 C 0 km/h
1441 02-10-2010 00:00:00 11.12 C 8.71 g/m*3 11.12 C 0 km/h
1442 02-10-2010 01:00:00 10.92 C 8.74 g/m*3 10.92 C 0 km/h
1443 02-10-2010 02:00:00 10.96 C 8.97 g/m*3 10.96 C 0 km/h
1444 02-10-2010 03:00:00 11.1 C 9.15 g/m*3 11.1 C 0 km/h
1445 02-10-2010 04:00:00 11.08 C 9.26 g/m*3 11.08 C 0 km/h
1446 02-10-2010 05:00:00 10.98 C 9.3 g/m*3 10.98 C 0 km/h
1447 02-10-2010 06:00:00 11 C 9.39 g/m*3 11 C 0 km/h
1448 02-10-2010 07:00:00 11.14 C 9.55 g/m*3 11.14 C 0 km/h
1449 02-10-2010 08:00:00 11.46 C 9.79 g/m*3 11.46 C 0 km/h
1450 02-10-2010 09:00:00 12 C 10.12 g/m*3 12 C 0 km/h
Sensor: Nr:Datum:Temp:Abs-Feuchte:Windchill:Wind:
Aussen-T/F 1451 02-10-2010 10:00:00 13.14 C 10.75 g/m*3 13.14 C 0 km/h
1452 02-10-2010 11:00:00 14.32 C 11.27 g/m*3 14.32 C 0 km/h
1453 02-10-2010 12:00:00 15.04 C 11.52 g/m*3 15.04 C 0 km/h
1454 02-10-2010 13:00:00 15.74 C 11.53 g/m*3 15.74 C 0 km/h
1455 02-10-2010 14:00:00 15.64 C 11.41 g/m*3 15.64 C 0 km/h
1456 02-10-2010 15:00:00 16 C 11.47 g/m*3 16 C 0 km/h
1457 02-10-2010 16:00:00 16.24 C 11.09 g/m*3 16.24 C 0 km/h
1458 02-10-2010 17:00:00 16.28 C 10.92 g/m*3 16.28 C 0 km/h
1459 02-10-2010 18:00:00 15.42 C 10.92 g/m*3 15.42 C 0 km/h
1460 02-10-2010 19:00:00 14.94 C 10.94 g/m*3 14.94 C 0 km/h
1461 02-10-2010 20:00:00 14.8 C 11.1 g/m*3 14.8 C 0 km/h
1462 02-10-2010 21:00:00 14.5 C 11.02 g/m*3 14.5 C 0 km/h
1463 02-10-2010 22:00:00 14.48 C 11.16 g/m*3 14.48 C 0 km/h
1464 02-10-2010 23:00:00 14.56 C 11.13 g/m*3 14.56 C 0 km/h
1465 03-10-2010 00:00:00 14.44 C 11.08 g/m*3 14.44 C 0 km/h
1466 03-10-2010 01:00:00 14.7 C 10.7 g/m*3 14.7 C 0 km/h
1467 03-10-2010 02:00:00 14.58 C 10.32 g/m*3 14.58 C 0 km/h
1468 03-10-2010 03:00:00 13.92 C 10.59 g/m*3 13.92 C 0 km/h
1469 03-10-2010 04:00:00 14.08 C 10.62 g/m*3 14.08 C 0 km/h
1470 03-10-2010 05:00:00 14.26 C 10.34 g/m*3 14.26 C 0 km/h
1471 03-10-2010 06:00:00 13.46 C 10.24 g/m*3 13.46 C 0 km/h
1472 03-10-2010 07:00:00 13.42 C 10.43 g/m*3 13.42 C 0 km/h
1473 03-10-2010 08:00:00 13.98 C 10.41 g/m*3 13.98 C 0 km/h
1474 03-10-2010 09:00:00 15.12 C 10.08 g/m*3 15.12 C 0 km/h
1475 03-10-2010 10:00:00 16.78 C 9.91 g/m*3 16.78 C 0 km/h
Sensor: Nr:Datum:Temp:Abs-Feuchte:Windchill:Wind:
Aussen-T/F 1476 03-10-2010 11:00:00 18.14 C 10.13 g/m*3 18.14 C 0 km/h
1477 03-10-2010 12:00:00 19.68 C 9.74 g/m*3 19.68 C 0 km/h
1478 03-10-2010 13:00:00 21.36 C 9.43 g/m*3 21.36 C 0 km/h
1479 03-10-2010 14:00:00 23.34 C 9.09 g/m*3 23.34 C 0 km/h
1480 03-10-2010 15:00:00 24.72 C 8.61 g/m*3 24.72 C 0 km/h
1481 03-10-2010 16:00:00 25.12 C 8.67 g/m*3 25.12 C 0 km/h
1482 03-10-2010 17:00:00 25.22 C 9.37 g/m*3 25.22 C 0 km/h
1483 03-10-2010 18:00:00 21.54 C 10.55 g/m*3 21.54 C 0 km/h
1484 03-10-2010 19:00:00 18.78 C 10.84 g/m*3 18.78 C 0 km/h
1485 03-10-2010 20:00:00 18.34 C 10.88 g/m*3 18.34 C 0 km/h
1486 03-10-2010 21:00:00 17.96 C 11.03 g/m*3 17.96 C 0 km/h
1487 03-10-2010 22:00:00 17.56 C 10.86 g/m*3 17.56 C 0 km/h
1488 03-10-2010 23:00:00 17.56 C 10.32 g/m*3 17.56 C 0 km/h
1489 04-10-2010 00:00:00 17.28 C 9.86 g/m*3 17.28 C 0 km/h
1490 04-10-2010 01:00:00 17.18 C 9.59 g/m*3 17.18 C 0 km/h
1491 04-10-2010 02:00:00 16.82 C 9.65 g/m*3 16.82 C 0 km/h
1492 04-10-2010 03:00:00 15.76 C 9.96 g/m*3 15.76 C 0 km/h
1493 04-10-2010 04:00:00 15.1 C 9.99 g/m*3 15.1 C 0 km/h
1494 04-10-2010 05:00:00 14.3 C 9.95 g/m*3 14.3 C 0 km/h
1495 04-10-2010 06:00:00 13.92 C 9.94 g/m*3 13.92 C 0 km/h
1496 04-10-2010 07:00:00 13.62 C 9.83 g/m*3 13.62 C 0 km/h
1497 04-10-2010 08:00:00 14.26 C 9.8 g/m*3 14.26 C 0 km/h
1498 04-10-2010 09:00:00 15 C 9.23 g/m*3 15 C 0 km/h
1499 04-10-2010 10:00:00 15.66 C 8.97 g/m*3 15.66 C 0 km/h
1500 04-10-2010 11:00:00 17.62 C 8.92 g/m*3 17.62 C 0 km/h
Sensor: Nr:Datum:Temp:Abs-Feuchte:Windchill:Wind:
Aussen-T/F 1501 04-10-2010 12:00:00 17.84 C 8.76 g/m*3 17.84 C 0 km/h
1502 04-10-2010 13:00:00 18.72 C 8.62 g/m*3 18.72 C 0 km/h
1503 04-10-2010 14:00:00 19.76 C 8.72 g/m*3 19.76 C 0 km/h
1504 04-10-2010 15:00:00 22.5 C 8.63 g/m*3 22.5 C 0 km/h
1505 04-10-2010 16:00:00 23.64 C 8.23 g/m*3 23.64 C 0 km/h
1506 04-10-2010 17:00:00 21.14 C 9.16 g/m*3 21.14 C 0 km/h
1507 04-10-2010 18:00:00 18.68 C 9.66 g/m*3 18.68 C 0 km/h
1508 04-10-2010 19:00:00 16.52 C 10.09 g/m*3 16.52 C 0 km/h
1509 04-10-2010 20:00:00 16.22 C 10.02 g/m*3 16.22 C 0 km/h
1510 04-10-2010 21:00:00 15.42 C 9.94 g/m*3 15.42 C 0 km/h
1511 04-10-2010 22:00:00 14.56 C 9.91 g/m*3 14.56 C 0 km/h
1512 04-10-2010 23:00:00 14.2 C 9.92 g/m*3 14.2 C 0 km/h
1513 05-10-2010 00:00:00 14.2 C 10.01 g/m*3 14.2 C 0 km/h
1514 05-10-2010 01:00:00 13.94 C 9.9 g/m*3 13.94 C 0 km/h
1515 05-10-2010 02:00:00 13.52 C 9.84 g/m*3 13.52 C 0 km/h
1516 05-10-2010 03:00:00 13.6 C 10 g/m*3 13.6 C 0 km/h
1517 05-10-2010 04:00:00 13.6 C 10.1 g/m*3 13.6 C 0 km/h
1518 05-10-2010 05:00:00 13.6 C 10.14 g/m*3 13.6 C 0 km/h
1519 05-10-2010 06:00:00 13.42 C 10.38 g/m*3 13.42 C 0 km/h
1520 05-10-2010 07:00:00 13.4 C 10.56 g/m*3 13.4 C 0 km/h
1521 05-10-2010 08:00:00 13.14 C 10.41 g/m*3 13.14 C 0 km/h
1522 05-10-2010 09:00:00 13.3 C 10.68 g/m*3 13.3 C 0 km/h
1523 05-10-2010 10:00:00 14.8 C 11.81 g/m*3 14.8 C 0 km/h
1524 05-10-2010 11:00:00 17.48 C 13.01 g/m*3 17.48 C 0 km/h
1525 05-10-2010 12:00:00 18.1 C 11.43 g/m*3 18.1 C 0 km/h
Sensor: Nr:Datum:Temp:Abs-Feuchte:Windchill:Wind:
Aussen-T/F 1526 05-10-2010 13:00:00 19.18 C 11.23 g/m*3 19.18 C 0 km/h
1527 05-10-2010 14:00:00 19.26 C 10.95 g/m*3 19.26 C 0 km/h
1528 05-10-2010 15:00:00 18.8 C 12.63 g/m*3 18.8 C 0 km/h
1529 05-10-2010 16:00:00 18.5 C 12.47 g/m*3 18.5 C 0 km/h
1530 05-10-2010 17:00:00 17.1 C 11.67 g/m*3 17.1 C 0 km/h
1531 05-10-2010 18:00:00 17.02 C 11.44 g/m*3 17.02 C 0 km/h
1532 05-10-2010 19:00:00 16.66 C 11.31 g/m*3 16.66 C 0 km/h
1533 05-10-2010 20:00:00 16.36 C 10.94 g/m*3 16.36 C 0 km/h
1534 05-10-2010 21:00:00 15.68 C 10.26 g/m*3 15.68 C 0 km/h
1535 05-10-2010 22:00:00 15.3 C 9.98 g/m*3 15.3 C 0 km/h
1536 05-10-2010 23:00:00 15.6 C 9.97 g/m*3 15.6 C 0 km/h
1537 06-10-2010 00:00:00 15.6 C 9.97 g/m*3 15.6 C 0 km/h
1538 06-10-2010 01:00:00 15.5 C 9.99 g/m*3 15.5 C 0 km/h
1539 06-10-2010 02:00:00 15.44 C 10.17 g/m*3 15.44 C 0 km/h
1540 06-10-2010 03:00:00 15.28 C 10.1 g/m*3 15.28 C 0 km/h
1541 06-10-2010 04:00:00 15.1 C 10.09 g/m*3 15.1 C 0 km/h
1542 06-10-2010 05:00:00 14.92 C 10.26 g/m*3 14.92 C 0 km/h
1543 06-10-2010 06:00:00 14.82 C 10.1 g/m*3 14.82 C 0 km/h
1544 06-10-2010 07:00:00 14.66 C 9.95 g/m*3 14.66 C 0 km/h
1545 06-10-2010 08:00:00 14.52 C 10.19 g/m*3 14.52 C 0 km/h
1546 06-10-2010 09:00:00 15.54 C 10.12 g/m*3 15.54 C 0 km/h
1547 06-10-2010 10:00:00 16.24 C 9.93 g/m*3 16.24 C 0 km/h
1548 06-10-2010 11:00:00 17.76 C 9.27 g/m*3 17.76 C 0 km/h
1549 06-10-2010 12:00:00 19.04 C 8.69 g/m*3 19.04 C 0 km/h
1550 06-10-2010 13:00:00 20.2 C 8.5 g/m*3 20.2 C 0 km/h
Sensor: Nr:Datum:Temp:Abs-Feuchte:Windchill:Wind:
Aussen-T/F 1551 06-10-2010 14:00:00 21.62 C 8.24 g/m*3 21.62 C 0 km/h
1552 06-10-2010 15:00:00 23.06 C 8.25 g/m*3 23.06 C 0 km/h
1553 06-10-2010 16:00:00 22.84 C 8.96 g/m*3 22.84 C 0 km/h
1554 06-10-2010 17:00:00 21.08 C 10.16 g/m*3 21.08 C 0 km/h
1555 06-10-2010 18:00:00 18.94 C 10.23 g/m*3 18.94 C 0 km/h
1556 06-10-2010 19:00:00 17.3 C 10.19 g/m*3 17.3 C 0 km/h
1557 06-10-2010 20:00:00 16.9 C 10.13 g/m*3 16.9 C 0 km/h
1558 06-10-2010 21:00:00 16.36 C 10.42 g/m*3 16.36 C 0 km/h
1559 06-10-2010 22:00:00 15.74 C 10.52 g/m*3 15.74 C 0 km/h
1560 06-10-2010 23:00:00 14.9 C 10.32 g/m*3 14.9 C 0 km/h
1561 07-10-2010 00:00:00 14.22 C 10.17 g/m*3 14.22 C 0 km/h
1562 07-10-2010 01:00:00 14.24 C 10.5 g/m*3 14.24 C 0 km/h
1563 07-10-2010 02:00:00 14.24 C 10.43 g/m*3 14.24 C 0 km/h
1564 07-10-2010 03:00:00 14.08 C 10.35 g/m*3 14.08 C 0 km/h
1565 07-10-2010 04:00:00 13.82 C 10.31 g/m*3 13.82 C 0 km/h
1566 07-10-2010 05:00:00 13.3 C 10.17 g/m*3 13.3 C 0 km/h
1567 07-10-2010 06:00:00 13.84 C 10.51 g/m*3 13.84 C 0 km/h
1568 07-10-2010 07:00:00 14.12 C 10.6 g/m*3 14.12 C 0 km/h
1569 07-10-2010 08:00:00 14.66 C 10.9 g/m*3 14.66 C 0 km/h
1570 07-10-2010 09:00:00 15.06 C 10.6 g/m*3 15.06 C 0 km/h
1571 07-10-2010 10:00:00 16.18 C 10.33 g/m*3 16.18 C 0 km/h
1572 07-10-2010 11:00:00 17.26 C 10.32 g/m*3 17.26 C 0 km/h
1573 07-10-2010 12:00:00 18.4 C 9.97 g/m*3 18.4 C 0 km/h
1574 07-10-2010 13:00:00 19.26 C 9.83 g/m*3 19.26 C 0 km/h
1575 07-10-2010 14:00:00 19.88 C 9.78 g/m*3 19.88 C 0 km/h
Sensor: Nr:Datum:Temp:Abs-Feuchte:Windchill:Wind:
Aussen-T/F 1576 07-10-2010 15:00:00 20.5 C 9.5 g/m*3 20.5 C 0 km/h
1577 07-10-2010 16:00:00 19.94 C 9.47 g/m*3 19.94 C 0 km/h
1578 07-10-2010 17:00:00 19.16 C 9.57 g/m*3 19.16 C 0 km/h
1579 07-10-2010 18:00:00 17.88 C 10.22 g/m*3 17.88 C 0 km/h
1580 07-10-2010 19:00:00 16.9 C 10.38 g/m*3 16.9 C 0 km/h
1581 07-10-2010 20:00:00 16.3 C 10.35 g/m*3 16.3 C 0 km/h
1582 07-10-2010 21:00:00 16.22 C 10.13 g/m*3 16.22 C 0 km/h
1583 07-10-2010 22:00:00 16 C 9.86 g/m*3 16 C 0 km/h
1584 07-10-2010 23:00:00 16.02 C 9.74 g/m*3 16.02 C 0 km/h
1585 08-10-2010 00:00:00 15.82 C 9.89 g/m*3 15.82 C 0 km/h
1586 08-10-2010 01:00:00 15.62 C 9.67 g/m*3 15.62 C 0 km/h
1587 08-10-2010 02:00:00 15.44 C 9.35 g/m*3 15.44 C 0 km/h
1588 08-10-2010 03:00:00 14.92 C 8.75 g/m*3 14.92 C 0 km/h
1589 08-10-2010 04:00:00 14.52 C 8.57 g/m*3 14.52 C 0 km/h
1590 08-10-2010 05:00:00 14.24 C 8.81 g/m*3 14.24 C 0 km/h
1591 08-10-2010 06:00:00 13.98 C 8.96 g/m*3 13.98 C 0 km/h
1592 08-10-2010 07:00:00 14.02 C 9.13 g/m*3 14.02 C 0 km/h
1593 08-10-2010 08:00:00 14.2 C 9.23 g/m*3 14.2 C 0 km/h
1594 08-10-2010 09:00:00 14.6 C 9.41 g/m*3 14.6 C 0 km/h
1595 08-10-2010 10:00:00 15.28 C 9.47 g/m*3 15.28 C 0 km/h
1596 08-10-2010 11:00:00 15.86 C 9.29 g/m*3 15.86 C 0 km/h
1597 08-10-2010 12:00:00 16.54 C 9.09 g/m*3 16.54 C 0 km/h
1598 08-10-2010 13:00:00 16.94 C 8.77 g/m*3 16.94 C 0 km/h
1599 08-10-2010 14:00:00 18.76 C 8.77 g/m*3 18.76 C 0 km/h
1600 08-10-2010 15:00:00 20.32 C 8.52 g/m*3 20.32 C 0 km/h
Sensor: Nr:Datum:Temp:Abs-Feuchte:Windchill:Wind:
Aussen-T/F 1601 08-10-2010 16:00:00 22.2 C 8.95 g/m*3 22.2 C 0 km/h
1602 08-10-2010 17:00:00 21.78 C 9.24 g/m*3 21.78 C 0 km/h
1603 08-10-2010 18:00:00 19.06 C 9.68 g/m*3 19.06 C 0 km/h
1604 08-10-2010 19:00:00 15.88 C 9.98 g/m*3 15.88 C 0 km/h
1605 08-10-2010 20:00:00 14.78 C 9.79 g/m*3 14.78 C 0 km/h
1606 08-10-2010 21:00:00 14.08 C 9.65 g/m*3 14.08 C 0 km/h
1607 08-10-2010 22:00:00 13.28 C 9.51 g/m*3 13.28 C 0 km/h
1608 08-10-2010 23:00:00 12.58 C 9.3 g/m*3 12.58 C 0 km/h
1609 09-10-2010 00:00:00 11.9 C 9.11 g/m*3 11.9 C 0 km/h
1610 09-10-2010 01:00:00 11.34 C 8.96 g/m*3 11.34 C 0 km/h
1611 09-10-2010 02:00:00 10.74 C 8.68 g/m*3 10.74 C 0 km/h
1612 09-10-2010 03:00:00 10.24 C 8.43 g/m*3 10.24 C 0 km/h
1613 09-10-2010 04:00:00 9.78 C 8.32 g/m*3 9.78 C 0 km/h
1614 09-10-2010 05:00:00 9.52 C 8.29 g/m*3 9.52 C 0 km/h
1615 09-10-2010 06:00:00 9.42 C 8.31 g/m*3 9.42 C 0 km/h
1616 09-10-2010 07:00:00 9.24 C 8.24 g/m*3 9.24 C 0 km/h
1617 09-10-2010 08:00:00 9.2 C 8.22 g/m*3 9.2 C 0 km/h
1618 09-10-2010 09:00:00 9.28 C 8.24 g/m*3 9.28 C 0 km/h
1619 09-10-2010 10:00:00 10.44 C 8.87 g/m*3 10.44 C 0 km/h
1620 09-10-2010 11:00:00 12.52 C 9.53 g/m*3 12.52 C 0 km/h
1621 09-10-2010 12:00:00 14.68 C 8.2 g/m*3 14.68 C 0 km/h
1622 09-10-2010 13:00:00 17.1 C 7.89 g/m*3 17.1 C 0 km/h
1623 09-10-2010 14:00:00 19.96 C 7.03 g/m*3 19.96 C 0 km/h
1624 09-10-2010 15:00:00 21.86 C 6.28 g/m*3 21.86 C 0 km/h
1625 09-10-2010 16:00:00 22.16 C 6.23 g/m*3 22.16 C 0 km/h
Sensor: Nr:Datum:Temp:Abs-Feuchte:Windchill:Wind:
Aussen-T/F 1626 09-10-2010 17:00:00 20.8 C 6.19 g/m*3 20.8 C 0 km/h
1627 09-10-2010 18:00:00 17.02 C 6.26 g/m*3 17.02 C 0 km/h
1628 09-10-2010 19:00:00 13.8 C 6.12 g/m*3 13.8 C 0 km/h
1629 09-10-2010 20:00:00 12.84 C 6.58 g/m*3 12.84 C 0 km/h
1630 09-10-2010 21:00:00 11.48 C 6.99 g/m*3 11.48 C 0 km/h
1631 09-10-2010 22:00:00 10.6 C 7.03 g/m*3 10.6 C 0 km/h
1632 09-10-2010 23:00:00 9.62 C 6.92 g/m*3 9.62 C 0 km/h
1633 10-10-2010 00:00:00 8.94 C 6.99 g/m*3 8.94 C 0 km/h
1634 10-10-2010 01:00:00 8.38 C 6.93 g/m*3 8.38 C 0 km/h
1635 10-10-2010 02:00:00 7.76 C 6.82 g/m*3 7.76 C 0 km/h
1636 10-10-2010 03:00:00 7.14 C 6.66 g/m*3 7.14 C 0 km/h
1637 10-10-2010 04:00:00 6.76 C 6.61 g/m*3 6.76 C 0 km/h
1638 10-10-2010 05:00:00 6.28 C 6.45 g/m*3 6.28 C 0 km/h
1639 10-10-2010 06:00:00 5.86 C 6.36 g/m*3 5.86 C 0 km/h
1640 10-10-2010 07:00:00 5.5 C 6.31 g/m*3 5.5 C 0 km/h
1641 10-10-2010 08:00:00 6.36 C 6.69 g/m*3 6.36 C 0 km/h
1642 10-10-2010 09:00:00 7.26 C 6.79 g/m*3 7.26 C 0 km/h
1643 10-10-2010 10:00:00 8.92 C 6.6 g/m*3 8.92 C 0 km/h
1644 10-10-2010 11:00:00 10.92 C 6.57 g/m*3 10.92 C 0 km/h
1645 10-10-2010 12:00:00 12.8 C 6.47 g/m*3 12.8 C 0 km/h
1646 10-10-2010 13:00:00 15.86 C 5.67 g/m*3 15.86 C 0 km/h
1647 10-10-2010 14:00:00 18.62 C 5.45 g/m*3 18.62 C 0 km/h
1648 10-10-2010 15:00:00 20.4 C 5.91 g/m*3 20.4 C 0 km/h
1649 10-10-2010 16:00:00 21.28 C 5.7 g/m*3 21.28 C 0 km/h
1650 10-10-2010 17:00:00 20.64 C 5.6 g/m*3 20.64 C 0 km/h
Sensor: Nr:Datum:Temp:Abs-Feuchte:Windchill:Wind:
Aussen-T/F 1651 10-10-2010 18:00:00 17.2 C 5.45 g/m*3 17.2 C 0 km/h
1652 10-10-2010 19:00:00 14.18 C 5.49 g/m*3 14.18 C 0 km/h
1653 10-10-2010 20:00:00 13.02 C 4.91 g/m*3 13.02 C 0 km/h
1654 10-10-2010 21:00:00 12.44 C 4.01 g/m*3 12.44 C 0 km/h
1655 10-10-2010 22:00:00 11.46 C 4.12 g/m*3 11.46 C 0 km/h
1656 10-10-2010 23:00:00 10.72 C 4.52 g/m*3 10.72 C 0 km/h
1657 11-10-2010 00:00:00 9.98 C 4.88 g/m*3 9.98 C 0 km/h
1658 11-10-2010 01:00:00 9.44 C 4.91 g/m*3 9.44 C 0 km/h
1659 11-10-2010 02:00:00 9.08 C 4.87 g/m*3 9.08 C 0 km/h
1660 11-10-2010 03:00:00 8.24 C 4.99 g/m*3 8.24 C 0 km/h
1661 11-10-2010 04:00:00 7.58 C 5.1 g/m*3 7.58 C 0 km/h
1662 11-10-2010 05:00:00 6.64 C 5.24 g/m*3 6.64 C 0 km/h
1663 11-10-2010 06:00:00 5.72 C 5.32 g/m*3 5.72 C 0 km/h
1664 11-10-2010 07:00:00 5.22 C 5.36 g/m*3 5.22 C 0 km/h
1665 11-10-2010 08:00:00 4.96 C 5.39 g/m*3 4.96 C 0 km/h
1666 11-10-2010 09:00:00 5.6 C 5.7 g/m*3 5.6 C 0 km/h
1667 11-10-2010 10:00:00 7.12 C 6.11 g/m*3 7.12 C 0 km/h
1668 11-10-2010 11:00:00 9.46 C 6.36 g/m*3 9.46 C 0 km/h
1669 11-10-2010 12:00:00 11.62 C 6.45 g/m*3 11.62 C 0 km/h
1670 11-10-2010 13:00:00 14.92 C 5.9 g/m*3 14.92 C 0 km/h
1671 11-10-2010 14:00:00 17.48 C 5.45 g/m*3 17.48 C 0 km/h
1672 11-10-2010 15:00:00 19.78 C 5.05 g/m*3 19.78 C 0 km/h
1673 11-10-2010 16:00:00 20.96 C 4.61 g/m*3 20.96 C 0 km/h
1674 11-10-2010 17:00:00 19.56 C 3.6 g/m*3 19.56 C 0 km/h
1675 11-10-2010 18:00:00 16.12 C 3.98 g/m*3 16.12 C 0 km/h
Sensor: Nr:Datum:Temp:Abs-Feuchte:Windchill:Wind:
Aussen-T/F 1676 11-10-2010 19:00:00 13.18 C 4.33 g/m*3 13.18 C 0 km/h
1677 11-10-2010 20:00:00 11.32 C 4.82 g/m*3 11.32 C 0 km/h
1678 11-10-2010 21:00:00 10.025 C 4.96 g/m*3 10.03 C 0 km/h
1679 11-10-2010 22:00:00 9.2 C 4.84 g/m*3 9.2 C 0 km/h
1680 11-10-2010 23:00:00 8.24 C 4.87 g/m*3 8.24 C 0 km/h
1681 12-10-2010 00:00:00 7.16 C 5.01 g/m*3 7.16 C 0 km/h
1682 12-10-2010 01:00:00 6.4 C 5.13 g/m*3 6.4 C 0 km/h
1683 12-10-2010 02:00:00 5.74 C 5.24 g/m*3 5.74 C 0 km/h
1684 12-10-2010 03:00:00 5.04 C 5.31 g/m*3 5.04 C 0 km/h
1685 12-10-2010 04:00:00 4.42 C 5.34 g/m*3 4.42 C 0 km/h
1686 12-10-2010 05:00:00 3.8 C 5.31 g/m*3 3.8 C 0 km/h
1687 12-10-2010 06:00:00 3.46 C 5.26 g/m*3 3.46 C 0 km/h
1688 12-10-2010 07:00:00 2.94 C 5.15 g/m*3 2.94 C 0 km/h
1689 12-10-2010 08:00:00 3.56 C 5.52 g/m*3 3.56 C 0 km/h
1690 12-10-2010 09:00:00 4.9 C 5.93 g/m*3 4.9 C 0 km/h
1691 12-10-2010 10:00:00 5.82 C 6.07 g/m*3 5.82 C 0 km/h
1692 12-10-2010 11:00:00 7.16 C 6.36 g/m*3 7.16 C 0 km/h
1693 12-10-2010 12:00:00 9.56 C 6.18 g/m*3 9.56 C 0 km/h
1694 12-10-2010 13:00:00 12.58 C 5.72 g/m*3 12.58 C 0 km/h
1695 12-10-2010 14:00:00 15.26 C 5.65 g/m*3 15.26 C 0 km/h
1696 12-10-2010 15:00:00 16.94 C 5.42 g/m*3 16.94 C 0 km/h
1697 12-10-2010 16:00:00 17.66 C 5.42 g/m*3 17.66 C 0 km/h
1698 12-10-2010 17:00:00 17.22 C 4.57 g/m*3 17.22 C 0 km/h
1699 12-10-2010 18:00:00 14.5 C 5.65 g/m*3 14.5 C 0 km/h
1700 12-10-2010 19:00:00 11.42 C 6.45 g/m*3 11.42 C 0 km/h
Sensor: Nr:Datum:Temp:Abs-Feuchte:Windchill:Wind:
Aussen-T/F 1701 12-10-2010 20:00:00 9.84 C 6.47 g/m*3 9.84 C 0 km/h
1702 12-10-2010 21:00:00 8.36 C 6.26 g/m*3 8.36 C 0 km/h
1703 12-10-2010 22:00:00 7.74 C 6.15 g/m*3 7.74 C 0 km/h
1704 12-10-2010 23:00:00 7.78 C 6 g/m*3 7.78 C 0 km/h
1705 13-10-2010 00:00:00 7.6 C 5.86 g/m*3 7.6 C 0 km/h
1706 13-10-2010 01:00:00 7.02 C 5.82 g/m*3 7.02 C 0 km/h
1707 13-10-2010 02:00:00 6.8 C 5.83 g/m*3 6.8 C 0 km/h
1708 13-10-2010 03:00:00 6.44 C 5.69 g/m*3 6.44 C 0 km/h
1709 13-10-2010 04:00:00 6.2 C 5.59 g/m*3 6.2 C 0 km/h
1710 13-10-2010 05:00:00 6.1 C 5.6 g/m*3 6.1 C 0 km/h
1711 13-10-2010 06:00:00 5.84 C 5.6 g/m*3 5.84 C 0 km/h
1712 13-10-2010 07:00:00 5.42 C 5.53 g/m*3 5.42 C 0 km/h
1713 13-10-2010 08:00:00 5.62 C 5.49 g/m*3 5.62 C 0 km/h
1714 13-10-2010 09:00:00 5.86 C 5.45 g/m*3 5.86 C 0 km/h
1715 13-10-2010 10:00:00 6.66 C 5.3 g/m*3 6.66 C 0 km/h
1716 13-10-2010 11:00:00 7.04 C 5.08 g/m*3 7.04 C 0 km/h
1717 13-10-2010 12:00:00 8.14 C 5.06 g/m*3 8.14 C 0 km/h
1718 13-10-2010 13:00:00 8.8 C 4.89 g/m*3 8.8 C 0 km/h
1719 13-10-2010 14:00:00 9.8 C 4.95 g/m*3 9.8 C 0 km/h
1720 13-10-2010 15:00:00 11.78 C 4.94 g/m*3 11.78 C 0 km/h
1721 13-10-2010 16:00:00 12.06 C 5.01 g/m*3 12.06 C 0 km/h
1722 13-10-2010 17:00:00 12.34 C 5.23 g/m*3 12.34 C 0 km/h
1723 13-10-2010 18:00:00 9.94 C 5.5 g/m*3 9.94 C 0 km/h
1724 13-10-2010 19:00:00 7.48 C 5.76 g/m*3 7.48 C 0 km/h
1725 13-10-2010 20:00:00 6.96 C 5.81 g/m*3 6.96 C 0 km/h
Sensor: Nr:Datum:Temp:Abs-Feuchte:Windchill:Wind:
Aussen-T/F 1726 13-10-2010 21:00:00 5.82 C 5.72 g/m*3 5.82 C 0 km/h
1727 13-10-2010 22:00:00 5.16 C 5.73 g/m*3 5.16 C 0 km/h
1728 13-10-2010 23:00:00 4.52 C 5.61 g/m*3 4.52 C 0 km/h
1729 14-10-2010 00:00:00 3.88 C 5.51 g/m*3 3.88 C 0 km/h
1730 14-10-2010 01:00:00 3.38 C 5.47 g/m*3 3.38 C 0 km/h
1731 14-10-2010 02:00:00 3.62 C 5.65 g/m*3 3.62 C 0 km/h
1732 14-10-2010 03:00:00 3.52 C 5.57 g/m*3 3.52 C 0 km/h
1733 14-10-2010 04:00:00 3.54 C 5.55 g/m*3 3.54 C 0 km/h
1734 14-10-2010 05:00:00 3.62 C 5.63 g/m*3 3.62 C 0 km/h
1735 14-10-2010 06:00:00 3.92 C 5.7 g/m*3 3.92 C 0 km/h
1736 14-10-2010 07:00:00 4.12 C 5.76 g/m*3 4.12 C 0 km/h
1737 14-10-2010 08:00:00 4.44 C 5.84 g/m*3 4.44 C 0 km/h
1738 14-10-2010 09:00:00 4.56 C 5.86 g/m*3 4.56 C 0 km/h
1739 14-10-2010 10:00:00 5.16 C 5.88 g/m*3 5.16 C 0 km/h
1740 14-10-2010 11:00:00 6.2 C 5.75 g/m*3 6.2 C 0 km/h
1741 14-10-2010 12:00:00 7.86 C 5.59 g/m*3 7.86 C 0 km/h
1742 14-10-2010 13:00:00 9.36 C 5.58 g/m*3 9.36 C 0 km/h
1743 14-10-2010 14:00:00 11.86 C 5.85 g/m*3 11.86 C 0 km/h
1744 14-10-2010 15:00:00 13.94 C 5.72 g/m*3 13.94 C 0 km/h
1745 14-10-2010 16:00:00 14.4 C 5.83 g/m*3 14.4 C 0 km/h
1746 14-10-2010 17:00:00 13.24 C 5.5 g/m*3 13.24 C 0 km/h
1747 14-10-2010 18:00:00 11.04 C 5.96 g/m*3 11.04 C 0 km/h
1748 14-10-2010 19:00:00 10.26 C 6.25 g/m*3 10.26 C 0 km/h
1749 14-10-2010 20:00:00 10.2 C 6.24 g/m*3 10.2 C 0 km/h
1750 14-10-2010 21:00:00 9.8 C 6.33 g/m*3 9.8 C 0 km/h
Sensor: Nr:Datum:Temp:Abs-Feuchte:Windchill:Wind:
Aussen-T/F 1751 14-10-2010 22:00:00 9.74 C 6.51 g/m*3 9.74 C 0 km/h
1752 14-10-2010 23:00:00 9.68 C 6.68 g/m*3 9.68 C 0 km/h
1753 15-10-2010 00:00:00 9.5 C 6.75 g/m*3 9.5 C 0 km/h
1754 15-10-2010 01:00:00 9.42 C 6.88 g/m*3 9.42 C 0 km/h
1755 15-10-2010 02:00:00 9.24 C 7.13 g/m*3 9.24 C 0 km/h
1756 15-10-2010 03:00:00 9.28 C 7.25 g/m*3 9.28 C 0 km/h
1757 15-10-2010 04:00:00 9.28 C 7.36 g/m*3 9.28 C 0 km/h
1758 15-10-2010 05:00:00 9.2 C 7.41 g/m*3 9.2 C 0 km/h
1759 15-10-2010 06:00:00 9.3 C 7.66 g/m*3 9.3 C 0 km/h
1760 15-10-2010 07:00:00 9.28 C 7.74 g/m*3 9.28 C 0 km/h
1761 15-10-2010 08:00:00 9.24 C 7.86 g/m*3 9.24 C 0 km/h
1762 15-10-2010 09:00:00 9.82 C 8.19 g/m*3 9.82 C 0 km/h
1763 15-10-2010 10:00:00 10.72 C 8.06 g/m*3 10.72 C 0 km/h
1764 15-10-2010 11:00:00 11.52 C 7.76 g/m*3 11.52 C 0 km/h
1765 15-10-2010 12:00:00 12.42 C 7.33 g/m*3 12.42 C 0 km/h
1766 15-10-2010 13:00:00 13.38 C 6.9 g/m*3 13.38 C 0 km/h
1767 15-10-2010 14:00:00 12.78 C 6.76 g/m*3 12.78 C 0 km/h
1768 15-10-2010 15:00:00 12.86 C 6.68 g/m*3 12.86 C 0 km/h
1769 15-10-2010 16:00:00 12.24 C 6.79 g/m*3 12.24 C 0 km/h
1770 15-10-2010 17:00:00 11.56 C 7.07 g/m*3 11.56 C 0 km/h
1771 15-10-2010 18:00:00 10.88 C 7.03 g/m*3 10.88 C 0 km/h
1772 15-10-2010 19:00:00 10.52 C 7.01 g/m*3 10.52 C 0 km/h
1773 15-10-2010 20:00:00 10.36 C 7.02 g/m*3 10.36 C 0 km/h
1774 15-10-2010 21:00:00 10.1 C 7.19 g/m*3 10.1 C 0 km/h
1775 15-10-2010 22:00:00 9.3 C 7.67 g/m*3 9.3 C 0 km/h
Sensor: Nr:Datum:Temp:Abs-Feuchte:Windchill:Wind:
Aussen-T/F 1776 15-10-2010 23:00:00 9.2 C 8.04 g/m*3 9.2 C 0 km/h
1777 16-10-2010 00:00:00 9.02 C 8.16 g/m*3 9.02 C 0 km/h
1778 16-10-2010 01:00:00 8.82 C 8.19 g/m*3 8.82 C 0 km/h
1779 16-10-2010 02:00:00 8.78 C 8.22 g/m*3 8.78 C 0 km/h
1780 16-10-2010 03:00:00 8.68 C 8.21 g/m*3 8.68 C 0 km/h
1781 16-10-2010 04:00:00 8.54 C 8.13 g/m*3 8.54 C 0 km/h
1782 16-10-2010 05:00:00 8.36 C 8.04 g/m*3 8.36 C 0 km/h
1783 16-10-2010 06:00:00 8.3 C 8.01 g/m*3 8.3 C 0 km/h
1784 16-10-2010 07:00:00 8.12 C 7.88 g/m*3 8.12 C 0 km/h
1785 16-10-2010 08:00:00 8.1 C 7.77 g/m*3 8.1 C 0 km/h
1786 16-10-2010 09:00:00 8.24 C 7.81 g/m*3 8.24 C 0 km/h
1787 16-10-2010 10:00:00 8.64 C 8.03 g/m*3 8.64 C 0 km/h
1788 16-10-2010 11:00:00 8.96 C 8.11 g/m*3 8.96 C 0 km/h
1789 16-10-2010 12:00:00 9.38 C 8.11 g/m*3 9.38 C 0 km/h
1790 16-10-2010 13:00:00 9.72 C 8.16 g/m*3 9.72 C 0 km/h
1791 16-10-2010 14:00:00 9.96 C 7.89 g/m*3 9.96 C 0 km/h
1792 16-10-2010 15:00:00 10.08 C 7.82 g/m*3 10.08 C 0 km/h
1793 16-10-2010 16:00:00 9.9 C 7.84 g/m*3 9.9 C 0 km/h
1794 16-10-2010 17:00:00 9.36 C 7.9 g/m*3 9.36 C 0 km/h
1795 16-10-2010 18:00:00 8.38 C 6.98 g/m*3 8.38 C 0 km/h
1796 16-10-2010 19:00:00 6.96 C 6.55 g/m*3 6.96 C 0 km/h
1797 16-10-2010 20:00:00 6.56 C 6.31 g/m*3 6.56 C 0 km/h
1798 16-10-2010 21:00:00 6.28 C 6.21 g/m*3 6.28 C 0 km/h
1799 16-10-2010 22:00:00 5.9 C 6.37 g/m*3 5.9 C 0 km/h
1800 16-10-2010 23:00:00 5.96 C 6.56 g/m*3 5.96 C 0 km/h
Sensor: Nr:Datum:Temp:Abs-Feuchte:Windchill:Wind:
Aussen-T/F 1801 17-10-2010 00:00:00 6.14 C 6.7 g/m*3 6.14 C 0 km/h
1802 17-10-2010 01:00:00 6.24 C 6.71 g/m*3 6.24 C 0 km/h
1803 17-10-2010 02:00:00 6.22 C 6.61 g/m*3 6.22 C 0 km/h
1804 17-10-2010 03:00:00 6.24 C 6.49 g/m*3 6.24 C 0 km/h
1805 17-10-2010 04:00:00 6.22 C 6.33 g/m*3 6.22 C 0 km/h
1806 17-10-2010 05:00:00 6.3 C 6.43 g/m*3 6.3 C 0 km/h
1807 17-10-2010 06:00:00 6.34 C 6.46 g/m*3 6.34 C 0 km/h
1808 17-10-2010 07:00:00 6.34 C 6.29 g/m*3 6.34 C 0 km/h
1809 17-10-2010 08:00:00 6.58 C 6.17 g/m*3 6.58 C 0 km/h
1810 17-10-2010 09:00:00 6.88 C 6.15 g/m*3 6.88 C 0 km/h
1811 17-10-2010 10:00:00 7.32 C 6.14 g/m*3 7.32 C 0 km/h
1812 17-10-2010 11:00:00 7.7 C 5.98 g/m*3 7.7 C 0 km/h
1813 17-10-2010 12:00:00 7.88 C 5.97 g/m*3 7.88 C 0 km/h
1814 17-10-2010 13:00:00 8.1 C 5.96 g/m*3 8.1 C 0 km/h
1815 17-10-2010 14:00:00 8.36 C 6.14 g/m*3 8.36 C 0 km/h
1816 17-10-2010 15:00:00 8.52 C 6.12 g/m*3 8.52 C 0 km/h
1817 17-10-2010 16:00:00 8.46 C 6.28 g/m*3 8.46 C 0 km/h
1818 17-10-2010 17:00:00 8.3 C 6.32 g/m*3 8.3 C 0 km/h
1819 17-10-2010 18:00:00 7.9 C 6.32 g/m*3 7.9 C 0 km/h
1820 17-10-2010 19:00:00 7.68 C 6.38 g/m*3 7.68 C 0 km/h
1821 17-10-2010 20:00:00 7.68 C 6.43 g/m*3 7.68 C 0 km/h
1822 17-10-2010 21:00:00 7.62 C 6.44 g/m*3 7.62 C 0 km/h
1823 17-10-2010 22:00:00 7.38 C 6.43 g/m*3 7.38 C 0 km/h
1824 17-10-2010 23:00:00 7.04 C 6.31 g/m*3 7.04 C 0 km/h
1825 18-10-2010 00:00:00 6.48 C 6.19 g/m*3 6.48 C 0 km/h
Sensor: Nr:Datum:Temp:Abs-Feuchte:Windchill:Wind:
Aussen-T/F 1826 18-10-2010 01:00:00 5.18 C 5.97 g/m*3 5.18 C 0 km/h
1827 18-10-2010 02:00:00 5.8 C 6.35 g/m*3 5.8 C 0 km/h
1828 18-10-2010 03:00:00 6 C 6.3 g/m*3 6 C 0 km/h
1829 18-10-2010 04:00:00 6.02 C 6.25 g/m*3 6.02 C 0 km/h
1830 18-10-2010 05:00:00 5.84 C 6.1 g/m*3 5.84 C 0 km/h
1831 18-10-2010 06:00:00 5.8 C 6.16 g/m*3 5.8 C 0 km/h
1832 18-10-2010 07:00:00 5.76 C 6.14 g/m*3 5.76 C 0 km/h
1833 18-10-2010 08:00:00 5.78 C 6.2 g/m*3 5.78 C 0 km/h
1834 18-10-2010 09:00:00 6.66 C 6.44 g/m*3 6.66 C 0 km/h
1835 18-10-2010 10:00:00 7.56 C 5.99 g/m*3 7.56 C 0 km/h
1836 18-10-2010 11:00:00 7.76 C 5.06 g/m*3 7.76 C 0 km/h
1837 18-10-2010 12:00:00 8.26 C 4.98 g/m*3 8.26 C 0 km/h
1838 18-10-2010 13:00:00 8.82 C 4.85 g/m*3 8.82 C 0 km/h
1839 18-10-2010 14:00:00 8.88 C 4.86 g/m*3 8.88 C 0 km/h
1840 18-10-2010 15:00:00 8.74 C 4.86 g/m*3 8.74 C 0 km/h
1841 18-10-2010 16:00:00 8.74 C 4.91 g/m*3 8.74 C 0 km/h
1842 18-10-2010 17:00:00 8.52 C 4.86 g/m*3 8.52 C 0 km/h
1843 18-10-2010 18:00:00 7.76 C 4.97 g/m*3 7.76 C 0 km/h
1844 18-10-2010 19:00:00 6.32 C 4.89 g/m*3 6.32 C 0 km/h
1845 18-10-2010 20:00:00 5.6 C 5.05 g/m*3 5.6 C 0 km/h
1846 18-10-2010 21:00:00 5.18 C 5.03 g/m*3 5.18 C 0 km/h
1847 18-10-2010 22:00:00 4.92 C 5.06 g/m*3 4.92 C 0 km/h
1848 18-10-2010 23:00:00 4.86 C 5.17 g/m*3 4.86 C 0 km/h
1849 19-10-2010 00:00:00 5.14 C 5.24 g/m*3 5.14 C 0 km/h
1850 19-10-2010 01:00:00 5.42 C 5.27 g/m*3 5.42 C 0 km/h
Sensor: Nr:Datum:Temp:Abs-Feuchte:Windchill:Wind:
Aussen-T/F 1851 19-10-2010 02:00:00 5.5 C 5.32 g/m*3 5.5 C 0 km/h
1852 19-10-2010 03:00:00 4.96 C 5.75 g/m*3 4.96 C 0 km/h
1853 19-10-2010 04:00:00 5.04 C 6.04 g/m*3 5.04 C 0 km/h
1854 19-10-2010 05:00:00 5.42 C 6.06 g/m*3 5.42 C 0 km/h
1855 19-10-2010 06:00:00 5.6 C 6.31 g/m*3 5.6 C 0 km/h
1856 19-10-2010 07:00:00 5.98 C 6.38 g/m*3 5.98 C 0 km/h
1857 19-10-2010 08:00:00 5.98 C 6.42 g/m*3 5.98 C 0 km/h
1858 19-10-2010 09:00:00 6.54 C 6.62 g/m*3 6.54 C 0 km/h
1859 19-10-2010 10:00:00 7.34 C 6.65 g/m*3 7.34 C 0 km/h
1860 19-10-2010 11:00:00 7.5 C 6.93 g/m*3 7.5 C 0 km/h
1861 19-10-2010 12:00:00 7.98 C 7.08 g/m*3 7.98 C 0 km/h
1862 19-10-2010 13:00:00 9.08 C 7.48 g/m*3 9.08 C 0 km/h
1863 19-10-2010 14:00:00 9.8 C 7.42 g/m*3 9.8 C 0 km/h
1864 19-10-2010 15:00:00 10.34 C 7.37 g/m*3 10.34 C 0 km/h
1865 19-10-2010 16:00:00 12.46 C 7 g/m*3 12.46 C 0 km/h
1866 19-10-2010 17:00:00 10.3 C 7.22 g/m*3 10.3 C 0 km/h
1867 19-10-2010 18:00:00 9.04 C 6.96 g/m*3 9.04 C 0 km/h
1868 19-10-2010 19:00:00 7.98 C 6.85 g/m*3 7.98 C 0 km/h
1869 19-10-2010 20:00:00 7.36 C 6.46 g/m*3 7.36 C 0 km/h
1870 19-10-2010 21:00:00 6.94 C 6.22 g/m*3 6.94 C 0 km/h
1871 19-10-2010 22:00:00 6.52 C 6.16 g/m*3 6.52 C 0 km/h
1872 19-10-2010 23:00:00 6.54 C 6.2 g/m*3 6.54 C 0 km/h
1873 20-10-2010 00:00:00 6.34 C 6.16 g/m*3 6.34 C 0 km/h
1874 20-10-2010 01:00:00 6.38 C 6.16 g/m*3 6.38 C 0 km/h
1875 20-10-2010 02:00:00 5.94 C 6.39 g/m*3 5.94 C 0 km/h
Sensor: Nr:Datum:Temp:Abs-Feuchte:Windchill:Wind:
Aussen-T/F 1876 20-10-2010 03:00:00 5.76 C 6.53 g/m*3 5.76 C 0 km/h
1877 20-10-2010 04:00:00 5.84 C 6.51 g/m*3 5.84 C 0 km/h
1878 20-10-2010 05:00:00 5.62 C 6.56 g/m*3 5.62 C 0 km/h
1879 20-10-2010 06:00:00 5.52 C 6.61 g/m*3 5.52 C 0 km/h
1880 20-10-2010 07:00:00 5.5 C 6.64 g/m*3 5.5 C 0 km/h
1881 20-10-2010 08:00:00 5.6 C 6.66 g/m*3 5.6 C 0 km/h
1882 20-10-2010 09:00:00 6 C 6.84 g/m*3 6 C 0 km/h
1883 20-10-2010 10:00:00 6.92 C 6.95 g/m*3 6.92 C 0 km/h
1884 20-10-2010 11:00:00 6.84 C 6.44 g/m*3 6.84 C 0 km/h
1885 20-10-2010 12:00:00 6.92 C 6.38 g/m*3 6.92 C 0 km/h
1886 20-10-2010 13:00:00 7.92 C 6.2 g/m*3 7.92 C 0 km/h
1887 20-10-2010 14:00:00 9.48 C 5.67 g/m*3 9.48 C 0 km/h
1888 20-10-2010 15:00:00 7.68 C 5.56 g/m*3 7.68 C 0 km/h
1889 20-10-2010 16:00:00 7.36 C 5.06 g/m*3 7.36 C 0 km/h
1890 20-10-2010 17:00:00 7.02 C 4.92 g/m*3 7.02 C 0 km/h
1891 20-10-2010 18:00:00 6.32 C 5.04 g/m*3 6.32 C 0 km/h
1892 20-10-2010 19:00:00 4.64 C 5.24 g/m*3 4.64 C 0 km/h
1893 20-10-2010 20:00:00 4.54 C 5.25 g/m*3 4.54 C 0 km/h
1894 20-10-2010 21:00:00 4.46 C 5.11 g/m*3 4.46 C 0 km/h
1895 20-10-2010 22:00:00 4.48 C 5.07 g/m*3 4.48 C 0 km/h
1896 20-10-2010 23:00:00 4.32 C 5.05 g/m*3 4.32 C 0 km/h
1897 21-10-2010 00:00:00 4.6 C 5.11 g/m*3 4.6 C 0 km/h
1898 21-10-2010 01:00:00 4.44 C 5.04 g/m*3 4.44 C 0 km/h
1899 21-10-2010 02:00:00 3.74 C 4.97 g/m*3 3.74 C 0 km/h
1900 21-10-2010 03:00:00 3.32 C 4.98 g/m*3 3.32 C 0 km/h
Sensor: Nr:Datum:Temp:Abs-Feuchte:Windchill:Wind:
Aussen-T/F 1901 21-10-2010 04:00:00 2.64 C 4.9 g/m*3 2.64 C 0 km/h
1902 21-10-2010 05:00:00 1.92 C 4.82 g/m*3 1.92 C 0 km/h
1903 21-10-2010 06:00:00 1.7 C 4.9 g/m*3 1.7 C 0 km/h
1904 21-10-2010 07:00:00 1.66 C 5 g/m*3 1.66 C 0 km/h
1905 21-10-2010 08:00:00 2.1 C 5.14 g/m*3 2.1 C 0 km/h
1906 21-10-2010 09:00:00 3 C 5.24 g/m*3 3 C 0 km/h
1907 21-10-2010 10:00:00 4.16 C 5.06 g/m*3 4.16 C 0 km/h
1908 21-10-2010 11:00:00 5.64 C 4.99 g/m*3 5.64 C 0 km/h
1909 21-10-2010 12:00:00 6.98 C 4.63 g/m*3 6.98 C 0 km/h
1910 21-10-2010 13:00:00 8.7 C 4.13 g/m*3 8.7 C 0 km/h
1911 21-10-2010 14:00:00 10.38 C 3.87 g/m*3 10.38 C 0 km/h
1912 21-10-2010 15:00:00 10.66 C 3.63 g/m*3 10.66 C 0 km/h
1913 21-10-2010 16:00:00 10.4 C 3.64 g/m*3 10.4 C 0 km/h
1914 21-10-2010 17:00:00 10.96 C 3.55 g/m*3 10.96 C 0 km/h
1915 21-10-2010 18:00:00 7.38 C 3.99 g/m*3 7.38 C 0 km/h
1916 21-10-2010 19:00:00 5.64 C 4.05 g/m*3 5.64 C 0 km/h
1917 21-10-2010 20:00:00 4.86 C 3.96 g/m*3 4.86 C 0 km/h
1918 21-10-2010 21:00:00 4.62 C 3.74 g/m*3 4.62 C 0 km/h
1919 21-10-2010 22:00:00 3.84 C 3.84 g/m*3 3.84 C 0 km/h
1920 21-10-2010 23:00:00 3.14 C 3.89 g/m*3 3.14 C 0 km/h
1921 22-10-2010 00:00:00 2.38 C 4.06 g/m*3 2.38 C 0 km/h
1922 22-10-2010 01:00:00 1.74 C 4.11 g/m*3 1.74 C 0 km/h
1923 22-10-2010 02:00:00 2.12 C 4.09 g/m*3 2.12 C 0 km/h
1924 22-10-2010 03:00:00 2.16 C 4.08 g/m*3 2.16 C 0 km/h
1925 22-10-2010 04:00:00 1.48 C 4.09 g/m*3 1.48 C 0 km/h
Sensor: Nr:Datum:Temp:Abs-Feuchte:Windchill:Wind:
Aussen-T/F 1926 22-10-2010 05:00:00 1.38 C 4.11 g/m*3 1.38 C 0 km/h
1927 22-10-2010 06:00:00 1.66 C 4.06 g/m*3 1.66 C 0 km/h
1928 22-10-2010 07:00:00 0.94 C 3.98 g/m*3 0.94 C 0 km/h
1929 22-10-2010 08:00:00 1.28 C 4.04 g/m*3 1.28 C 0 km/h
1930 22-10-2010 09:00:00 2.06 C 4.3 g/m*3 2.06 C 0 km/h
1931 22-10-2010 10:00:00 4.3 C 4.23 g/m*3 4.3 C 0 km/h
1932 22-10-2010 11:00:00 5.36 C 3.94 g/m*3 5.36 C 0 km/h
1933 22-10-2010 12:00:00 6.56 C 3.9 g/m*3 6.56 C 0 km/h
1934 22-10-2010 13:00:00 7.18 C 3.89 g/m*3 7.18 C 0 km/h
1935 22-10-2010 14:00:00 7.36 C 3.87 g/m*3 7.36 C 0 km/h
1936 22-10-2010 15:00:00 7.22 C 3.82 g/m*3 7.22 C 0 km/h
1937 22-10-2010 16:00:00 7.42 C 4.33 g/m*3 7.42 C 0 km/h
1938 22-10-2010 17:00:00 7.22 C 4.28 g/m*3 7.22 C 0 km/h
1939 22-10-2010 18:00:00 6.18 C 4.1 g/m*3 6.18 C 0 km/h
1940 22-10-2010 19:00:00 6.2 C 3.69 g/m*3 6.2 C 0 km/h
1941 22-10-2010 20:00:00 6.02 C 3.82 g/m*3 6.02 C 0 km/h
1942 22-10-2010 21:00:00 5.72 C 3.9 g/m*3 5.72 C 0 km/h
1943 22-10-2010 22:00:00 4.14 C 4.09 g/m*3 4.14 C 0 km/h
1944 22-10-2010 23:00:00 2.76 C 4.31 g/m*3 2.76 C 0 km/h
1945 23-10-2010 00:00:00 1.7 C 4.3 g/m*3 1.7 C 0 km/h
1946 23-10-2010 01:00:00 1.08 C 4.29 g/m*3 1.08 C 0 km/h
1947 23-10-2010 02:00:00 0.54 C 4.24 g/m*3 0.54 C 0 km/h
1948 23-10-2010 03:00:00 0.1 C 4.19 g/m*3 0.1 C 0 km/h
1949 23-10-2010 04:00:00 -0.34 C 4.14 g/m*3 -0.34 C 0 km/h
1950 23-10-2010 05:00:00 -0.82 C 4.03 g/m*3 -0.82 C 0 km/h
Sensor: Nr:Datum:Temp:Abs-Feuchte:Windchill:Wind:
Aussen-T/F 1951 23-10-2010 06:00:00 -1.04 C 4 g/m*3 -1.04 C 0 km/h
1952 23-10-2010 07:00:00 -0.86 C 4.09 g/m*3 -0.86 C 0 km/h
1953 23-10-2010 08:00:00 -0.78 C 4.18 g/m*3 -0.78 C 0 km/h
1954 23-10-2010 09:00:00 -0.82 C 4.14 g/m*3 -0.82 C 0 km/h
1955 23-10-2010 10:00:00 1.06 C 4.78 g/m*3 1.06 C 0 km/h
1956 23-10-2010 11:00:00 4.08 C 5.33 g/m*3 4.08 C 0 km/h
1957 23-10-2010 12:00:00 6.64 C 5.16 g/m*3 6.64 C 0 km/h
1958 23-10-2010 13:00:00 8.56 C 4.97 g/m*3 8.56 C 0 km/h
1959 23-10-2010 14:00:00 9.08 C 4.25 g/m*3 9.08 C 0 km/h
1960 23-10-2010 15:00:00 8.42 C 4.64 g/m*3 8.42 C 0 km/h
1961 23-10-2010 16:00:00 7.92 C 4.93 g/m*3 7.92 C 0 km/h
1962 23-10-2010 17:00:00 7.88 C 5.35 g/m*3 7.88 C 0 km/h
1963 23-10-2010 18:00:00 8.04 C 5.49 g/m*3 8.04 C 0 km/h
1964 23-10-2010 19:00:00 8.56 C 5.16 g/m*3 8.56 C 0 km/h
1965 23-10-2010 20:00:00 9.14 C 5.27 g/m*3 9.14 C 0 km/h
1966 23-10-2010 21:00:00 9.26 C 5.77 g/m*3 9.26 C 0 km/h
1967 23-10-2010 22:00:00 9.375 C 5.85 g/m*3 9.38 C 0 km/h
1968 23-10-2010 23:00:00 9.32 C 5.67 g/m*3 9.32 C 0 km/h
1969 24-10-2010 00:00:00 9.02 C 5.74 g/m*3 9.02 C 0 km/h
1970 24-10-2010 01:00:00 8.98 C 5.85 g/m*3 8.98 C 0 km/h
1971 24-10-2010 02:00:00 8.46 C 6.28 g/m*3 8.46 C 0 km/h
1972 24-10-2010 03:00:00 8.46 C 6.3 g/m*3 8.46 C 0 km/h
1973 24-10-2010 04:00:00 8.66 C 6.02 g/m*3 8.66 C 0 km/h
1974 24-10-2010 05:00:00 8.5 C 5.98 g/m*3 8.5 C 0 km/h
1975 24-10-2010 06:00:00 7.98 C 6.24 g/m*3 7.98 C 0 km/h
Sensor: Nr:Datum:Temp:Abs-Feuchte:Windchill:Wind:
Aussen-T/F 1976 24-10-2010 07:00:00 7.06 C 6.72 g/m*3 7.06 C 0 km/h
1977 24-10-2010 08:00:00 6.96 C 6.91 g/m*3 6.96 C 0 km/h
1978 24-10-2010 09:00:00 7.14 C 7.02 g/m*3 7.14 C 0 km/h
1979 24-10-2010 10:00:00 7 C 6.65 g/m*3 7 C 0 km/h
1980 24-10-2010 11:00:00 8.3 C 5.85 g/m*3 8.3 C 0 km/h
1981 24-10-2010 12:00:00 9.36 C 4.75 g/m*3 9.36 C 0 km/h
1982 24-10-2010 13:00:00 10.46 C 4.6 g/m*3 10.46 C 0 km/h
1983 24-10-2010 14:00:00 11.62 C 4.29 g/m*3 11.62 C 0 km/h
1984 24-10-2010 15:00:00 12.3 C 4.23 g/m*3 12.3 C 0 km/h
1985 24-10-2010 16:00:00 13.04 C 3.75 g/m*3 13.04 C 0 km/h
1986 24-10-2010 17:00:00 12.02 C 4.01 g/m*3 12.02 C 0 km/h
1987 24-10-2010 18:00:00 9.56 C 4.75 g/m*3 9.56 C 0 km/h
1988 24-10-2010 19:00:00 7.42 C 5.14 g/m*3 7.42 C 0 km/h
1989 24-10-2010 20:00:00 6.48 C 5.18 g/m*3 6.48 C 0 km/h
1990 24-10-2010 21:00:00 6.12 C 5.38 g/m*3 6.12 C 0 km/h
1991 24-10-2010 22:00:00 5.62 C 5.56 g/m*3 5.62 C 0 km/h
1992 24-10-2010 23:00:00 4.84 C 5.49 g/m*3 4.84 C 0 km/h
1993 25-10-2010 00:00:00 4.8 C 5.7 g/m*3 4.8 C 0 km/h
1994 25-10-2010 01:00:00 4.5 C 5.65 g/m*3 4.5 C 0 km/h
1995 25-10-2010 02:00:00 4.42 C 5.69 g/m*3 4.42 C 0 km/h
1996 25-10-2010 03:00:00 4.62 C 5.76 g/m*3 4.62 C 0 km/h
1997 25-10-2010 04:00:00 5.1 C 5.73 g/m*3 5.1 C 0 km/h
1998 25-10-2010 05:00:00 5.1 C 5.62 g/m*3 5.1 C 0 km/h
1999 25-10-2010 06:00:00 5.04 C 5.55 g/m*3 5.04 C 0 km/h
2000 25-10-2010 07:00:00 4.86 C 5.51 g/m*3 4.86 C 0 km/h
Sensor: Nr:Datum:Temp:Abs-Feuchte:Windchill:Wind:
Aussen-T/F 2001 25-10-2010 08:00:00 4.9 C 5.52 g/m*3 4.9 C 0 km/h
2002 25-10-2010 09:00:00 5.06 C 5.47 g/m*3 5.06 C 0 km/h
2003 25-10-2010 10:00:00 5.8 C 5.5 g/m*3 5.8 C 0 km/h
2004 25-10-2010 11:00:00 6.54 C 5.44 g/m*3 6.54 C 0 km/h
2005 25-10-2010 12:00:00 7.84 C 5.3 g/m*3 7.84 C 0 km/h
2006 25-10-2010 13:00:00 8.74 C 5.12 g/m*3 8.74 C 0 km/h
2007 25-10-2010 14:00:00 10.1 C 4.63 g/m*3 10.1 C 0 km/h
2008 25-10-2010 15:00:00 10.4 C 3.91 g/m*3 10.4 C 0 km/h
2009 25-10-2010 16:00:00 10.72 C 3.91 g/m*3 10.72 C 0 km/h
2010 25-10-2010 17:00:00 10.68 C 4.06 g/m*3 10.68 C 0 km/h
2011 25-10-2010 18:00:00 8.36 C 4.25 g/m*3 8.36 C 0 km/h
2012 25-10-2010 19:00:00 6.22 C 4.68 g/m*3 6.22 C 0 km/h
2013 25-10-2010 20:00:00 4.66 C 4.77 g/m*3 4.66 C 0 km/h
2014 25-10-2010 21:00:00 3.92 C 4.92 g/m*3 3.92 C 0 km/h
2015 25-10-2010 22:00:00 3 C 4.83 g/m*3 3 C 0 km/h
2016 25-10-2010 23:00:00 2.28 C 4.79 g/m*3 2.28 C 0 km/h
2017 26-10-2010 00:00:00 1.88 C 4.78 g/m*3 1.88 C 0 km/h
2018 26-10-2010 01:00:00 1.48 C 4.76 g/m*3 1.48 C 0 km/h
2019 26-10-2010 02:00:00 0.82 C 4.64 g/m*3 0.82 C 0 km/h
2020 26-10-2010 03:00:00 0.3 C 4.5 g/m*3 0.3 C 0 km/h
2021 26-10-2010 04:00:00 0.12 C 4.51 g/m*3 0.12 C 0 km/h
2022 26-10-2010 05:00:00 0.08 C 4.56 g/m*3 0.08 C 0 km/h
2023 26-10-2010 06:00:00 0.14 C 4.6 g/m*3 0.14 C 0 km/h
2024 26-10-2010 07:00:00 -0.32 C 4.45 g/m*3 -0.32 C 0 km/h
2025 26-10-2010 08:00:00 -0.42 C 4.42 g/m*3 -0.42 C 0 km/h
Sensor: Nr:Datum:Temp:Abs-Feuchte:Windchill:Wind:
Aussen-T/F 2026 26-10-2010 09:00:00 -0.36 C 4.44 g/m*3 -0.36 C 0 km/h
2027 26-10-2010 10:00:00 0.1 C 4.58 g/m*3 0.1 C 0 km/h
2028 26-10-2010 11:00:00 1.22 C 4.82 g/m*3 1.22 C 0 km/h
2029 26-10-2010 12:00:00 3.16 C 5.19 g/m*3 3.16 C 0 km/h
2030 26-10-2010 13:00:00 5.54 C 5.61 g/m*3 5.54 C 0 km/h
2031 26-10-2010 14:00:00 8.88 C 5.51 g/m*3 8.88 C 0 km/h
2032 26-10-2010 15:00:00 9.72 C 5.28 g/m*3 9.72 C 0 km/h
2033 26-10-2010 16:00:00 9.24 C 5.41 g/m*3 9.24 C 0 km/h
2034 26-10-2010 17:00:00 8.04 C 5.69 g/m*3 8.04 C 0 km/h
2035 26-10-2010 18:00:00 7.08 C 5.64 g/m*3 7.08 C 0 km/h
2036 26-10-2010 19:00:00 6.58 C 5.68 g/m*3 6.58 C 0 km/h
2037 26-10-2010 20:00:00 6.34 C 5.66 g/m*3 6.34 C 0 km/h
2038 26-10-2010 21:00:00 6.06 C 5.58 g/m*3 6.06 C 0 km/h
2039 26-10-2010 22:00:00 5.7 C 5.71 g/m*3 5.7 C 0 km/h
2040 26-10-2010 23:00:00 5.6 C 5.73 g/m*3 5.6 C 0 km/h
2041 27-10-2010 00:00:00 5.16 C 5.6 g/m*3 5.16 C 0 km/h
2042 27-10-2010 01:00:00 5.36 C 5.14 g/m*3 5.36 C 0 km/h
2043 27-10-2010 02:00:00 5.54 C 5.11 g/m*3 5.54 C 0 km/h
2044 27-10-2010 03:00:00 5.48 C 5.26 g/m*3 5.48 C 0 km/h
2045 27-10-2010 04:00:00 5.42 C 5.24 g/m*3 5.42 C 0 km/h
2046 27-10-2010 05:00:00 5.64 C 5.16 g/m*3 5.64 C 0 km/h
2047 27-10-2010 06:00:00 5.68 C 5.22 g/m*3 5.68 C 0 km/h
2048 27-10-2010 07:00:00 5.76 C 5.16 g/m*3 5.76 C 0 km/h
2049 27-10-2010 08:00:00 5.68 C 5.09 g/m*3 5.68 C 0 km/h
2050 27-10-2010 09:00:00 5.84 C 5.65 g/m*3 5.84 C 0 km/h
Sensor: Nr:Datum:Temp:Abs-Feuchte:Windchill:Wind:
Aussen-T/F 2051 27-10-2010 10:00:00 7 C 5.8 g/m*3 7 C 0 km/h
2052 27-10-2010 11:00:00 8.22 C 5.45 g/m*3 8.22 C 0 km/h
2053 27-10-2010 12:00:00 9.62 C 4.46 g/m*3 9.62 C 0 km/h
2054 27-10-2010 13:00:00 10.92 C 3.84 g/m*3 10.92 C 0 km/h
2055 27-10-2010 14:00:00 11.06 C 3.64 g/m*3 11.06 C 0 km/h
2056 27-10-2010 15:00:00 11.56 C 3.55 g/m*3 11.56 C 0 km/h
2057 27-10-2010 16:00:00 11.98 C 3.43 g/m*3 11.98 C 0 km/h
2058 27-10-2010 17:00:00 11.6 C 3.55 g/m*3 11.6 C 0 km/h
2059 27-10-2010 18:00:00 10.44 C 4.27 g/m*3 10.44 C 0 km/h
2060 27-10-2010 19:00:00 10.04 C 4.41 g/m*3 10.04 C 0 km/h
2061 27-10-2010 20:00:00 9.8 C 4.42 g/m*3 9.8 C 0 km/h
2062 27-10-2010 21:00:00 9.56 C 4.71 g/m*3 9.56 C 0 km/h
2063 27-10-2010 22:00:00 9.2 C 4.89 g/m*3 9.2 C 0 km/h
2064 27-10-2010 23:00:00 9.02 C 4.86 g/m*3 9.02 C 0 km/h
2065 28-10-2010 00:00:00 8.66 C 4.87 g/m*3 8.66 C 0 km/h
2066 28-10-2010 01:00:00 8.46 C 4.91 g/m*3 8.46 C 0 km/h
2067 28-10-2010 02:00:00 8.06 C 5.05 g/m*3 8.06 C 0 km/h
2068 28-10-2010 03:00:00 7.62 C 4.86 g/m*3 7.62 C 0 km/h
2069 28-10-2010 04:00:00 7.66 C 5.06 g/m*3 7.66 C 0 km/h
2070 28-10-2010 05:00:00 7.52 C 5.05 g/m*3 7.52 C 0 km/h
2071 28-10-2010 06:00:00 7.98 C 4.41 g/m*3 7.98 C 0 km/h
2072 28-10-2010 07:00:00 8.48 C 4.31 g/m*3 8.48 C 0 km/h
2073 28-10-2010 08:00:00 8.7 C 4.67 g/m*3 8.7 C 0 km/h
2074 28-10-2010 09:00:00 8.86 C 4.91 g/m*3 8.86 C 0 km/h
2075 28-10-2010 10:00:00 7.9 C 6.09 g/m*3 7.9 C 0 km/h
Sensor: Nr:Datum:Temp:Abs-Feuchte:Windchill:Wind:
Aussen-T/F 2076 28-10-2010 11:00:00 9.7 C 5.97 g/m*3 9.7 C 0 km/h
2077 28-10-2010 12:00:00 10.72 C 5.78 g/m*3 10.72 C 0 km/h
2078 28-10-2010 13:00:00 11.34 C 5.69 g/m*3 11.34 C 0 km/h
2079 28-10-2010 14:00:00 12.3 C 5.67 g/m*3 12.3 C 0 km/h
2080 28-10-2010 15:00:00 12.72 C 5.66 g/m*3 12.72 C 0 km/h
2081 28-10-2010 16:00:00 11.62 C 6.12 g/m*3 11.62 C 0 km/h
2082 28-10-2010 17:00:00 11.08 C 6.14 g/m*3 11.08 C 0 km/h
2083 28-10-2010 18:00:00 9.86 C 6.13 g/m*3 9.86 C 0 km/h
2084 28-10-2010 19:00:00 9.18 C 6.22 g/m*3 9.18 C 0 km/h
2085 28-10-2010 20:00:00 9 C 6.24 g/m*3 9 C 0 km/h
2086 28-10-2010 21:00:00 8.38 C 6.3 g/m*3 8.38 C 0 km/h
2087 28-10-2010 22:00:00 7.56 C 6.36 g/m*3 7.56 C 0 km/h
2088 28-10-2010 23:00:00 6.78 C 6.32 g/m*3 6.78 C 0 km/h
2089 29-10-2010 00:00:00 6.26 C 6.26 g/m*3 6.26 C 0 km/h
2090 29-10-2010 01:00:00 6.28 C 6.4 g/m*3 6.28 C 0 km/h
2091 29-10-2010 02:00:00 6.46 C 6.57 g/m*3 6.46 C 0 km/h
2092 29-10-2010 03:00:00 7.23333 C 6.82 g/m*3 7.23 C 0 km/h
2093 02-11-2010 08:00:00 8.77778 C 6.98 g/m*3 8.78 C 0 km/h
2094 02-11-2010 09:00:00 9.9 C 6.85 g/m*3 9.9 C 0 km/h
2095 02-11-2010 10:00:00 11.04 C 6.74 g/m*3 11.04 C 0 km/h
2096 02-11-2010 11:00:00 11.88 C 6.43 g/m*3 11.88 C 0 km/h
2097 02-11-2010 12:00:00 12.52 C 6.49 g/m*3 12.52 C 0 km/h
2098 02-11-2010 13:00:00 12.72 C 6.33 g/m*3 12.72 C 0 km/h
2099 02-11-2010 14:00:00 12.8 C 6.36 g/m*3 12.8 C 0 km/h
2100 02-11-2010 15:00:00 12.92 C 6.39 g/m*3 12.92 C 0 km/h
Sensor: Nr:Datum:Temp:Abs-Feuchte:Windchill:Wind:
Aussen-T/F 2101 02-11-2010 16:00:00 12.34 C 6.44 g/m*3 12.34 C 0 km/h
2102 02-11-2010 17:00:00 11.34 C 6.61 g/m*3 11.34 C 0 km/h
2103 02-11-2010 18:00:00 11.22 C 6.66 g/m*3 11.22 C 0 km/h
2104 02-11-2010 19:00:00 11.46 C 6.66 g/m*3 11.46 C 0 km/h
2105 02-11-2010 20:00:00 11 C 7.01 g/m*3 11 C 0 km/h
2106 02-11-2010 21:00:00 10.94 C 7.18 g/m*3 10.94 C 0 km/h
2107 02-11-2010 22:00:00 11.08 C 7.42 g/m*3 11.08 C 0 km/h
2108 02-11-2010 23:00:00 11.14 C 7.57 g/m*3 11.14 C 0 km/h
2109 03-11-2010 00:00:00 11.32 C 7.66 g/m*3 11.32 C 0 km/h
2110 03-11-2010 01:00:00 10.88 C 7.49 g/m*3 10.88 C 0 km/h
2111 03-11-2010 02:00:00 11.68 C 7.56 g/m*3 11.68 C 0 km/h
2112 03-11-2010 03:00:00 12.06 C 7.34 g/m*3 12.06 C 0 km/h
2113 03-11-2010 04:00:00 12.44 C 7.47 g/m*3 12.44 C 0 km/h
2114 03-11-2010 05:00:00 12.72 C 7.49 g/m*3 12.72 C 0 km/h
2115 03-11-2010 06:00:00 12.66 C 7.62 g/m*3 12.66 C 0 km/h
2116 03-11-2010 07:00:00 12.76 C 7.66 g/m*3 12.76 C 0 km/h
2117 03-11-2010 08:00:00 13.28 C 7.57 g/m*3 13.28 C 0 km/h
2118 03-11-2010 09:00:00 13.78 C 7.64 g/m*3 13.78 C 0 km/h
2119 03-11-2010 10:00:00 14.2 C 7.55 g/m*3 14.2 C 0 km/h
2120 03-11-2010 11:00:00 14.42 C 7.65 g/m*3 14.42 C 0 km/h
2121 03-11-2010 12:00:00 13.94 C 7.74 g/m*3 13.94 C 0 km/h
2122 03-11-2010 13:00:00 13.54 C 7.83 g/m*3 13.54 C 0 km/h
2123 03-11-2010 14:00:00 13.66 C 7.94 g/m*3 13.66 C 0 km/h
2124 03-11-2010 15:00:00 13.78 C 8.07 g/m*3 13.78 C 0 km/h
2125 03-11-2010 16:00:00 13.46 C 8.1 g/m*3 13.46 C 0 km/h
Sensor: Nr:Datum:Temp:Abs-Feuchte:Windchill:Wind:
Aussen-T/F 2126 03-11-2010 17:00:00 13.06 C 8.2 g/m*3 13.06 C 0 km/h
2127 03-11-2010 18:00:00 12.66 C 8.31 g/m*3 12.66 C 0 km/h
2128 03-11-2010 19:00:00 12.96 C 8.26 g/m*3 12.96 C 0 km/h
2129 03-11-2010 20:00:00 13.38 C 8.2 g/m*3 13.38 C 0 km/h
2130 03-11-2010 21:00:00 13.54 C 8.16 g/m*3 13.54 C 0 km/h
2131 03-11-2010 22:00:00 14.1 C 8.16 g/m*3 14.1 C 0 km/h
2132 03-11-2010 23:00:00 14.2 C 8.4 g/m*3 14.2 C 0 km/h
2133 04-11-2010 00:00:00 14.3 C 8.77 g/m*3 14.3 C 0 km/h
2134 04-11-2010 01:00:00 14.74 C 9.06 g/m*3 14.74 C 0 km/h
2135 04-11-2010 02:00:00 14.96 C 9.06 g/m*3 14.96 C 0 km/h
2136 04-11-2010 03:00:00 15.16 C 9.12 g/m*3 15.16 C 0 km/h
2137 04-11-2010 04:00:00 15.22 C 9.3 g/m*3 15.22 C 0 km/h
2138 04-11-2010 05:00:00 15.54 C 9.41 g/m*3 15.54 C 0 km/h
2139 04-11-2010 06:00:00 15.7 C 9.61 g/m*3 15.7 C 0 km/h
2140 04-11-2010 07:00:00 15.92 C 9.52 g/m*3 15.92 C 0 km/h
2141 04-11-2010 08:00:00 16.2 C 9.43 g/m*3 16.2 C 0 km/h
2142 04-11-2010 09:00:00 16.64 C 9.06 g/m*3 16.64 C 0 km/h
2143 04-11-2010 10:00:00 17.24 C 8.84 g/m*3 17.24 C 0 km/h
2144 04-11-2010 11:00:00 17.82 C 8.45 g/m*3 17.82 C 0 km/h
2145 04-11-2010 12:00:00 18.44 C 8.17 g/m*3 18.44 C 0 km/h
2146 04-11-2010 13:00:00 18.54 C 8.18 g/m*3 18.54 C 0 km/h
2147 04-11-2010 14:00:00 18.44 C 8.01 g/m*3 18.44 C 0 km/h
2148 04-11-2010 15:00:00 18.24 C 8.13 g/m*3 18.24 C 0 km/h
2149 04-11-2010 16:00:00 17.52 C 8.42 g/m*3 17.52 C 0 km/h
2150 04-11-2010 17:00:00 16.92 C 8.44 g/m*3 16.92 C 0 km/h
Sensor: Nr:Datum:Temp:Abs-Feuchte:Windchill:Wind:
Aussen-T/F 2151 04-11-2010 18:00:00 16.78 C 8.43 g/m*3 16.78 C 0 km/h
2152 04-11-2010 19:00:00 16.92 C 8.47 g/m*3 16.92 C 0 km/h
2153 04-11-2010 20:00:00 16.12 C 8.12 g/m*3 16.12 C 0 km/h
2154 04-11-2010 21:00:00 15.74 C 8.05 g/m*3 15.74 C 0 km/h
2155 04-11-2010 22:00:00 15.38 C 7.87 g/m*3 15.38 C 0 km/h
2156 04-11-2010 23:00:00 15.4 C 7.88 g/m*3 15.4 C 0 km/h
2157 05-11-2010 00:00:00 15.34 C 7.88 g/m*3 15.34 C 0 km/h
2158 05-11-2010 01:00:00 15.14 C 7.53 g/m*3 15.14 C 0 km/h
2159 05-11-2010 02:00:00 14.74 C 7.45 g/m*3 14.74 C 0 km/h
2160 05-11-2010 03:00:00 14.46 C 7.37 g/m*3 14.46 C 0 km/h
2161 05-11-2010 04:00:00 14.2 C 7.38 g/m*3 14.2 C 0 km/h
2162 05-11-2010 05:00:00 14.14 C 7.18 g/m*3 14.14 C 0 km/h
2163 05-11-2010 06:00:00 13.82 C 7.13 g/m*3 13.82 C 0 km/h
2164 05-11-2010 07:00:00 13.46 C 6.95 g/m*3 13.46 C 0 km/h
2165 05-11-2010 08:00:00 13.88 C 6.61 g/m*3 13.88 C 0 km/h
2166 05-11-2010 09:00:00 14.52 C 6.72 g/m*3 14.52 C 0 km/h
2167 05-11-2010 10:00:00 14.9 C 6.88 g/m*3 14.9 C 0 km/h
2168 05-11-2010 11:00:00 15.22 C 6.99 g/m*3 15.22 C 0 km/h
2169 05-11-2010 12:00:00 15.14 C 7.09 g/m*3 15.14 C 0 km/h
2170 05-11-2010 13:00:00 15.1 C 7.1 g/m*3 15.1 C 0 km/h
2171 05-11-2010 14:00:00 14.8 C 7.4 g/m*3 14.8 C 0 km/h
2172 05-11-2010 15:00:00 14.6 C 7.48 g/m*3 14.6 C 0 km/h
2173 05-11-2010 16:00:00 14.56 C 7.49 g/m*3 14.56 C 0 km/h
2174 05-11-2010 17:00:00 14.64 C 7.55 g/m*3 14.64 C 0 km/h
2175 05-11-2010 18:00:00 14.76 C 7.58 g/m*3 14.76 C 0 km/h
Sensor: Nr:Datum:Temp:Abs-Feuchte:Windchill:Wind:
Aussen-T/F 2176 05-11-2010 19:00:00 14.36 C 7.57 g/m*3 14.36 C 0 km/h
2177 05-11-2010 20:00:00 14.44 C 7.58 g/m*3 14.44 C 0 km/h
2178 05-11-2010 21:00:00 14.28 C 7.61 g/m*3 14.28 C 0 km/h
2179 05-11-2010 22:00:00 14.02 C 7.58 g/m*3 14.02 C 0 km/h
2180 05-11-2010 23:00:00 13.94 C 7.57 g/m*3 13.94 C 0 km/h
2181 06-11-2010 00:00:00 14.04 C 7.57 g/m*3 14.04 C 0 km/h
2182 06-11-2010 01:00:00 14.02 C 7.61 g/m*3 14.02 C 0 km/h
2183 06-11-2010 02:00:00 13.38 C 7.69 g/m*3 13.38 C 0 km/h
2184 06-11-2010 03:00:00 12.9 C 7.98 g/m*3 12.9 C 0 km/h
2185 06-11-2010 04:00:00 12.78 C 8.12 g/m*3 12.78 C 0 km/h
2186 06-11-2010 05:00:00 13.12 C 8 g/m*3 13.12 C 0 km/h
2187 06-11-2010 06:00:00 13.46 C 7.86 g/m*3 13.46 C 0 km/h
2188 06-11-2010 07:00:00 13.48 C 7.57 g/m*3 13.48 C 0 km/h
2189 06-11-2010 08:00:00 13.34 C 7.5 g/m*3 13.34 C 0 km/h
2190 06-11-2010 09:00:00 11.92 C 7.55 g/m*3 11.92 C 0 km/h
2191 06-11-2010 10:00:00 10.18 C 7.93 g/m*3 10.18 C 0 km/h
2192 06-11-2010 11:00:00 10.58 C 8.19 g/m*3 10.58 C 0 km/h
2193 06-11-2010 12:00:00 9.78 C 7.67 g/m*3 9.78 C 0 km/h
2194 06-11-2010 13:00:00 9.08 C 7.46 g/m*3 9.08 C 0 km/h
2195 06-11-2010 14:00:00 8.92 C 7.67 g/m*3 8.92 C 0 km/h
2196 06-11-2010 15:00:00 8.64 C 7.67 g/m*3 8.64 C 0 km/h
2197 06-11-2010 16:00:00 8.2 C 7.54 g/m*3 8.2 C 0 km/h
2198 06-11-2010 17:00:00 7.84 C 7.49 g/m*3 7.84 C 0 km/h
2199 06-11-2010 18:00:00 7.44 C 7.34 g/m*3 7.44 C 0 km/h
2200 06-11-2010 19:00:00 7.42 C 7.41 g/m*3 7.42 C 0 km/h
Sensor: Nr:Datum:Temp:Abs-Feuchte:Windchill:Wind:
Aussen-T/F 2201 06-11-2010 20:00:00 7.2 C 7.3 g/m*3 7.2 C 0 km/h
2202 06-11-2010 21:00:00 7.26 C 7.33 g/m*3 7.26 C 0 km/h
2203 06-11-2010 22:00:00 7.48 C 7.43 g/m*3 7.48 C 0 km/h
2204 06-11-2010 23:00:00 7.36 C 7.38 g/m*3 7.36 C 0 km/h
2205 07-11-2010 00:00:00 7.22 C 7.31 g/m*3 7.22 C 0 km/h
2206 07-11-2010 01:00:00 7.18 C 7.29 g/m*3 7.18 C 0 km/h
2207 07-11-2010 02:00:00 6.98 C 7.24 g/m*3 6.98 C 0 km/h
2208 07-11-2010 03:00:00 7.3 C 7.4 g/m*3 7.3 C 0 km/h
2209 07-11-2010 04:00:00 7.18 C 7.34 g/m*3 7.18 C 0 km/h
2210 07-11-2010 05:00:00 6.8 C 7.19 g/m*3 6.8 C 0 km/h
2211 07-11-2010 06:00:00 6.48 C 7.04 g/m*3 6.48 C 0 km/h
2212 07-11-2010 07:00:00 6.7 C 7.14 g/m*3 6.7 C 0 km/h
2213 07-11-2010 08:00:00 7.16 C 7.28 g/m*3 7.16 C 0 km/h
2214 07-11-2010 09:00:00 7.46 C 7.47 g/m*3 7.46 C 0 km/h
2215 07-11-2010 10:00:00 7.82 C 7.68 g/m*3 7.82 C 0 km/h
2216 07-11-2010 11:00:00 8.06 C 7.67 g/m*3 8.06 C 0 km/h
2217 07-11-2010 12:00:00 8.74 C 7.87 g/m*3 8.74 C 0 km/h
2218 07-11-2010 13:00:00 8.48 C 7.5 g/m*3 8.48 C 0 km/h
2219 07-11-2010 14:00:00 8.22 C 7.43 g/m*3 8.22 C 0 km/h
2220 07-11-2010 15:00:00 7.5 C 7.17 g/m*3 7.5 C 0 km/h
2221 07-11-2010 16:00:00 6.82 C 6.97 g/m*3 6.82 C 0 km/h
2222 07-11-2010 17:00:00 6.76 C 7.02 g/m*3 6.76 C 0 km/h
2223 07-11-2010 18:00:00 6.58 C 6.94 g/m*3 6.58 C 0 km/h
2224 07-11-2010 19:00:00 5.72 C 6.61 g/m*3 5.72 C 0 km/h
2225 07-11-2010 20:00:00 5.18 C 6.4 g/m*3 5.18 C 0 km/h
Sensor: Nr:Datum:Temp:Abs-Feuchte:Windchill:Wind:
Aussen-T/F 2226 07-11-2010 21:00:00 4.98 C 6.32 g/m*3 4.98 C 0 km/h
2227 07-11-2010 22:00:00 4.9 C 6.32 g/m*3 4.9 C 0 km/h
2228 07-11-2010 23:00:00 4.64 C 6.22 g/m*3 4.64 C 0 km/h
2229 08-11-2010 00:00:00 4.04 C 5.95 g/m*3 4.04 C 0 km/h
2230 08-11-2010 01:00:00 4.12 C 5.97 g/m*3 4.12 C 0 km/h
2231 08-11-2010 02:00:00 4.04 C 5.97 g/m*3 4.04 C 0 km/h
2232 08-11-2010 03:00:00 4.46 C 6.16 g/m*3 4.46 C 0 km/h
2233 08-11-2010 04:00:00 4.4 C 6.14 g/m*3 4.4 C 0 km/h
2234 08-11-2010 05:00:00 4.6 C 6.22 g/m*3 4.6 C 0 km/h
2235 08-11-2010 06:00:00 4.86 C 6.33 g/m*3 4.86 C 0 km/h
2236 08-11-2010 07:00:00 4.74 C 6.26 g/m*3 4.74 C 0 km/h
2237 08-11-2010 08:00:00 4.96 C 6.34 g/m*3 4.96 C 0 km/h
2238 08-11-2010 09:00:00 5.84 C 6.58 g/m*3 5.84 C 0 km/h
2239 08-11-2010 10:00:00 7.08 C 6.5 g/m*3 7.08 C 0 km/h
2240 08-11-2010 11:00:00 7.26 C 5.75 g/m*3 7.26 C 0 km/h
2241 08-11-2010 12:00:00 6.78 C 5.3 g/m*3 6.78 C 0 km/h
2242 08-11-2010 13:00:00 7.24 C 5.15 g/m*3 7.24 C 0 km/h
2243 08-11-2010 14:00:00 6.88 C 4.74 g/m*3 6.88 C 0 km/h
2244 08-11-2010 15:00:00 5.6 C 4.67 g/m*3 5.6 C 0 km/h
2245 08-11-2010 16:00:00 2.98 C 4.87 g/m*3 2.98 C 0 km/h
2246 08-11-2010 17:00:00 2.08 C 4.85 g/m*3 2.08 C 0 km/h
2247 08-11-2010 18:00:00 1.46 C 4.79 g/m*3 1.46 C 0 km/h
2248 08-11-2010 19:00:00 2.26 C 5.11 g/m*3 2.26 C 0 km/h
2249 08-11-2010 20:00:00 3.5 C 5.42 g/m*3 3.5 C 0 km/h
2250 08-11-2010 21:00:00 3.9 C 5.56 g/m*3 3.9 C 0 km/h
Sensor: Nr:Datum:Temp:Abs-Feuchte:Windchill:Wind:
Aussen-T/F 2251 08-11-2010 22:00:00 4.22 C 5.72 g/m*3 4.22 C 0 km/h
2252 08-11-2010 23:00:00 4.44 C 5.62 g/m*3 4.44 C 0 km/h
2253 09-11-2010 00:00:00 4.24 C 5.65 g/m*3 4.24 C 0 km/h
2254 09-11-2010 01:00:00 4.2 C 5.73 g/m*3 4.2 C 0 km/h
2255 09-11-2010 02:00:00 4.2 C 5.79 g/m*3 4.2 C 0 km/h
2256 09-11-2010 03:00:00 4.46 C 5.97 g/m*3 4.46 C 0 km/h
2257 09-11-2010 04:00:00 4.44 C 5.96 g/m*3 4.44 C 0 km/h
2258 09-11-2010 05:00:00 4.74 C 6.08 g/m*3 4.74 C 0 km/h
2259 09-11-2010 06:00:00 5.1 C 6.16 g/m*3 5.1 C 0 km/h
2260 09-11-2010 07:00:00 5.58 C 6.24 g/m*3 5.58 C 0 km/h
2261 09-11-2010 08:00:00 6.42 C 6.09 g/m*3 6.42 C 0 km/h
2262 09-11-2010 09:00:00 6.9 C 6.1 g/m*3 6.9 C 0 km/h
2263 09-11-2010 10:00:00 7.9 C 6.26 g/m*3 7.9 C 0 km/h
2264 09-11-2010 11:00:00 9.16 C 6.29 g/m*3 9.16 C 0 km/h
2265 09-11-2010 12:00:00 9.52 C 6.43 g/m*3 9.52 C 0 km/h
2266 09-11-2010 13:00:00 9.66 C 6.47 g/m*3 9.66 C 0 km/h
2267 09-11-2010 14:00:00 8.86 C 6.85 g/m*3 8.86 C 0 km/h
2268 09-11-2010 15:00:00 8.42 C 7.07 g/m*3 8.42 C 0 km/h
2269 09-11-2010 16:00:00 7.92 C 7.19 g/m*3 7.92 C 0 km/h
2270 09-11-2010 17:00:00 7.3 C 7.05 g/m*3 7.3 C 0 km/h
2271 09-11-2010 18:00:00 6.64 C 6.83 g/m*3 6.64 C 0 km/h
2272 09-11-2010 19:00:00 6.86 C 7.02 g/m*3 6.86 C 0 km/h
2273 09-11-2010 20:00:00 6.78 C 7.03 g/m*3 6.78 C 0 km/h
2274 09-11-2010 21:00:00 6.84 C 7.05 g/m*3 6.84 C 0 km/h
2275 09-11-2010 22:00:00 6.78 C 7.03 g/m*3 6.78 C 0 km/h
Sensor: Nr:Datum:Temp:Abs-Feuchte:Windchill:Wind:
Aussen-T/F 2276 09-11-2010 23:00:00 6.84 C 7.05 g/m*3 6.84 C 0 km/h
2277 10-11-2010 00:00:00 6.56 C 6.93 g/m*3 6.56 C 0 km/h
2278 10-11-2010 01:00:00 6.92 C 7.14 g/m*3 6.92 C 0 km/h
2279 10-11-2010 02:00:00 6.9 C 7.14 g/m*3 6.9 C 0 km/h
2280 10-11-2010 03:00:00 7.1 C 7.18 g/m*3 7.1 C 0 km/h
2281 10-11-2010 04:00:00 6.88 C 7.12 g/m*3 6.88 C 0 km/h
2282 10-11-2010 05:00:00 6.9 C 7.13 g/m*3 6.9 C 0 km/h
2283 10-11-2010 06:00:00 6.82 C 7.09 g/m*3 6.82 C 0 km/h
2284 10-11-2010 07:00:00 6.34 C 6.87 g/m*3 6.34 C 0 km/h
2285 10-11-2010 08:00:00 6.72 C 7.05 g/m*3 6.72 C 0 km/h
2286 10-11-2010 09:00:00 8.22 C 7.56 g/m*3 8.22 C 0 km/h
2287 10-11-2010 10:00:00 9.6 C 6.93 g/m*3 9.6 C 0 km/h
2288 10-11-2010 11:00:00 9.64 C 6.48 g/m*3 9.64 C 0 km/h
2289 10-11-2010 12:00:00 10.18 C 6.48 g/m*3 10.18 C 0 km/h
2290 10-11-2010 13:00:00 11.08 C 6.16 g/m*3 11.08 C 0 km/h
2291 10-11-2010 14:00:00 10.52 C 6.02 g/m*3 10.52 C 0 km/h
2292 10-11-2010 15:00:00 7.86 C 6.41 g/m*3 7.86 C 0 km/h
2293 10-11-2010 16:00:00 6.24 C 6.18 g/m*3 6.24 C 0 km/h
2294 10-11-2010 17:00:00 5.94 C 5.81 g/m*3 5.94 C 0 km/h
2295 10-11-2010 18:00:00 5.22 C 5.67 g/m*3 5.22 C 0 km/h
2296 10-11-2010 19:00:00 5.2 C 5.63 g/m*3 5.2 C 0 km/h
2297 10-11-2010 20:00:00 5.34 C 5.5 g/m*3 5.34 C 0 km/h
2298 10-11-2010 21:00:00 4.46 C 5.52 g/m*3 4.46 C 0 km/h
2299 10-11-2010 22:00:00 4.55 C 5.59 g/m*3 4.55 C 0 km/h
2300 10-11-2010 23:00:00 4.3 C 5.34 g/m*3 4.3 C 0 km/h
Sensor: Nr:Datum:Temp:Abs-Feuchte:Windchill:Wind:
Aussen-T/F 2301 11-11-2010 00:00:00 4.6 C 5.29 g/m*3 4.6 C 0 km/h
2302 11-11-2010 01:00:00 4.5 C 5.44 g/m*3 4.5 C 0 km/h
2303 11-11-2010 02:00:00 5.02 C 5.42 g/m*3 5.02 C 0 km/h
2304 11-11-2010 03:00:00 4.84 C 5.23 g/m*3 4.84 C 0 km/h
2305 11-11-2010 04:00:00 4.3 C 5.24 g/m*3 4.3 C 0 km/h
2306 11-11-2010 05:00:00 4.12 C 5.2 g/m*3 4.12 C 0 km/h
2307 11-11-2010 06:00:00 3.7 C 5.01 g/m*3 3.7 C 0 km/h
2308 11-11-2010 07:00:00 3.56 C 4.98 g/m*3 3.56 C 0 km/h
2309 11-11-2010 08:00:00 2.32 C 4.71 g/m*3 2.32 C 0 km/h
2310 11-11-2010 09:00:00 3.66 C 5.28 g/m*3 3.66 C 0 km/h
2311 11-11-2010 10:00:00 5.58 C 4.59 g/m*3 5.58 C 0 km/h
2312 11-11-2010 11:00:00 6.94 C 3.78 g/m*3 6.94 C 0 km/h
2313 11-11-2010 12:00:00 7.46 C 3.98 g/m*3 7.46 C 0 km/h
2314 11-11-2010 13:00:00 7.7 C 4.15 g/m*3 7.7 C 0 km/h
2315 11-11-2010 14:00:00 7.36 C 4.24 g/m*3 7.36 C 0 km/h
2316 11-11-2010 15:00:00 6.8 C 4.45 g/m*3 6.8 C 0 km/h
2317 11-11-2010 16:00:00 5.54 C 5.08 g/m*3 5.54 C 0 km/h
2318 11-11-2010 17:00:00 5.28 C 5.48 g/m*3 5.28 C 0 km/h
2319 11-11-2010 18:00:00 5.64 C 5.87 g/m*3 5.64 C 0 km/h
2320 11-11-2010 19:00:00 6.22 C 6.27 g/m*3 6.22 C 0 km/h
2321 11-11-2010 20:00:00 7.5 C 6.34 g/m*3 7.5 C 0 km/h
2322 11-11-2010 21:00:00 8.44 C 6.57 g/m*3 8.44 C 0 km/h
2323 11-11-2010 22:00:00 9.34 C 7.23 g/m*3 9.34 C 0 km/h
2324 11-11-2010 23:00:00 9.78 C 7.69 g/m*3 9.78 C 0 km/h
2325 12-11-2010 00:00:00 9.74 C 6.82 g/m*3 9.74 C 0 km/h
Sensor: Nr:Datum:Temp:Abs-Feuchte:Windchill:Wind:
Aussen-T/F 2326 12-11-2010 01:00:00 9.84 C 5.93 g/m*3 9.84 C 0 km/h
2327 12-11-2010 02:00:00 9.88 C 5.63 g/m*3 9.88 C 0 km/h
2328 12-11-2010 03:00:00 9.6 C 5.81 g/m*3 9.6 C 0 km/h
2329 12-11-2010 04:00:00 9.8 C 5.6 g/m*3 9.8 C 0 km/h
2330 12-11-2010 05:00:00 9.94 C 5.77 g/m*3 9.94 C 0 km/h
2331 12-11-2010 06:00:00 10.62 C 5.77 g/m*3 10.62 C 0 km/h
2332 12-11-2010 07:00:00 10.62 C 5.8 g/m*3 10.62 C 0 km/h
2333 12-11-2010 08:00:00 10.7 C 5.81 g/m*3 10.7 C 0 km/h
2334 12-11-2010 09:00:00 10.84 C 5.85 g/m*3 10.84 C 0 km/h
2335 12-11-2010 10:00:00 10.7 C 6.11 g/m*3 10.7 C 0 km/h
2336 12-11-2010 11:00:00 11.42 C 6.08 g/m*3 11.42 C 0 km/h
2337 12-11-2010 12:00:00 11.88 C 5.99 g/m*3 11.88 C 0 km/h
2338 12-11-2010 13:00:00 11.64 C 6.29 g/m*3 11.64 C 0 km/h
2339 12-11-2010 14:00:00 11.6 C 6.55 g/m*3 11.6 C 0 km/h
2340 12-11-2010 15:00:00 11.6 C 6.57 g/m*3 11.6 C 0 km/h
2341 12-11-2010 16:00:00 11.54 C 6.73 g/m*3 11.54 C 0 km/h
2342 12-11-2010 17:00:00 11.16 C 7.2 g/m*3 11.16 C 0 km/h
2343 12-11-2010 18:00:00 10.48 C 7.73 g/m*3 10.48 C 0 km/h
2344 12-11-2010 19:00:00 10.52 C 8.29 g/m*3 10.52 C 0 km/h
2345 12-11-2010 20:00:00 11.52 C 8.77 g/m*3 11.52 C 0 km/h
2346 12-11-2010 21:00:00 12.16 C 9.28 g/m*3 12.16 C 0 km/h
2347 12-11-2010 22:00:00 13.3 C 9.22 g/m*3 13.3 C 0 km/h
2348 12-11-2010 23:00:00 13.88 C 8.69 g/m*3 13.88 C 0 km/h
2349 13-11-2010 00:00:00 13.82 C 8.85 g/m*3 13.82 C 0 km/h
2350 13-11-2010 01:00:00 13.86 C 9.06 g/m*3 13.86 C 0 km/h
Sensor: Nr:Datum:Temp:Abs-Feuchte:Windchill:Wind:
Aussen-T/F 2351 13-11-2010 02:00:00 13.78 C 9.28 g/m*3 13.78 C 0 km/h
2352 13-11-2010 03:00:00 14.2 C 9.33 g/m*3 14.2 C 0 km/h
2353 13-11-2010 04:00:00 14.14 C 9.25 g/m*3 14.14 C 0 km/h
2354 13-11-2010 05:00:00 14.5 C 9.1 g/m*3 14.5 C 0 km/h
2355 13-11-2010 06:00:00 14.62 C 9.05 g/m*3 14.62 C 0 km/h
2356 13-11-2010 07:00:00 14.72 C 9 g/m*3 14.72 C 0 km/h
2357 13-11-2010 08:00:00 14.72 C 9 g/m*3 14.72 C 0 km/h
2358 13-11-2010 09:00:00 14.18 C 9.15 g/m*3 14.18 C 0 km/h
2359 13-11-2010 10:00:00 14.32 C 9.23 g/m*3 14.32 C 0 km/h
2360 13-11-2010 11:00:00 14.76 C 9 g/m*3 14.76 C 0 km/h
2361 13-11-2010 12:00:00 14.8 C 8.84 g/m*3 14.8 C 0 km/h
2362 13-11-2010 13:00:00 14.76 C 8.85 g/m*3 14.76 C 0 km/h
2363 13-11-2010 14:00:00 14.78 C 8.68 g/m*3 14.78 C 0 km/h
2364 13-11-2010 15:00:00 14.82 C 8.55 g/m*3 14.82 C 0 km/h
2365 13-11-2010 16:00:00 14.68 C 8.68 g/m*3 14.68 C 0 km/h
2366 13-11-2010 17:00:00 14.26 C 8.75 g/m*3 14.26 C 0 km/h
2367 13-11-2010 18:00:00 14.68 C 8.7 g/m*3 14.68 C 0 km/h
2368 13-11-2010 19:00:00 14.94 C 8.51 g/m*3 14.94 C 0 km/h
2369 13-11-2010 20:00:00 15 C 8.28 g/m*3 15 C 0 km/h
2370 13-11-2010 21:00:00 14.52 C 8.39 g/m*3 14.52 C 0 km/h
2371 13-11-2010 22:00:00 14.86 C 8.11 g/m*3 14.86 C 0 km/h
2372 13-11-2010 23:00:00 14.74 C 8.05 g/m*3 14.74 C 0 km/h
2373 14-11-2010 00:00:00 15.08 C 8.07 g/m*3 15.08 C 0 km/h
2374 14-11-2010 01:00:00 14.24 C 8.27 g/m*3 14.24 C 0 km/h
2375 14-11-2010 02:00:00 13.58 C 8.7 g/m*3 13.58 C 0 km/h
Sensor: Nr:Datum:Temp:Abs-Feuchte:Windchill:Wind:
Aussen-T/F 2376 14-11-2010 03:00:00 14.36 C 8.39 g/m*3 14.36 C 0 km/h
2377 14-11-2010 04:00:00 14.02 C 8.38 g/m*3 14.02 C 0 km/h
2378 14-11-2010 05:00:00 13.9 C 8.46 g/m*3 13.9 C 0 km/h
2379 14-11-2010 06:00:00 13.42 C 8.36 g/m*3 13.42 C 0 km/h
2380 14-11-2010 07:00:00 11.92 C 8 g/m*3 11.92 C 0 km/h
2381 14-11-2010 08:00:00 12.66 C 7.53 g/m*3 12.66 C 0 km/h
2382 14-11-2010 09:00:00 14.28 C 7.24 g/m*3 14.28 C 0 km/h
2383 14-11-2010 10:00:00 15.02 C 7.22 g/m*3 15.02 C 0 km/h
2384 14-11-2010 11:00:00 15.44 C 7.22 g/m*3 15.44 C 0 km/h
2385 14-11-2010 12:00:00 16.16 C 7.4 g/m*3 16.16 C 0 km/h
2386 14-11-2010 13:00:00 17.46 C 7.44 g/m*3 17.46 C 0 km/h
2387 14-11-2010 14:00:00 17.64 C 7.25 g/m*3 17.64 C 0 km/h
2388 14-11-2010 15:00:00 17.7 C 7.12 g/m*3 17.7 C 0 km/h
2389 14-11-2010 16:00:00 15.72 C 7.64 g/m*3 15.72 C 0 km/h
2390 14-11-2010 17:00:00 14.74 C 8.13 g/m*3 14.74 C 0 km/h
2391 14-11-2010 18:00:00 14.16 C 8.02 g/m*3 14.16 C 0 km/h
2392 14-11-2010 19:00:00 13.96 C 7.89 g/m*3 13.96 C 0 km/h
2393 14-11-2010 20:00:00 14.02 C 7.68 g/m*3 14.02 C 0 km/h
2394 14-11-2010 21:00:00 13.92 C 7.27 g/m*3 13.92 C 0 km/h
2395 14-11-2010 22:00:00 13.78 C 7.09 g/m*3 13.78 C 0 km/h
2396 14-11-2010 23:00:00 13.42 C 6.94 g/m*3 13.42 C 0 km/h
2397 15-11-2010 00:00:00 12.88 C 6.98 g/m*3 12.88 C 0 km/h
2398 15-11-2010 01:00:00 12.22 C 6.91 g/m*3 12.22 C 0 km/h
2399 15-11-2010 02:00:00 11.78 C 6.92 g/m*3 11.78 C 0 km/h
2400 15-11-2010 03:00:00 10.9 C 7.02 g/m*3 10.9 C 0 km/h
Sensor: Nr:Datum:Temp:Abs-Feuchte:Windchill:Wind:
Aussen-T/F 2401 15-11-2010 04:00:00 10.24 C 6.95 g/m*3 10.24 C 0 km/h
2402 15-11-2010 05:00:00 9.92 C 6.53 g/m*3 9.92 C 0 km/h
2403 15-11-2010 06:00:00 9.34 C 6.27 g/m*3 9.34 C 0 km/h
2404 15-11-2010 07:00:00 8.96 C 6.42 g/m*3 8.96 C 0 km/h
2405 15-11-2010 08:00:00 9.1 C 6.28 g/m*3 9.1 C 0 km/h
2406 15-11-2010 09:00:00 9.16 C 6.07 g/m*3 9.16 C 0 km/h
2407 15-11-2010 10:00:00 9.82 C 5.87 g/m*3 9.82 C 0 km/h
2408 15-11-2010 11:00:00 10.3 C 5.75 g/m*3 10.3 C 0 km/h
2409 15-11-2010 12:00:00 10.84 C 5.57 g/m*3 10.84 C 0 km/h
2410 15-11-2010 13:00:00 10.48 C 5.62 g/m*3 10.48 C 0 km/h
2411 15-11-2010 14:00:00 10.24 C 5.5 g/m*3 10.24 C 0 km/h
2412 15-11-2010 15:00:00 9.68 C 5.54 g/m*3 9.68 C 0 km/h
2413 15-11-2010 16:00:00 8.96 C 5.7 g/m*3 8.96 C 0 km/h
2414 15-11-2010 17:00:00 8.16 C 5.81 g/m*3 8.16 C 0 km/h
2415 15-11-2010 18:00:00 8.14 C 5.89 g/m*3 8.14 C 0 km/h
2416 15-11-2010 19:00:00 7.98 C 5.88 g/m*3 7.98 C 0 km/h
2417 15-11-2010 20:00:00 7.6 C 5.95 g/m*3 7.6 C 0 km/h
2418 15-11-2010 21:00:00 7.16 C 5.93 g/m*3 7.16 C 0 km/h
2419 15-11-2010 22:00:00 6.94 C 5.97 g/m*3 6.94 C 0 km/h
2420 15-11-2010 23:00:00 6.68 C 5.99 g/m*3 6.68 C 0 km/h
2421 16-11-2010 00:00:00 5.88 C 5.95 g/m*3 5.88 C 0 km/h
2422 16-11-2010 01:00:00 5.2 C 5.87 g/m*3 5.2 C 0 km/h
2423 16-11-2010 02:00:00 5.48 C 6.1 g/m*3 5.48 C 0 km/h
2424 16-11-2010 03:00:00 5.86 C 6.21 g/m*3 5.86 C 0 km/h
2425 16-11-2010 04:00:00 5.22 C 5.97 g/m*3 5.22 C 0 km/h
Sensor: Nr:Datum:Temp:Abs-Feuchte:Windchill:Wind:
Aussen-T/F 2426 16-11-2010 05:00:00 5.5 C 6.07 g/m*3 5.5 C 0 km/h
2427 16-11-2010 06:00:00 5.22 C 5.83 g/m*3 5.22 C 0 km/h
2428 16-11-2010 07:00:00 5.18 C 5.79 g/m*3 5.18 C 0 km/h
2429 16-11-2010 08:00:00 5.42 C 5.83 g/m*3 5.42 C 0 km/h
2430 16-11-2010 09:00:00 5.88 C 5.82 g/m*3 5.88 C 0 km/h
2431 16-11-2010 10:00:00 6.26 C 5.74 g/m*3 6.26 C 0 km/h
2432 16-11-2010 11:00:00 6.56 C 5.65 g/m*3 6.56 C 0 km/h
2433 16-11-2010 12:00:00 7.34 C 5.53 g/m*3 7.34 C 0 km/h
2434 16-11-2010 13:00:00 7.54 C 5.59 g/m*3 7.54 C 0 km/h
2435 16-11-2010 14:00:00 7.68 C 5.52 g/m*3 7.68 C 0 km/h
2436 16-11-2010 15:00:00 7.24 C 5.51 g/m*3 7.24 C 0 km/h
2437 16-11-2010 16:00:00 7.08 C 5.53 g/m*3 7.08 C 0 km/h
2438 16-11-2010 17:00:00 6.8 C 5.64 g/m*3 6.8 C 0 km/h
2439 16-11-2010 18:00:00 6.22 C 5.67 g/m*3 6.22 C 0 km/h
2440 16-11-2010 19:00:00 5.92 C 5.75 g/m*3 5.92 C 0 km/h
2441 16-11-2010 20:00:00 5.56 C 5.71 g/m*3 5.56 C 0 km/h
2442 16-11-2010 21:00:00 5.42 C 5.66 g/m*3 5.42 C 0 km/h
2443 16-11-2010 22:00:00 5.24 C 5.61 g/m*3 5.24 C 0 km/h
2444 16-11-2010 23:00:00 4.6 C 5.58 g/m*3 4.6 C 0 km/h
2445 17-11-2010 00:00:00 4.78 C 5.72 g/m*3 4.78 C 0 km/h
2446 17-11-2010 01:00:00 5.08 C 5.62 g/m*3 5.08 C 0 km/h
2447 17-11-2010 02:00:00 5 C 5.59 g/m*3 5 C 0 km/h
2448 17-11-2010 03:00:00 4.92 C 5.66 g/m*3 4.92 C 0 km/h
2449 17-11-2010 04:00:00 4.8 C 5.65 g/m*3 4.8 C 0 km/h
2450 17-11-2010 05:00:00 4.74 C 5.72 g/m*3 4.74 C 0 km/h
Sensor: Nr:Datum:Temp:Abs-Feuchte:Windchill:Wind:
Aussen-T/F 2451 17-11-2010 06:00:00 4.7 C 5.73 g/m*3 4.7 C 0 km/h
2452 17-11-2010 07:00:00 4.72 C 5.67 g/m*3 4.72 C 0 km/h
2453 17-11-2010 08:00:00 5.1 C 4.98 g/m*3 5.1 C 0 km/h
2454 17-11-2010 09:00:00 5.56 C 4.64 g/m*3 5.56 C 0 km/h
2455 17-11-2010 10:00:00 5.78 C 4.66 g/m*3 5.78 C 0 km/h
2456 17-11-2010 11:00:00 6.04 C 4.6 g/m*3 6.04 C 0 km/h
2457 17-11-2010 12:00:00 6.28 C 4.6 g/m*3 6.28 C 0 km/h
2458 17-11-2010 13:00:00 6.54 C 4.63 g/m*3 6.54 C 0 km/h
2459 17-11-2010 14:00:00 6.18 C 4.55 g/m*3 6.18 C 0 km/h
2460 17-11-2010 15:00:00 5.86 C 4.67 g/m*3 5.86 C 0 km/h
2461 17-11-2010 16:00:00 5.54 C 4.8 g/m*3 5.54 C 0 km/h
2462 17-11-2010 17:00:00 5.26 C 4.91 g/m*3 5.26 C 0 km/h
2463 17-11-2010 18:00:00 5.2 C 4.97 g/m*3 5.2 C 0 km/h
2464 17-11-2010 19:00:00 5.3 C 4.99 g/m*3 5.3 C 0 km/h
2465 17-11-2010 20:00:00 5.3 C 5.12 g/m*3 5.3 C 0 km/h
2466 17-11-2010 21:00:00 5.26 C 5.21 g/m*3 5.26 C 0 km/h
2467 17-11-2010 22:00:00 5.04 C 5.34 g/m*3 5.04 C 0 km/h
2468 17-11-2010 23:00:00 4.52 C 5.58 g/m*3 4.52 C 0 km/h
2469 18-11-2010 00:00:00 4.56 C 5.74 g/m*3 4.56 C 0 km/h
2470 18-11-2010 01:00:00 4.28 C 5.71 g/m*3 4.28 C 0 km/h
2471 18-11-2010 02:00:00 4.28 C 5.77 g/m*3 4.28 C 0 km/h
2472 18-11-2010 03:00:00 4.06 C 5.75 g/m*3 4.06 C 0 km/h
2473 18-11-2010 04:00:00 4.28 C 5.88 g/m*3 4.28 C 0 km/h
2474 18-11-2010 05:00:00 4.28 C 5.89 g/m*3 4.28 C 0 km/h
2475 18-11-2010 06:00:00 3.92 C 5.81 g/m*3 3.92 C 0 km/h
Sensor: Nr:Datum:Temp:Abs-Feuchte:Windchill:Wind:
Aussen-T/F 2476 18-11-2010 07:00:00 3.98 C 5.84 g/m*3 3.98 C 0 km/h
2477 18-11-2010 08:00:00 4.22 C 5.94 g/m*3 4.22 C 0 km/h
2478 18-11-2010 09:00:00 4.94 C 6.2 g/m*3 4.94 C 0 km/h
2479 18-11-2010 10:00:00 5.96 C 6.24 g/m*3 5.96 C 0 km/h
2480 18-11-2010 11:00:00 6.9 C 6.02 g/m*3 6.9 C 0 km/h
2481 18-11-2010 12:00:00 7.54 C 5.92 g/m*3 7.54 C 0 km/h
2482 18-11-2010 13:00:00 8.36 C 5.7 g/m*3 8.36 C 0 km/h
2483 18-11-2010 14:00:00 8.14 C 5.32 g/m*3 8.14 C 0 km/h
2484 18-11-2010 15:00:00 7.76 C 5.39 g/m*3 7.76 C 0 km/h
2485 18-11-2010 16:00:00 6.9 C 5.77 g/m*3 6.9 C 0 km/h
2486 18-11-2010 17:00:00 6.12 C 5.87 g/m*3 6.12 C 0 km/h
2487 18-11-2010 18:00:00 6.2 C 6.02 g/m*3 6.2 C 0 km/h
2488 18-11-2010 19:00:00 5.94 C 6.01 g/m*3 5.94 C 0 km/h
2489 18-11-2010 20:00:00 5.58 C 6.23 g/m*3 5.58 C 0 km/h
2490 18-11-2010 21:00:00 5.52 C 6.27 g/m*3 5.52 C 0 km/h
2491 18-11-2010 22:00:00 5.5 C 6.32 g/m*3 5.5 C 0 km/h
2492 18-11-2010 23:00:00 5.64 C 6.42 g/m*3 5.64 C 0 km/h
2493 19-11-2010 00:00:00 5.66 C 6.26 g/m*3 5.66 C 0 km/h
2494 19-11-2010 01:00:00 5.58 C 6.11 g/m*3 5.58 C 0 km/h
2495 19-11-2010 02:00:00 5.34 C 6.17 g/m*3 5.34 C 0 km/h
2496 19-11-2010 03:00:00 5.12 C 6.08 g/m*3 5.12 C 0 km/h
2497 19-11-2010 04:00:00 5.04 C 6.05 g/m*3 5.04 C 0 km/h
2498 19-11-2010 05:00:00 4.94 C 6.04 g/m*3 4.94 C 0 km/h
2499 19-11-2010 06:00:00 4.9 C 6.02 g/m*3 4.9 C 0 km/h
2500 19-11-2010 07:00:00 5.14 C 6.1 g/m*3 5.14 C 0 km/h
Sensor: Nr:Datum:Temp:Abs-Feuchte:Windchill:Wind:
Aussen-T/F 2501 19-11-2010 08:00:00 5.44 C 6.23 g/m*3 5.44 C 0 km/h
2502 19-11-2010 09:00:00 6.32 C 6.26 g/m*3 6.32 C 0 km/h
2503 19-11-2010 10:00:00 7.62 C 6.28 g/m*3 7.62 C 0 km/h
2504 19-11-2010 11:00:00 8.84 C 6.06 g/m*3 8.84 C 0 km/h
2505 19-11-2010 12:00:00 9.52 C 5.85 g/m*3 9.52 C 0 km/h
2506 19-11-2010 13:00:00 9.74 C 5.82 g/m*3 9.74 C 0 km/h
2507 19-11-2010 14:00:00 9.94 C 5.69 g/m*3 9.94 C 0 km/h
2508 19-11-2010 15:00:00 8.5 C 5.93 g/m*3 8.5 C 0 km/h
2509 19-11-2010 16:00:00 7.04 C 6.23 g/m*3 7.04 C 0 km/h
2510 19-11-2010 17:00:00 7.58 C 6.31 g/m*3 7.58 C 0 km/h
2511 19-11-2010 18:00:00 7.62 C 6.32 g/m*3 7.62 C 0 km/h
2512 19-11-2010 19:00:00 6.96 C 6.23 g/m*3 6.96 C 0 km/h
2513 19-11-2010 20:00:00 5.1 C 5.91 g/m*3 5.1 C 0 km/h
2514 19-11-2010 21:00:00 3.86 C 5.62 g/m*3 3.86 C 0 km/h
2515 19-11-2010 22:00:00 3.92 C 5.74 g/m*3 3.92 C 0 km/h
2516 19-11-2010 23:00:00 4.54 C 6.02 g/m*3 4.54 C 0 km/h
2517 20-11-2010 00:00:00 4.04 C 5.86 g/m*3 4.04 C 0 km/h
2518 20-11-2010 01:00:00 4.18 C 5.92 g/m*3 4.18 C 0 km/h
2519 20-11-2010 02:00:00 1.94 C 5.11 g/m*3 1.94 C 0 km/h
2520 20-11-2010 03:00:00 1.34 C 4.91 g/m*3 1.34 C 0 km/h
2521 20-11-2010 04:00:00 2.64 C 5.37 g/m*3 2.64 C 0 km/h
2522 20-11-2010 05:00:00 3.34 C 5.65 g/m*3 3.34 C 0 km/h
2523 20-11-2010 06:00:00 3.76 C 5.82 g/m*3 3.76 C 0 km/h
2524 20-11-2010 07:00:00 4.06 C 5.94 g/m*3 4.06 C 0 km/h
2525 20-11-2010 08:00:00 4.4 C 6.07 g/m*3 4.4 C 0 km/h
Sensor: Nr:Datum:Temp:Abs-Feuchte:Windchill:Wind:
Aussen-T/F 2526 20-11-2010 09:00:00 5.04 C 6.32 g/m*3 5.04 C 0 km/h
2527 20-11-2010 10:00:00 6.02 C 6.63 g/m*3 6.02 C 0 km/h
2528 20-11-2010 11:00:00 7.46 C 6.75 g/m*3 7.46 C 0 km/h
2529 20-11-2010 12:00:00 9.1 C 6.67 g/m*3 9.1 C 0 km/h
2530 20-11-2010 13:00:00 8.88 C 6.37 g/m*3 8.88 C 0 km/h
2531 20-11-2010 14:00:00 8.78 C 6.29 g/m*3 8.78 C 0 km/h
2532 20-11-2010 15:00:00 7.76 C 6.19 g/m*3 7.76 C 0 km/h
2533 20-11-2010 16:00:00 5.34 C 5.87 g/m*3 5.34 C 0 km/h
2534 20-11-2010 17:00:00 4.6 C 5.9 g/m*3 4.6 C 0 km/h
2535 20-11-2010 18:00:00 4.4 C 5.9 g/m*3 4.4 C 0 km/h
2536 20-11-2010 19:00:00 3.92 C 5.75 g/m*3 3.92 C 0 km/h
2537 20-11-2010 20:00:00 3.28 C 5.55 g/m*3 3.28 C 0 km/h
2538 20-11-2010 21:00:00 3.26 C 5.57 g/m*3 3.26 C 0 km/h
2539 20-11-2010 22:00:00 4.32 C 5.98 g/m*3 4.32 C 0 km/h
2540 20-11-2010 23:00:00 4.12 C 5.92 g/m*3 4.12 C 0 km/h
2541 21-11-2010 00:00:00 4.32 C 5.96 g/m*3 4.32 C 0 km/h
2542 21-11-2010 01:00:00 4.48 C 5.75 g/m*3 4.48 C 0 km/h
2543 21-11-2010 02:00:00 4.44 C 5.43 g/m*3 4.44 C 0 km/h
2544 21-11-2010 03:00:00 4.5 C 5.28 g/m*3 4.5 C 0 km/h
2545 21-11-2010 04:00:00 4.56 C 5.06 g/m*3 4.56 C 0 km/h
2546 21-11-2010 05:00:00 4.5 C 4.94 g/m*3 4.5 C 0 km/h
2547 21-11-2010 06:00:00 4.4 C 4.92 g/m*3 4.4 C 0 km/h
2548 21-11-2010 07:00:00 4.38 C 5.05 g/m*3 4.38 C 0 km/h
2549 21-11-2010 08:00:00 4.7 C 5.14 g/m*3 4.7 C 0 km/h
2550 21-11-2010 09:00:00 5 C 4.92 g/m*3 5 C 0 km/h
Sensor: Nr:Datum:Temp:Abs-Feuchte:Windchill:Wind:
Aussen-T/F 2551 21-11-2010 10:00:00 5.36 C 4.82 g/m*3 5.36 C 0 km/h
2552 21-11-2010 11:00:00 5.3 C 4.63 g/m*3 5.3 C 0 km/h
2553 21-11-2010 12:00:00 5.1 C 4.53 g/m*3 5.1 C 0 km/h
2554 21-11-2010 13:00:00 5.12 C 4.45 g/m*3 5.12 C 0 km/h
2555 21-11-2010 14:00:00 4.88 C 4.42 g/m*3 4.88 C 0 km/h
2556 21-11-2010 15:00:00 4.44 C 4.28 g/m*3 4.44 C 0 km/h
2557 21-11-2010 16:00:00 4.16 C 4.38 g/m*3 4.16 C 0 km/h
2558 21-11-2010 17:00:00 3.96 C 4.5 g/m*3 3.96 C 0 km/h
2559 21-11-2010 18:00:00 3.96 C 4.57 g/m*3 3.96 C 0 km/h
2560 21-11-2010 19:00:00 4.06 C 4.61 g/m*3 4.06 C 0 km/h
2561 21-11-2010 20:00:00 4.3 C 4.55 g/m*3 4.3 C 0 km/h
2562 21-11-2010 21:00:00 4.16 C 4.5 g/m*3 4.16 C 0 km/h
2563 21-11-2010 22:00:00 3.76 C 4.66 g/m*3 3.76 C 0 km/h
2564 21-11-2010 23:00:00 3.76 C 4.81 g/m*3 3.76 C 0 km/h
2565 22-11-2010 00:00:00 4.06 C 4.93 g/m*3 4.06 C 0 km/h
2566 22-11-2010 01:00:00 4.08 C 4.92 g/m*3 4.08 C 0 km/h
2567 22-11-2010 02:00:00 4.16 C 4.97 g/m*3 4.16 C 0 km/h
2568 22-11-2010 03:00:00 4.46 C 5.06 g/m*3 4.46 C 0 km/h
2569 22-11-2010 04:00:00 4.86 C 5.01 g/m*3 4.86 C 0 km/h
2570 22-11-2010 05:00:00 4.88 C 4.95 g/m*3 4.88 C 0 km/h
2571 22-11-2010 06:00:00 4.7 C 4.86 g/m*3 4.7 C 0 km/h
2572 22-11-2010 07:00:00 4.64 C 4.79 g/m*3 4.64 C 0 km/h
2573 22-11-2010 08:00:00 4.64 C 4.8 g/m*3 4.64 C 0 km/h
2574 22-11-2010 09:00:00 4.74 C 4.81 g/m*3 4.74 C 0 km/h
2575 22-11-2010 10:00:00 4.82 C 4.86 g/m*3 4.82 C 0 km/h
Sensor: Nr:Datum:Temp:Abs-Feuchte:Windchill:Wind:
Aussen-T/F 2576 22-11-2010 11:00:00 4.48 C 4.95 g/m*3 4.48 C 0 km/h
2577 22-11-2010 12:00:00 4.2 C 5.21 g/m*3 4.2 C 0 km/h
2578 22-11-2010 13:00:00 4.24 C 5.38 g/m*3 4.24 C 0 km/h
2579 22-11-2010 14:00:00 4.78 C 5.25 g/m*3 4.78 C 0 km/h
2580 22-11-2010 15:00:00 4.9 C 5.02 g/m*3 4.9 C 0 km/h
2581 22-11-2010 16:00:00 4.32 C 4.91 g/m*3 4.32 C 0 km/h
2582 22-11-2010 17:00:00 4.04 C 4.99 g/m*3 4.04 C 0 km/h
2583 22-11-2010 18:00:00 4.28 C 4.95 g/m*3 4.28 C 0 km/h
2584 22-11-2010 19:00:00 4.38 C 4.88 g/m*3 4.38 C 0 km/h
2585 22-11-2010 20:00:00 4.42 C 4.8 g/m*3 4.42 C 0 km/h
2586 22-11-2010 21:00:00 4.4 C 4.82 g/m*3 4.4 C 0 km/h
2587 22-11-2010 22:00:00 4.5 C 4.89 g/m*3 4.5 C 0 km/h
2588 22-11-2010 23:00:00 4.4 C 4.94 g/m*3 4.4 C 0 km/h
2589 23-11-2010 00:00:00 4.44 C 4.94 g/m*3 4.44 C 0 km/h
2590 23-11-2010 01:00:00 4.46 C 4.85 g/m*3 4.46 C 0 km/h
2591 23-11-2010 02:00:00 4.26 C 4.62 g/m*3 4.26 C 0 km/h
2592 23-11-2010 03:00:00 4.08 C 4.42 g/m*3 4.08 C 0 km/h
2593 23-11-2010 04:00:00 3.68 C 4.52 g/m*3 3.68 C 0 km/h
2594 23-11-2010 05:00:00 3.2 C 4.65 g/m*3 3.2 C 0 km/h
2595 23-11-2010 06:00:00 2.66 C 5.01 g/m*3 2.66 C 0 km/h
2596 23-11-2010 07:00:00 2.96 C 5.08 g/m*3 2.96 C 0 km/h
2597 23-11-2010 08:00:00 3.18 C 4.89 g/m*3 3.18 C 0 km/h
2598 23-11-2010 09:00:00 3.68 C 4.75 g/m*3 3.68 C 0 km/h
2599 23-11-2010 10:00:00 4.26 C 4.58 g/m*3 4.26 C 0 km/h
2600 23-11-2010 11:00:00 4.72 C 4.66 g/m*3 4.72 C 0 km/h
Sensor: Nr:Datum:Temp:Abs-Feuchte:Windchill:Wind:
Aussen-T/F 2601 23-11-2010 12:00:00 5.28 C 4.47 g/m*3 5.28 C 0 km/h
2602 23-11-2010 13:00:00 6.04 C 4.37 g/m*3 6.04 C 0 km/h
2603 23-11-2010 14:00:00 5.74 C 4.25 g/m*3 5.74 C 0 km/h
2604 23-11-2010 15:00:00 5.54 C 4.25 g/m*3 5.54 C 0 km/h
2605 23-11-2010 16:00:00 5.38 C 4.47 g/m*3 5.38 C 0 km/h
2606 23-11-2010 17:00:00 5.32 C 4.46 g/m*3 5.32 C 0 km/h
2607 23-11-2010 18:00:00 5.28 C 4.42 g/m*3 5.28 C 0 km/h
2608 23-11-2010 19:00:00 5.2 C 4.5 g/m*3 5.2 C 0 km/h
2609 23-11-2010 20:00:00 5.14 C 4.46 g/m*3 5.14 C 0 km/h
2610 23-11-2010 21:00:00 4.98 C 4.33 g/m*3 4.98 C 0 km/h
2611 23-11-2010 22:00:00 4.95 C 4.33 g/m*3 4.95 C 0 km/h
2612 23-11-2010 23:00:00 4.64 C 4.39 g/m*3 4.64 C 0 km/h
2613 24-11-2010 00:00:00 4.32 C 4.44 g/m*3 4.32 C 0 km/h
2614 24-11-2010 01:00:00 3.96 C 4.46 g/m*3 3.96 C 0 km/h
2615 24-11-2010 02:00:00 3.42 C 4.5 g/m*3 3.42 C 0 km/h
2616 24-11-2010 03:00:00 3.52 C 4.62 g/m*3 3.52 C 0 km/h
2617 24-11-2010 04:00:00 3.46 C 4.72 g/m*3 3.46 C 0 km/h
2618 24-11-2010 05:00:00 2.92 C 5 g/m*3 2.92 C 0 km/h
2619 24-11-2010 06:00:00 3.2 C 5.07 g/m*3 3.2 C 0 km/h
2620 24-11-2010 07:00:00 3.34 C 5.01 g/m*3 3.34 C 0 km/h
2621 24-11-2010 08:00:00 3.42 C 5.08 g/m*3 3.42 C 0 km/h
2622 24-11-2010 09:00:00 4.22 C 4.99 g/m*3 4.22 C 0 km/h
2623 24-11-2010 10:00:00 5.22 C 4.7 g/m*3 5.22 C 0 km/h
2624 24-11-2010 11:00:00 5.22 C 4.78 g/m*3 5.22 C 0 km/h
2625 24-11-2010 12:00:00 5.8 C 4.57 g/m*3 5.8 C 0 km/h
Sensor: Nr:Datum:Temp:Abs-Feuchte:Windchill:Wind:
Aussen-T/F 2626 24-11-2010 13:00:00 5.36 C 4.61 g/m*3 5.36 C 0 km/h
2627 24-11-2010 14:00:00 4.48 C 5.08 g/m*3 4.48 C 0 km/h
2628 24-11-2010 15:00:00 3.48 C 5.24 g/m*3 3.48 C 0 km/h
2629 24-11-2010 16:00:00 3.3 C 5.22 g/m*3 3.3 C 0 km/h
2630 24-11-2010 17:00:00 2.28 C 4.88 g/m*3 2.28 C 0 km/h
2631 24-11-2010 18:00:00 1.64 C 4.9 g/m*3 1.64 C 0 km/h
2632 24-11-2010 19:00:00 2.02 C 5.09 g/m*3 2.02 C 0 km/h
2633 24-11-2010 20:00:00 1.42 C 4.91 g/m*3 1.42 C 0 km/h
2634 24-11-2010 21:00:00 1.42 C 4.91 g/m*3 1.42 C 0 km/h
2635 24-11-2010 22:00:00 2.14 C 5.13 g/m*3 2.14 C 0 km/h
2636 24-11-2010 23:00:00 2.4 C 5.06 g/m*3 2.4 C 0 km/h
2637 25-11-2010 00:00:00 2.5 C 4.93 g/m*3 2.5 C 0 km/h
2638 25-11-2010 01:00:00 2.94 C 4.82 g/m*3 2.94 C 0 km/h
2639 25-11-2010 02:00:00 2.76 C 4.55 g/m*3 2.76 C 0 km/h
2640 25-11-2010 03:00:00 2.82 C 4.43 g/m*3 2.82 C 0 km/h
2641 25-11-2010 04:00:00 2.02 C 4.2 g/m*3 2.02 C 0 km/h
2642 25-11-2010 05:00:00 1.3 C 4.08 g/m*3 1.3 C 0 km/h
2643 25-11-2010 06:00:00 0.66 C 4.12 g/m*3 0.66 C 0 km/h
2644 25-11-2010 07:00:00 0.06 C 4.24 g/m*3 0.06 C 0 km/h
2645 25-11-2010 08:00:00 -0.28 C 4.23 g/m*3 -0.28 C 0 km/h
2646 25-11-2010 09:00:00 0.58 C 4.45 g/m*3 0.58 C 0 km/h
2647 25-11-2010 10:00:00 0.8 C 4.42 g/m*3 0.8 C 0 km/h
2648 25-11-2010 11:00:00 1.76 C 4.53 g/m*3 1.76 C 0 km/h
2649 25-11-2010 12:00:00 2 C 4.51 g/m*3 2 C 0 km/h
2650 25-11-2010 13:00:00 3.48 C 4.22 g/m*3 3.48 C 0 km/h
Sensor: Nr:Datum:Temp:Abs-Feuchte:Windchill:Wind:
Aussen-T/F 2651 25-11-2010 14:00:00 3.66 C 4.03 g/m*3 3.66 C 0 km/h
2652 25-11-2010 15:00:00 3.28 C 3.96 g/m*3 3.28 C 0 km/h
2653 25-11-2010 16:00:00 2.04 C 4.21 g/m*3 2.04 C 0 km/h
2654 25-11-2010 17:00:00 2.04 C 4.35 g/m*3 2.04 C 0 km/h
2655 25-11-2010 18:00:00 1.74 C 4.42 g/m*3 1.74 C 0 km/h
2656 25-11-2010 19:00:00 0.98 C 4.38 g/m*3 0.98 C 0 km/h
2657 25-11-2010 20:00:00 0.7 C 4.4 g/m*3 0.7 C 0 km/h
2658 25-11-2010 21:00:00 1.24 C 4.5 g/m*3 1.24 C 0 km/h
2659 25-11-2010 22:00:00 1.34 C 4.49 g/m*3 1.34 C 0 km/h
2660 25-11-2010 23:00:00 1.36 C 4.52 g/m*3 1.36 C 0 km/h
2661 26-11-2010 00:00:00 1.4 C 4.51 g/m*3 1.4 C 0 km/h
2662 26-11-2010 01:00:00 1.06 C 4.49 g/m*3 1.06 C 0 km/h
2663 26-11-2010 02:00:00 1.06 C 4.47 g/m*3 1.06 C 0 km/h
2664 26-11-2010 03:00:00 0.74 C 4.37 g/m*3 0.74 C 0 km/h
2665 26-11-2010 04:00:00 0.32 C 4.4 g/m*3 0.32 C 0 km/h
2666 26-11-2010 05:00:00 0.26 C 4.47 g/m*3 0.26 C 0 km/h
2667 26-11-2010 06:00:00 0.22 C 4.49 g/m*3 0.22 C 0 km/h
2668 26-11-2010 07:00:00 0 C 4.46 g/m*3 0 C 0 km/h
2669 26-11-2010 08:00:00 0.04 C 4.49 g/m*3 0.04 C 0 km/h
2670 26-11-2010 09:00:00 0.14 C 4.55 g/m*3 0.14 C 0 km/h
2671 26-11-2010 10:00:00 0.58 C 4.66 g/m*3 0.58 C 0 km/h
2672 26-11-2010 11:00:00 1.12 C 4.61 g/m*3 1.12 C 0 km/h
2673 26-11-2010 12:00:00 0.84 C 4.41 g/m*3 0.84 C 0 km/h
2674 26-11-2010 13:00:00 0.9 C 4.37 g/m*3 0.9 C 0 km/h
2675 26-11-2010 14:00:00 1.6 C 4.17 g/m*3 1.6 C 0 km/h
Sensor: Nr:Datum:Temp:Abs-Feuchte:Windchill:Wind:
Aussen-T/F 2676 26-11-2010 15:00:00 0.8 C 3.8 g/m*3 0.8 C 0 km/h
2677 26-11-2010 16:00:00 -1.48 C 3.69 g/m*3 -1.48 C 0 km/h
2678 26-11-2010 17:00:00 -2.36 C 3.65 g/m*3 -2.36 C 0 km/h
2679 26-11-2010 18:00:00 -1.38 C 4 g/m*3 -1.38 C 0 km/h
2680 26-11-2010 19:00:00 -1.54 C 3.96 g/m*3 -1.54 C 0 km/h
2681 26-11-2010 20:00:00 -1.96 C 3.85 g/m*3 -1.96 C 0 km/h
2682 26-11-2010 21:00:00 -2.34 C 3.75 g/m*3 -2.34 C 0 km/h
2683 26-11-2010 22:00:00 -3.24 C 3.5 g/m*3 -3.24 C 0 km/h
2684 26-11-2010 23:00:00 -3.76 C 3.35 g/m*3 -3.76 C 0 km/h
2685 27-11-2010 00:00:00 -4.08 C 3.27 g/m*3 -4.08 C 0 km/h
2686 27-11-2010 01:00:00 -3.54 C 3.39 g/m*3 -3.54 C 0 km/h
2687 27-11-2010 02:00:00 -3.94 C 3.25 g/m*3 -3.94 C 0 km/h
2688 27-11-2010 03:00:00 -3.16 C 3.46 g/m*3 -3.16 C 0 km/h
2689 27-11-2010 04:00:00 -4.12 C 3.19 g/m*3 -4.12 C 0 km/h
2690 27-11-2010 05:00:00 -4.28 C 3.15 g/m*3 -4.28 C 0 km/h
2691 27-11-2010 06:00:00 -3.52 C 3.35 g/m*3 -3.52 C 0 km/h
2692 27-11-2010 07:00:00 -3.54 C 3.33 g/m*3 -3.54 C 0 km/h
2693 27-11-2010 08:00:00 -3 C 3.48 g/m*3 -3 C 0 km/h
2694 27-11-2010 09:00:00 -1.8 C 3.8 g/m*3 -1.8 C 0 km/h
2695 27-11-2010 10:00:00 -0.84 C 4.06 g/m*3 -0.84 C 0 km/h
2696 27-11-2010 11:00:00 -0.2 C 4.19 g/m*3 -0.2 C 0 km/h
2697 27-11-2010 12:00:00 0.38 C 4 g/m*3 0.38 C 0 km/h
2698 27-11-2010 13:00:00 0.86 C 3.91 g/m*3 0.86 C 0 km/h
2699 27-11-2010 14:00:00 1.48 C 3.79 g/m*3 1.48 C 0 km/h
2700 27-11-2010 15:00:00 0.76 C 3.8 g/m*3 0.76 C 0 km/h
Sensor: Nr:Datum:Temp:Abs-Feuchte:Windchill:Wind:
Aussen-T/F 2701 27-11-2010 16:00:00 -0.72 C 3.59 g/m*3 -0.72 C 0 km/h
2702 27-11-2010 17:00:00 -0.86 C 3.65 g/m*3 -0.86 C 0 km/h
2703 27-11-2010 18:00:00 -1.58 C 3.59 g/m*3 -1.58 C 0 km/h
2704 27-11-2010 19:00:00 -0.92 C 3.75 g/m*3 -0.92 C 0 km/h
2705 27-11-2010 20:00:00 -1.5 C 3.52 g/m*3 -1.5 C 0 km/h
2706 27-11-2010 21:00:00 -3.1 C 3.27 g/m*3 -3.1 C 0 km/h
2707 27-11-2010 22:00:00 -3.36 C 3.3 g/m*3 -3.36 C 0 km/h
2708 27-11-2010 23:00:00 -3.22 C 3.31 g/m*3 -3.22 C 0 km/h
2709 28-11-2010 00:00:00 -3.76 C 3.2 g/m*3 -3.76 C 0 km/h
2710 28-11-2010 01:00:00 -2.76 C 3.5 g/m*3 -2.76 C 0 km/h
2711 28-11-2010 02:00:00 -2.18 C 3.6 g/m*3 -2.18 C 0 km/h
2712 28-11-2010 03:00:00 -3.4 C 3.22 g/m*3 -3.4 C 0 km/h
2713 28-11-2010 04:00:00 -2.64 C 3.47 g/m*3 -2.64 C 0 km/h
2714 28-11-2010 05:00:00 -2.72 C 3.42 g/m*3 -2.72 C 0 km/h
2715 28-11-2010 06:00:00 -2.18 C 3.56 g/m*3 -2.18 C 0 km/h
2716 28-11-2010 07:00:00 -1.88 C 3.58 g/m*3 -1.88 C 0 km/h
2717 28-11-2010 08:00:00 -1.66 C 3.6 g/m*3 -1.66 C 0 km/h
2718 28-11-2010 09:00:00 -1.18 C 3.62 g/m*3 -1.18 C 0 km/h
2719 28-11-2010 10:00:00 -0.38 C 3.63 g/m*3 -0.38 C 0 km/h
2720 28-11-2010 11:00:00 -0.18 C 3.55 g/m*3 -0.18 C 0 km/h
2721 28-11-2010 12:00:00 0.02 C 3.59 g/m*3 0.02 C 0 km/h
2722 28-11-2010 13:00:00 0.14 C 3.63 g/m*3 0.14 C 0 km/h
2723 28-11-2010 14:00:00 0.5 C 3.69 g/m*3 0.5 C 0 km/h
2724 28-11-2010 15:00:00 0.54 C 3.71 g/m*3 0.54 C 0 km/h
2725 28-11-2010 16:00:00 -0.34 C 3.68 g/m*3 -0.34 C 0 km/h
Sensor: Nr:Datum:Temp:Abs-Feuchte:Windchill:Wind:
Aussen-T/F 2726 28-11-2010 17:00:00 -0.64 C 3.67 g/m*3 -0.64 C 0 km/h
2727 28-11-2010 18:00:00 -1.1 C 3.71 g/m*3 -1.1 C 0 km/h
2728 28-11-2010 19:00:00 -0.7 C 3.7 g/m*3 -0.7 C 0 km/h
2729 28-11-2010 20:00:00 -0.8 C 3.55 g/m*3 -0.8 C 0 km/h
2730 28-11-2010 21:00:00 -0.86 C 3.46 g/m*3 -0.86 C 0 km/h
2731 28-11-2010 22:00:00 -1.6 C 3.36 g/m*3 -1.6 C 0 km/h
2732 28-11-2010 23:00:00 -2.04 C 3.42 g/m*3 -2.04 C 0 km/h
2733 29-11-2010 00:00:00 -1.48 C 3.37 g/m*3 -1.48 C 0 km/h
2734 29-11-2010 01:00:00 -1.8 C 3.31 g/m*3 -1.8 C 0 km/h
2735 29-11-2010 02:00:00 -1.88 C 3.26 g/m*3 -1.88 C 0 km/h
2736 29-11-2010 03:00:00 -2 C 3.21 g/m*3 -2 C 0 km/h
2737 29-11-2010 04:00:00 -2 C 3.22 g/m*3 -2 C 0 km/h
2738 29-11-2010 05:00:00 -1.82 C 3.27 g/m*3 -1.82 C 0 km/h
2739 29-11-2010 06:00:00 -1.68 C 3.31 g/m*3 -1.68 C 0 km/h
2740 29-11-2010 07:00:00 -1.66 C 3.29 g/m*3 -1.66 C 0 km/h
2741 29-11-2010 08:00:00 -1.6 C 3.33 g/m*3 -1.6 C 0 km/h
2742 29-11-2010 09:00:00 -1.38 C 3.3 g/m*3 -1.38 C 0 km/h
2743 29-11-2010 10:00:00 -1.3 C 3.37 g/m*3 -1.3 C 0 km/h
2744 29-11-2010 11:00:00 -1.22 C 3.45 g/m*3 -1.22 C 0 km/h
2745 29-11-2010 12:00:00 -1.14 C 3.52 g/m*3 -1.14 C 0 km/h
2746 29-11-2010 13:00:00 -0.84 C 3.57 g/m*3 -0.84 C 0 km/h
2747 29-11-2010 14:00:00 -1.02 C 3.67 g/m*3 -1.02 C 0 km/h
2748 29-11-2010 15:00:00 -1.3 C 3.72 g/m*3 -1.3 C 0 km/h
2749 29-11-2010 16:00:00 -1.46 C 3.73 g/m*3 -1.46 C 0 km/h
2750 29-11-2010 17:00:00 -1.68 C 3.71 g/m*3 -1.68 C 0 km/h
Sensor: Nr:Datum:Temp:Abs-Feuchte:Windchill:Wind:
Aussen-T/F 2751 29-11-2010 18:00:00 -1.68 C 3.75 g/m*3 -1.68 C 0 km/h
2752 29-11-2010 19:00:00 -1.7 C 3.75 g/m*3 -1.7 C 0 km/h
2753 29-11-2010 20:00:00 -1.64 C 3.8 g/m*3 -1.64 C 0 km/h
2754 29-11-2010 21:00:00 -1.66 C 3.8 g/m*3 -1.66 C 0 km/h
2755 29-11-2010 22:00:00 -1.78 C 3.77 g/m*3 -1.78 C 0 km/h
2756 29-11-2010 23:00:00 -1.68 C 3.83 g/m*3 -1.68 C 0 km/h
2757 30-11-2010 00:00:00 -1.78 C 3.81 g/m*3 -1.78 C 0 km/h
2758 30-11-2010 01:00:00 -1.96 C 3.76 g/m*3 -1.96 C 0 km/h
2759 30-11-2010 02:00:00 -1.68 C 3.84 g/m*3 -1.68 C 0 km/h
2760 30-11-2010 03:00:00 -1.7 C 3.82 g/m*3 -1.7 C 0 km/h
2761 30-11-2010 04:00:00 -2.36 C 3.62 g/m*3 -2.36 C 0 km/h
2762 30-11-2010 05:00:00 -2.4 C 3.62 g/m*3 -2.4 C 0 km/h
2763 30-11-2010 06:00:00 -2.26 C 3.66 g/m*3 -2.26 C 0 km/h
2764 30-11-2010 07:00:00 -2.28 C 3.66 g/m*3 -2.28 C 0 km/h
2765 30-11-2010 08:00:00 -2.08 C 3.66 g/m*3 -2.08 C 0 km/h
2766 30-11-2010 09:00:00 -2 C 3.58 g/m*3 -2 C 0 km/h
2767 30-11-2010 10:00:00 -1.82 C 3.51 g/m*3 -1.82 C 0 km/h
2768 30-11-2010 11:00:00 -1.5 C 3.44 g/m*3 -1.5 C 0 km/h
2769 30-11-2010 12:00:00 -1.3 C 3.28 g/m*3 -1.3 C 0 km/h
2770 30-11-2010 13:00:00 -1.08 C 3.25 g/m*3 -1.08 C 0 km/h
2771 30-11-2010 14:00:00 -1.32 C 3.2 g/m*3 -1.32 C 0 km/h
2772 30-11-2010 15:00:00 -1.48 C 3.23 g/m*3 -1.48 C 0 km/h
2773 30-11-2010 16:00:00 -1.5 C 3.23 g/m*3 -1.5 C 0 km/h
2774 30-11-2010 17:00:00 -1.92 C 3.21 g/m*3 -1.92 C 0 km/h
2775 30-11-2010 18:00:00 -2.1 C 3.18 g/m*3 -2.1 C 0 km/h
Sensor: Nr:Datum:Temp:Abs-Feuchte:Windchill:Wind:
Aussen-T/F 2776 30-11-2010 19:00:00 -2.1 C 3.17 g/m*3 -2.1 C 0 km/h
2777 30-11-2010 20:00:00 -2.26 C 3.11 g/m*3 -2.26 C 0 km/h
2778 30-11-2010 21:00:00 -2.4 C 3.05 g/m*3 -2.4 C 0 km/h
2779 30-11-2010 22:00:00 -2.58 C 2.94 g/m*3 -2.58 C 0 km/h
2780 30-11-2010 23:00:00 -2.76 C 2.83 g/m*3 -2.76 C 0 km/h
2781 01-12-2010 00:00:00 -3 C 2.76 g/m*3 -3 C 0 km/h
2782 01-12-2010 01:00:00 -3.3 C 2.67 g/m*3 -3.3 C 0 km/h
2783 01-12-2010 02:00:00 -3.88 C 2.51 g/m*3 -3.88 C 0 km/h
2784 01-12-2010 03:00:00 -4.34 C 2.36 g/m*3 -4.34 C 0 km/h
2785 01-12-2010 04:00:00 -5 C 2.23 g/m*3 -5 C 0 km/h
2786 01-12-2010 05:00:00 -5.4 C 2.18 g/m*3 -5.4 C 0 km/h
2787 01-12-2010 06:00:00 -5.56 C 2.14 g/m*3 -5.56 C 0 km/h
2788 01-12-2010 07:00:00 -5.9 C 2.05 g/m*3 -5.9 C 0 km/h
2789 01-12-2010 08:00:00 -6.26 C 1.95 g/m*3 -6.26 C 0 km/h
2790 01-12-2010 09:00:00 -5.96 C 1.92 g/m*3 -5.96 C 0 km/h
2791 01-12-2010 10:00:00 -5.54 C 1.95 g/m*3 -5.54 C 0 km/h
2792 01-12-2010 11:00:00 -5.48 C 1.97 g/m*3 -5.48 C 0 km/h
2793 01-12-2010 12:00:00 -5.82 C 1.93 g/m*3 -5.82 C 0 km/h
2794 01-12-2010 13:00:00 -6.1 C 1.85 g/m*3 -6.1 C 0 km/h
2795 01-12-2010 14:00:00 -6.18 C 1.79 g/m*3 -6.18 C 0 km/h
2796 01-12-2010 15:00:00 -6.28 C 1.78 g/m*3 -6.28 C 0 km/h
2797 01-12-2010 16:00:00 -6.58 C 1.75 g/m*3 -6.58 C 0 km/h
2798 01-12-2010 17:00:00 -6.58 C 1.8 g/m*3 -6.58 C 0 km/h
2799 01-12-2010 18:00:00 -6.54 C 1.82 g/m*3 -6.54 C 0 km/h
2800 01-12-2010 19:00:00 -6.58 C 1.81 g/m*3 -6.58 C 0 km/h
Sensor: Nr:Datum:Temp:Abs-Feuchte:Windchill:Wind:
Aussen-T/F 2801 01-12-2010 20:00:00 -6.64 C 1.77 g/m*3 -6.64 C 0 km/h
2802 01-12-2010 21:00:00 -6.74 C 1.74 g/m*3 -6.74 C 0 km/h
2803 01-12-2010 22:00:00 -6.86 C 1.73 g/m*3 -6.86 C 0 km/h
2804 01-12-2010 23:00:00 -7.06 C 1.77 g/m*3 -7.06 C 0 km/h
2805 02-12-2010 00:00:00 -7.14 C 1.81 g/m*3 -7.14 C 0 km/h
2806 02-12-2010 01:00:00 -7.12 C 1.79 g/m*3 -7.12 C 0 km/h
2807 02-12-2010 02:00:00 -7.28 C 1.71 g/m*3 -7.28 C 0 km/h
2808 02-12-2010 03:00:00 -7.32 C 1.74 g/m*3 -7.32 C 0 km/h
2809 02-12-2010 04:00:00 -7.5 C 1.78 g/m*3 -7.5 C 0 km/h
2810 02-12-2010 05:00:00 -7.64 C 1.79 g/m*3 -7.64 C 0 km/h
2811 02-12-2010 06:00:00 -7.76 C 1.84 g/m*3 -7.76 C 0 km/h
2812 02-12-2010 07:00:00 -7.72 C 1.89 g/m*3 -7.72 C 0 km/h
2813 02-12-2010 08:00:00 -7.7 C 1.87 g/m*3 -7.7 C 0 km/h
2814 02-12-2010 09:00:00 -7.1 C 1.96 g/m*3 -7.1 C 0 km/h
2815 02-12-2010 10:00:00 -6.14 C 1.99 g/m*3 -6.14 C 0 km/h
2816 02-12-2010 11:00:00 -5.62 C 2.03 g/m*3 -5.62 C 0 km/h
2817 02-12-2010 12:00:00 -6.08 C 2.05 g/m*3 -6.08 C 0 km/h
2818 02-12-2010 13:00:00 -5.3 C 2.15 g/m*3 -5.3 C 0 km/h
2819 02-12-2010 14:00:00 -5.6 C 2.16 g/m*3 -5.6 C 0 km/h
2820 02-12-2010 15:00:00 -4.74 C 2.28 g/m*3 -4.74 C 0 km/h
2821 02-12-2010 16:00:00 -5.12 C 2.3 g/m*3 -5.12 C 0 km/h
2822 02-12-2010 17:00:00 -7.36 C 2.12 g/m*3 -7.36 C 0 km/h
2823 02-12-2010 18:00:00 -8.02 C 2.2 g/m*3 -8.02 C 0 km/h
2824 02-12-2010 19:00:00 -8.42 C 2.16 g/m*3 -8.42 C 0 km/h
2825 02-12-2010 20:00:00 -8.04 C 2.25 g/m*3 -8.04 C 0 km/h
Sensor: Nr:Datum:Temp:Abs-Feuchte:Windchill:Wind:
Aussen-T/F 2826 02-12-2010 21:00:00 -7.54 C 2.33 g/m*3 -7.54 C 0 km/h
2827 02-12-2010 22:00:00 -8.54 C 2.13 g/m*3 -8.54 C 0 km/h
2828 02-12-2010 23:00:00 -7.96 C 2.23 g/m*3 -7.96 C 0 km/h
2829 03-12-2010 00:00:00 -9.88 C 1.86 g/m*3 -9.88 C 0 km/h
2830 03-12-2010 01:00:00 -9.66 C 1.91 g/m*3 -9.66 C 0 km/h
2831 03-12-2010 02:00:00 -9.12 C 2 g/m*3 -9.12 C 0 km/h
2832 03-12-2010 03:00:00 -8.78 C 2.04 g/m*3 -8.78 C 0 km/h
2833 03-12-2010 04:00:00 -8.06 C 2.15 g/m*3 -8.06 C 0 km/h
2834 03-12-2010 05:00:00 -8.68 C 2.03 g/m*3 -8.68 C 0 km/h
2835 03-12-2010 06:00:00 -9.48 C 1.91 g/m*3 -9.48 C 0 km/h
2836 03-12-2010 07:00:00 -8.92 C 2.03 g/m*3 -8.92 C 0 km/h
2837 03-12-2010 08:00:00 -9.92 C 1.85 g/m*3 -9.92 C 0 km/h
2838 03-12-2010 09:00:00 -9.8 C 1.85 g/m*3 -9.8 C 0 km/h
2839 03-12-2010 10:00:00 -8.1 C 2.05 g/m*3 -8.1 C 0 km/h
2840 03-12-2010 11:00:00 -6.32 C 2.23 g/m*3 -6.32 C 0 km/h
2841 03-12-2010 12:00:00 -5.16 C 2.28 g/m*3 -5.16 C 0 km/h
2842 03-12-2010 13:00:00 -4.74 C 2.32 g/m*3 -4.74 C 0 km/h
2843 03-12-2010 14:00:00 -4.26 C 2.38 g/m*3 -4.26 C 0 km/h
2844 03-12-2010 15:00:00 -4.68 C 2.4 g/m*3 -4.68 C 0 km/h
2845 03-12-2010 16:00:00 -6.18 C 2.37 g/m*3 -6.18 C 0 km/h
2846 03-12-2010 17:00:00 -6.98 C 2.34 g/m*3 -6.98 C 0 km/h
2847 03-12-2010 18:00:00 -7.02 C 2.36 g/m*3 -7.02 C 0 km/h
2848 03-12-2010 19:00:00 -5.74 C 2.63 g/m*3 -5.74 C 0 km/h
2849 03-12-2010 20:00:00 -5.36 C 2.64 g/m*3 -5.36 C 0 km/h
2850 03-12-2010 21:00:00 -5.72 C 2.55 g/m*3 -5.72 C 0 km/h
Sensor: Nr:Datum:Temp:Abs-Feuchte:Windchill:Wind:
Aussen-T/F 2851 03-12-2010 22:00:00 -6.78 C 2.39 g/m*3 -6.78 C 0 km/h
2852 03-12-2010 23:00:00 -7.92 C 2.24 g/m*3 -7.92 C 0 km/h
2853 04-12-2010 00:00:00 -8.5 C 2.17 g/m*3 -8.5 C 0 km/h
2854 04-12-2010 01:00:00 -9.1 C 2.06 g/m*3 -9.1 C 0 km/h
2855 04-12-2010 02:00:00 -9.26 C 2.02 g/m*3 -9.26 C 0 km/h
2856 04-12-2010 03:00:00 -9.94 C 1.9 g/m*3 -9.94 C 0 km/h
2857 04-12-2010 04:00:00 -7.96 C 2.24 g/m*3 -7.96 C 0 km/h
2858 04-12-2010 05:00:00 -5.52 C 2.67 g/m*3 -5.52 C 0 km/h
2859 04-12-2010 06:00:00 -4.94 C 2.59 g/m*3 -4.94 C 0 km/h
2860 04-12-2010 07:00:00 -5.14 C 2.58 g/m*3 -5.14 C 0 km/h
2861 04-12-2010 08:00:00 -3.94 C 2.67 g/m*3 -3.94 C 0 km/h
2862 04-12-2010 09:00:00 -3.1 C 2.58 g/m*3 -3.1 C 0 km/h
2863 04-12-2010 10:00:00 -2.12 C 2.68 g/m*3 -2.12 C 0 km/h
2864 04-12-2010 11:00:00 -1.38 C 2.45 g/m*3 -1.38 C 0 km/h
2865 04-12-2010 12:00:00 -0.86 C 2.46 g/m*3 -0.86 C 0 km/h
2866 04-12-2010 13:00:00 -1.4 C 2.41 g/m*3 -1.4 C 0 km/h
2867 04-12-2010 14:00:00 -1 C 2.47 g/m*3 -1 C 0 km/h
2868 04-12-2010 15:00:00 -0.92 C 2.52 g/m*3 -0.92 C 0 km/h
2869 04-12-2010 16:00:00 -1.22 C 2.64 g/m*3 -1.22 C 0 km/h
2870 04-12-2010 17:00:00 -1.08 C 2.76 g/m*3 -1.08 C 0 km/h
2871 04-12-2010 18:00:00 -0.9 C 2.79 g/m*3 -0.9 C 0 km/h
2872 04-12-2010 19:00:00 -0.92 C 2.79 g/m*3 -0.92 C 0 km/h
2873 04-12-2010 20:00:00 -0.96 C 2.87 g/m*3 -0.96 C 0 km/h
2874 04-12-2010 21:00:00 -1.1 C 3.13 g/m*3 -1.1 C 0 km/h
2875 04-12-2010 22:00:00 -1.18 C 3.46 g/m*3 -1.18 C 0 km/h
Sensor: Nr:Datum:Temp:Abs-Feuchte:Windchill:Wind:
Aussen-T/F 2876 04-12-2010 23:00:00 -1.12 C 3.51 g/m*3 -1.12 C 0 km/h
2877 05-12-2010 00:00:00 -0.5 C 3.48 g/m*3 -0.5 C 0 km/h
2878 05-12-2010 01:00:00 0.12 C 3.31 g/m*3 0.12 C 0 km/h
2879 05-12-2010 02:00:00 0.02 C 3.49 g/m*3 0.02 C 0 km/h
2880 05-12-2010 03:00:00 0.12 C 3.53 g/m*3 0.12 C 0 km/h
2881 05-12-2010 04:00:00 0.12 C 3.58 g/m*3 0.12 C 0 km/h
2882 05-12-2010 05:00:00 0.22 C 3.25 g/m*3 0.22 C 0 km/h
2883 05-12-2010 06:00:00 0.22 C 3.02 g/m*3 0.22 C 0 km/h
2884 05-12-2010 07:00:00 -0.08 C 2.91 g/m*3 -0.08 C 0 km/h
2885 05-12-2010 08:00:00 -0.32 C 2.9 g/m*3 -0.32 C 0 km/h
2886 05-12-2010 09:00:00 0.02 C 2.96 g/m*3 0.02 C 0 km/h
2887 05-12-2010 10:00:00 1.68 C 2.83 g/m*3 1.68 C 0 km/h
2888 05-12-2010 11:00:00 2.54 C 2.77 g/m*3 2.54 C 0 km/h
2889 05-12-2010 12:00:00 3.1 C 2.67 g/m*3 3.1 C 0 km/h
2890 05-12-2010 13:00:00 3.4 C 2.63 g/m*3 3.4 C 0 km/h
2891 05-12-2010 14:00:00 3.24 C 2.6 g/m*3 3.24 C 0 km/h
2892 05-12-2010 15:00:00 2.22 C 3.05 g/m*3 2.22 C 0 km/h
2893 05-12-2010 16:00:00 1.24 C 3.28 g/m*3 1.24 C 0 km/h
2894 05-12-2010 17:00:00 1.38 C 3.4 g/m*3 1.38 C 0 km/h
2895 05-12-2010 18:00:00 0.88 C 3.81 g/m*3 0.88 C 0 km/h
2896 05-12-2010 19:00:00 0.86 C 3.97 g/m*3 0.86 C 0 km/h
2897 05-12-2010 20:00:00 0.62 C 4.08 g/m*3 0.62 C 0 km/h
2898 05-12-2010 21:00:00 0.34 C 4.27 g/m*3 0.34 C 0 km/h
2899 05-12-2010 22:00:00 0.36 C 4.35 g/m*3 0.36 C 0 km/h
2900 05-12-2010 23:00:00 0.2 C 4.33 g/m*3 0.2 C 0 km/h
Sensor: Nr:Datum:Temp:Abs-Feuchte:Windchill:Wind:
Aussen-T/F 2901 06-12-2010 00:00:00 0.12 C 4.35 g/m*3 0.12 C 0 km/h
2902 06-12-2010 01:00:00 0.12 C 4.38 g/m*3 0.12 C 0 km/h
2903 06-12-2010 02:00:00 0.1 C 4.39 g/m*3 0.1 C 0 km/h
2904 06-12-2010 03:00:00 0.1 C 4.35 g/m*3 0.1 C 0 km/h
2905 06-12-2010 04:00:00 0.14 C 4.38 g/m*3 0.14 C 0 km/h
2906 06-12-2010 05:00:00 0.04 C 4.33 g/m*3 0.04 C 0 km/h
2907 06-12-2010 06:00:00 0.02 C 4.37 g/m*3 0.02 C 0 km/h
2908 06-12-2010 07:00:00 0 C 4.34 g/m*3 0 C 0 km/h
2909 06-12-2010 08:00:00 0.06 C 4.31 g/m*3 0.06 C 0 km/h
2910 06-12-2010 09:00:00 0.84 C 4.37 g/m*3 0.84 C 0 km/h
2911 06-12-2010 10:00:00 1.38 C 4.04 g/m*3 1.38 C 0 km/h
2912 06-12-2010 11:00:00 1.88 C 3.94 g/m*3 1.88 C 0 km/h
2913 06-12-2010 12:00:00 2.4 C 3.76 g/m*3 2.4 C 0 km/h
2914 06-12-2010 13:00:00 2.54 C 3.68 g/m*3 2.54 C 0 km/h
2915 06-12-2010 14:00:00 1.9 C 3.59 g/m*3 1.9 C 0 km/h
2916 06-12-2010 15:00:00 0.96 C 3.65 g/m*3 0.96 C 0 km/h
2917 06-12-2010 16:00:00 -0.26 C 3.69 g/m*3 -0.26 C 0 km/h
2918 06-12-2010 17:00:00 -0.68 C 3.73 g/m*3 -0.68 C 0 km/h
2919 06-12-2010 18:00:00 -0.9 C 3.76 g/m*3 -0.9 C 0 km/h
2920 06-12-2010 19:00:00 -0.84 C 3.75 g/m*3 -0.84 C 0 km/h
2921 06-12-2010 20:00:00 -1.14 C 3.67 g/m*3 -1.14 C 0 km/h
2922 06-12-2010 21:00:00 -1.275 C 3.64 g/m*3 -1.27 C 0 km/h
2923 06-12-2010 22:00:00 -1.24 C 3.68 g/m*3 -1.24 C 0 km/h
2924 06-12-2010 23:00:00 -0.68 C 3.74 g/m*3 -0.68 C 0 km/h
2925 07-12-2010 00:00:00 -1.06 C 3.6 g/m*3 -1.06 C 0 km/h
Sensor: Nr:Datum:Temp:Abs-Feuchte:Windchill:Wind:
Aussen-T/F 2926 07-12-2010 01:00:00 -1.16 C 3.68 g/m*3 -1.16 C 0 km/h
2927 07-12-2010 02:00:00 -0.56 C 3.77 g/m*3 -0.56 C 0 km/h
2928 07-12-2010 03:00:00 -0.56 C 3.73 g/m*3 -0.56 C 0 km/h
2929 07-12-2010 04:00:00 -0.74 C 3.7 g/m*3 -0.74 C 0 km/h
2930 07-12-2010 05:00:00 -0.94 C 3.68 g/m*3 -0.94 C 0 km/h
2931 07-12-2010 06:00:00 -0.78 C 3.68 g/m*3 -0.78 C 0 km/h
2932 07-12-2010 07:00:00 -1 C 3.57 g/m*3 -1 C 0 km/h
2933 07-12-2010 08:00:00 -0.84 C 3.6 g/m*3 -0.84 C 0 km/h
2934 07-12-2010 09:00:00 -0.4 C 3.61 g/m*3 -0.4 C 0 km/h
2935 07-12-2010 10:00:00 0.18 C 3.6 g/m*3 0.18 C 0 km/h
2936 07-12-2010 11:00:00 0.56 C 3.61 g/m*3 0.56 C 0 km/h
2937 07-12-2010 12:00:00 1.12 C 3.63 g/m*3 1.12 C 0 km/h
2938 07-12-2010 13:00:00 1.44 C 3.61 g/m*3 1.44 C 0 km/h
2939 07-12-2010 14:00:00 1.06 C 3.67 g/m*3 1.06 C 0 km/h
2940 07-12-2010 15:00:00 0.4 C 3.81 g/m*3 0.4 C 0 km/h
2941 07-12-2010 16:00:00 -0.22 C 4.06 g/m*3 -0.22 C 0 km/h
2942 07-12-2010 17:00:00 -0.3 C 4.2 g/m*3 -0.3 C 0 km/h
2943 07-12-2010 18:00:00 -0.26 C 4.26 g/m*3 -0.26 C 0 km/h
2944 07-12-2010 19:00:00 -0.2 C 4.31 g/m*3 -0.2 C 0 km/h
2945 07-12-2010 20:00:00 -0.16 C 4.36 g/m*3 -0.16 C 0 km/h
2946 07-12-2010 21:00:00 -0.2 C 4.36 g/m*3 -0.2 C 0 km/h
2947 07-12-2010 22:00:00 -0.18 C 4.4 g/m*3 -0.18 C 0 km/h
2948 07-12-2010 23:00:00 -0.2 C 4.4 g/m*3 -0.2 C 0 km/h
2949 08-12-2010 00:00:00 -0.2 C 4.4 g/m*3 -0.2 C 0 km/h
2950 08-12-2010 01:00:00 -0.2 C 4.4 g/m*3 -0.2 C 0 km/h
Sensor: Nr:Datum:Temp:Abs-Feuchte:Windchill:Wind:
Aussen-T/F 2951 08-12-2010 02:00:00 -0.16 C 4.41 g/m*3 -0.16 C 0 km/h
2952 08-12-2010 03:00:00 -0.18 C 4.4 g/m*3 -0.18 C 0 km/h
2953 08-12-2010 04:00:00 -0.08 C 4.43 g/m*3 -0.08 C 0 km/h
2954 08-12-2010 05:00:00 -0.08 C 4.46 g/m*3 -0.08 C 0 km/h
2955 08-12-2010 06:00:00 -0.06 C 4.49 g/m*3 -0.06 C 0 km/h
2956 08-12-2010 07:00:00 -0.02 C 4.5 g/m*3 -0.02 C 0 km/h
2957 08-12-2010 08:00:00 0 C 4.51 g/m*3 0 C 0 km/h
2958 08-12-2010 09:00:00 0.08 C 4.53 g/m*3 0.08 C 0 km/h
2959 08-12-2010 10:00:00 0.18 C 4.56 g/m*3 0.18 C 0 km/h
2960 08-12-2010 11:00:00 0.34 C 4.63 g/m*3 0.34 C 0 km/h
2961 08-12-2010 12:00:00 0.56 C 4.67 g/m*3 0.56 C 0 km/h
2962 08-12-2010 13:00:00 0.62 C 4.58 g/m*3 0.62 C 0 km/h
2963 08-12-2010 14:00:00 0.42 C 4.44 g/m*3 0.42 C 0 km/h
2964 08-12-2010 15:00:00 -0.08 C 4.29 g/m*3 -0.08 C 0 km/h
2965 08-12-2010 16:00:00 -0.3 C 4.26 g/m*3 -0.3 C 0 km/h
2966 08-12-2010 17:00:00 -0.36 C 4.24 g/m*3 -0.36 C 0 km/h
2967 08-12-2010 18:00:00 -0.74 C 4.1 g/m*3 -0.74 C 0 km/h
2968 08-12-2010 19:00:00 -0.92 C 4.05 g/m*3 -0.92 C 0 km/h
2969 08-12-2010 20:00:00 -1.06 C 4.02 g/m*3 -1.06 C 0 km/h
2970 08-12-2010 21:00:00 -1.24 C 3.94 g/m*3 -1.24 C 0 km/h
2971 08-12-2010 22:00:00 -1.44 C 3.82 g/m*3 -1.44 C 0 km/h
2972 08-12-2010 23:00:00 -1.3 C 3.74 g/m*3 -1.3 C 0 km/h
2973 09-12-2010 00:00:00 -1.32 C 3.64 g/m*3 -1.32 C 0 km/h
2974 09-12-2010 01:00:00 -1.52 C 3.56 g/m*3 -1.52 C 0 km/h
2975 09-12-2010 02:00:00 -1.74 C 3.55 g/m*3 -1.74 C 0 km/h
Sensor: Nr:Datum:Temp:Abs-Feuchte:Windchill:Wind:
Aussen-T/F 2976 09-12-2010 03:00:00 -1.7 C 3.69 g/m*3 -1.7 C 0 km/h
2977 09-12-2010 04:00:00 -1.62 C 3.72 g/m*3 -1.62 C 0 km/h
2978 09-12-2010 05:00:00 -1.04 C 3.84 g/m*3 -1.04 C 0 km/h
2979 09-12-2010 06:00:00 -0.42 C 3.9 g/m*3 -0.42 C 0 km/h
2980 09-12-2010 07:00:00 -0.28 C 3.95 g/m*3 -0.28 C 0 km/h
2981 09-12-2010 08:00:00 -0.38 C 3.91 g/m*3 -0.38 C 0 km/h
2982 09-12-2010 09:00:00 -0.08 C 3.93 g/m*3 -0.08 C 0 km/h
2983 09-12-2010 10:00:00 0.32 C 4 g/m*3 0.32 C 0 km/h
2984 09-12-2010 11:00:00 0.8 C 4.06 g/m*3 0.8 C 0 km/h
2985 09-12-2010 12:00:00 2.18 C 4.07 g/m*3 2.18 C 0 km/h
2986 09-12-2010 13:00:00 1.74 C 4.11 g/m*3 1.74 C 0 km/h
2987 09-12-2010 14:00:00 2.12 C 3.92 g/m*3 2.12 C 0 km/h
2988 09-12-2010 15:00:00 1.84 C 3.75 g/m*3 1.84 C 0 km/h
2989 09-12-2010 16:00:00 1.52 C 3.66 g/m*3 1.52 C 0 km/h
2990 09-12-2010 17:00:00 1.5 C 3.89 g/m*3 1.5 C 0 km/h
2991 09-12-2010 18:00:00 1.68 C 4.03 g/m*3 1.68 C 0 km/h
2992 09-12-2010 19:00:00 2.16 C 3.9 g/m*3 2.16 C 0 km/h
2993 09-12-2010 20:00:00 2.44 C 4 g/m*3 2.44 C 0 km/h
2994 09-12-2010 21:00:00 2.58 C 4.06 g/m*3 2.58 C 0 km/h
2995 09-12-2010 22:00:00 2.44 C 4.16 g/m*3 2.44 C 0 km/h
2996 09-12-2010 23:00:00 1.5 C 4.43 g/m*3 1.5 C 0 km/h
2997 10-12-2010 00:00:00 1.9 C 4.42 g/m*3 1.9 C 0 km/h
2998 10-12-2010 01:00:00 2.04 C 4.36 g/m*3 2.04 C 0 km/h
2999 10-12-2010 02:00:00 1.7 C 4.26 g/m*3 1.7 C 0 km/h
3000 10-12-2010 03:00:00 1.24 C 4.52 g/m*3 1.24 C 0 km/h
Sensor: Nr:Datum:Temp:Abs-Feuchte:Windchill:Wind:
Aussen-T/F 3001 10-12-2010 04:00:00 1.7 C 4.79 g/m*3 1.7 C 0 km/h
3002 10-12-2010 05:00:00 2.52 C 4.87 g/m*3 2.52 C 0 km/h
3003 10-12-2010 06:00:00 1.84 C 4.73 g/m*3 1.84 C 0 km/h
3004 10-12-2010 07:00:00 0.76 C 4.53 g/m*3 0.76 C 0 km/h
3005 10-12-2010 08:00:00 -0.32 C 4.28 g/m*3 -0.32 C 0 km/h
3006 10-12-2010 09:00:00 -0.4 C 4.3 g/m*3 -0.4 C 0 km/h
3007 10-12-2010 10:00:00 0.06 C 4.45 g/m*3 0.06 C 0 km/h
3008 10-12-2010 11:00:00 1.38 C 4.82 g/m*3 1.38 C 0 km/h
3009 10-12-2010 12:00:00 2.24 C 4.95 g/m*3 2.24 C 0 km/h
3010 10-12-2010 13:00:00 2.96 C 4.9 g/m*3 2.96 C 0 km/h
3011 10-12-2010 14:00:00 2.82 C 4.65 g/m*3 2.82 C 0 km/h
3012 10-12-2010 15:00:00 1.78 C 4.64 g/m*3 1.78 C 0 km/h
3013 10-12-2010 16:00:00 1.54 C 4.8 g/m*3 1.54 C 0 km/h
3014 10-12-2010 17:00:00 1.84 C 4.95 g/m*3 1.84 C 0 km/h
3015 10-12-2010 18:00:00 1.86 C 4.93 g/m*3 1.86 C 0 km/h
3016 10-12-2010 19:00:00 2.28 C 4.97 g/m*3 2.28 C 0 km/h
3017 10-12-2010 20:00:00 2.6 C 4.93 g/m*3 2.6 C 0 km/h
3018 10-12-2010 21:00:00 2.5 C 4.85 g/m*3 2.5 C 0 km/h
3019 10-12-2010 22:00:00 2.52 C 4.87 g/m*3 2.52 C 0 km/h
3020 10-12-2010 23:00:00 2.24 C 4.86 g/m*3 2.24 C 0 km/h
3021 11-12-2010 00:00:00 2.18 C 4.97 g/m*3 2.18 C 0 km/h
3022 11-12-2010 01:00:00 2.46 C 5.08 g/m*3 2.46 C 0 km/h
3023 11-12-2010 02:00:00 2.72 C 5.13 g/m*3 2.72 C 0 km/h
3024 11-12-2010 03:00:00 2.54 C 5.1 g/m*3 2.54 C 0 km/h
3025 11-12-2010 04:00:00 3.26 C 5.24 g/m*3 3.26 C 0 km/h
Sensor: Nr:Datum:Temp:Abs-Feuchte:Windchill:Wind:
Aussen-T/F 3026 11-12-2010 05:00:00 3.86 C 5.19 g/m*3 3.86 C 0 km/h
3027 11-12-2010 06:00:00 3.36 C 5.15 g/m*3 3.36 C 0 km/h
3028 11-12-2010 07:00:00 4.14 C 5.21 g/m*3 4.14 C 0 km/h
3029 11-12-2010 08:00:00 4.86 C 5.01 g/m*3 4.86 C 0 km/h
3030 11-12-2010 09:00:00 4.16 C 5.04 g/m*3 4.16 C 0 km/h
3031 11-12-2010 10:00:00 3.9 C 5.38 g/m*3 3.9 C 0 km/h
3032 11-12-2010 11:00:00 4.3 C 5.37 g/m*3 4.3 C 0 km/h
3033 11-12-2010 12:00:00 4.54 C 5.56 g/m*3 4.54 C 0 km/h
3034 11-12-2010 13:00:00 4.86 C 5.39 g/m*3 4.86 C 0 km/h
3035 11-12-2010 14:00:00 4.9 C 5.31 g/m*3 4.9 C 0 km/h
3036 11-12-2010 15:00:00 5.06 C 5.18 g/m*3 5.06 C 0 km/h
3037 11-12-2010 16:00:00 4.9 C 5.24 g/m*3 4.9 C 0 km/h
3038 11-12-2010 17:00:00 5.16 C 5.22 g/m*3 5.16 C 0 km/h
3039 11-12-2010 18:00:00 4.22 C 5.21 g/m*3 4.22 C 0 km/h
3040 11-12-2010 19:00:00 4.26 C 5.2 g/m*3 4.26 C 0 km/h
3041 11-12-2010 20:00:00 4.82 C 5.01 g/m*3 4.82 C 0 km/h
3042 11-12-2010 21:00:00 4.4 C 5.04 g/m*3 4.4 C 0 km/h
3043 11-12-2010 22:00:00 4.3 C 5.03 g/m*3 4.3 C 0 km/h
3044 11-12-2010 23:00:00 4.66 C 4.89 g/m*3 4.66 C 0 km/h
3045 12-12-2010 00:00:00 4.26 C 4.97 g/m*3 4.26 C 0 km/h
3046 12-12-2010 01:00:00 4.84 C 4.84 g/m*3 4.84 C 0 km/h
3047 12-12-2010 02:00:00 4.82 C 4.58 g/m*3 4.82 C 0 km/h
3048 12-12-2010 03:00:00 4.2 C 4.66 g/m*3 4.2 C 0 km/h
3049 12-12-2010 04:00:00 3.68 C 5.18 g/m*3 3.68 C 0 km/h
3050 12-12-2010 05:00:00 3.44 C 5.11 g/m*3 3.44 C 0 km/h
Sensor: Nr:Datum:Temp:Abs-Feuchte:Windchill:Wind:
Aussen-T/F 3051 12-12-2010 06:00:00 3.04 C 5.07 g/m*3 3.04 C 0 km/h
3052 12-12-2010 07:00:00 3.86 C 4.93 g/m*3 3.86 C 0 km/h
3053 12-12-2010 08:00:00 3.62 C 4.87 g/m*3 3.62 C 0 km/h
3054 12-12-2010 09:00:00 3.7 C 4.96 g/m*3 3.7 C 0 km/h
3055 12-12-2010 10:00:00 3.86 C 5.03 g/m*3 3.86 C 0 km/h
3056 12-12-2010 11:00:00 4.12 C 5.14 g/m*3 4.12 C 0 km/h
3057 12-12-2010 12:00:00 4.5 C 5.34 g/m*3 4.5 C 0 km/h
3058 12-12-2010 13:00:00 4.82 C 5.17 g/m*3 4.82 C 0 km/h
3059 12-12-2010 14:00:00 3.46 C 4.95 g/m*3 3.46 C 0 km/h
3060 12-12-2010 15:00:00 3.1 C 5.21 g/m*3 3.1 C 0 km/h
3061 12-12-2010 16:00:00 2.7 C 5.12 g/m*3 2.7 C 0 km/h
3062 12-12-2010 17:00:00 2.48 C 4.62 g/m*3 2.48 C 0 km/h
3063 12-12-2010 18:00:00 1.86 C 4.15 g/m*3 1.86 C 0 km/h
3064 12-12-2010 19:00:00 1.38 C 3.91 g/m*3 1.38 C 0 km/h
3065 12-12-2010 20:00:00 1.18 C 3.56 g/m*3 1.18 C 0 km/h
3066 12-12-2010 21:00:00 0.76 C 3.35 g/m*3 0.76 C 0 km/h
3067 12-12-2010 22:00:00 0.4 C 3.18 g/m*3 0.4 C 0 km/h
3068 12-12-2010 23:00:00 -0.04 C 2.73 g/m*3 -0.04 C 0 km/h
3069 13-12-2010 00:00:00 -0.52 C 2.5 g/m*3 -0.52 C 0 km/h
3070 13-12-2010 01:00:00 -0.84 C 2.45 g/m*3 -0.84 C 0 km/h
3071 13-12-2010 02:00:00 -2.28 C 2.3 g/m*3 -2.28 C 0 km/h
3072 13-12-2010 03:00:00 -3.5 C 2.27 g/m*3 -3.5 C 0 km/h
3073 13-12-2010 04:00:00 -4.2 C 2.29 g/m*3 -4.2 C 0 km/h
3074 13-12-2010 05:00:00 -5.8 C 2.22 g/m*3 -5.8 C 0 km/h
3075 13-12-2010 06:00:00 -6.94 C 2.21 g/m*3 -6.94 C 0 km/h
Sensor: Nr:Datum:Temp:Abs-Feuchte:Windchill:Wind:
Aussen-T/F 3076 13-12-2010 07:00:00 -7.2 C 2.22 g/m*3 -7.2 C 0 km/h
3077 13-12-2010 08:00:00 -7.18 C 2.27 g/m*3 -7.18 C 0 km/h
3078 13-12-2010 09:00:00 -7.12 C 2.29 g/m*3 -7.12 C 0 km/h
3079 13-12-2010 10:00:00 -6.62 C 2.4 g/m*3 -6.62 C 0 km/h
3080 13-12-2010 11:00:00 -4 C 2.63 g/m*3 -4 C 0 km/h
3081 13-12-2010 12:00:00 -2.78 C 2.52 g/m*3 -2.78 C 0 km/h
3082 13-12-2010 13:00:00 -2.32 C 2.5 g/m*3 -2.32 C 0 km/h
3083 13-12-2010 14:00:00 -2.2 C 2.39 g/m*3 -2.2 C 0 km/h
3084 13-12-2010 15:00:00 -3.66 C 2.47 g/m*3 -3.66 C 0 km/h
3085 13-12-2010 16:00:00 -4.98 C 2.58 g/m*3 -4.98 C 0 km/h
3086 13-12-2010 17:00:00 -5.88 C 2.5 g/m*3 -5.88 C 0 km/h
3087 13-12-2010 18:00:00 -6.2 C 2.48 g/m*3 -6.2 C 0 km/h
3088 13-12-2010 19:00:00 -5.44 C 2.72 g/m*3 -5.44 C 0 km/h
3089 13-12-2010 20:00:00 -4.86 C 2.8 g/m*3 -4.86 C 0 km/h
3090 13-12-2010 21:00:00 -4.22 C 2.82 g/m*3 -4.22 C 0 km/h
3091 13-12-2010 22:00:00 -3.92 C 2.86 g/m*3 -3.92 C 0 km/h
3092 13-12-2010 23:00:00 -4.1 C 3 g/m*3 -4.1 C 0 km/h
3093 14-12-2010 00:00:00 -4.1 C 3.02 g/m*3 -4.1 C 0 km/h
3094 14-12-2010 01:00:00 -4.06 C 3.03 g/m*3 -4.06 C 0 km/h
3095 14-12-2010 02:00:00 -3.84 C 3.07 g/m*3 -3.84 C 0 km/h
3096 14-12-2010 03:00:00 -3.66 C 3.11 g/m*3 -3.66 C 0 km/h
3097 14-12-2010 04:00:00 -3.62 C 3.09 g/m*3 -3.62 C 0 km/h
3098 14-12-2010 05:00:00 -3.8 C 3.04 g/m*3 -3.8 C 0 km/h
3099 14-12-2010 06:00:00 -4.7 C 2.87 g/m*3 -4.7 C 0 km/h
3100 14-12-2010 07:00:00 -6.22 C 2.59 g/m*3 -6.22 C 0 km/h
Sensor: Nr:Datum:Temp:Abs-Feuchte:Windchill:Wind:
Aussen-T/F 3101 14-12-2010 08:00:00 -6.38 C 2.62 g/m*3 -6.38 C 0 km/h
3102 14-12-2010 09:00:00 -6 C 2.69 g/m*3 -6 C 0 km/h
3103 14-12-2010 10:00:00 -4.06 C 3 g/m*3 -4.06 C 0 km/h
3104 14-12-2010 11:00:00 -3.24 C 2.75 g/m*3 -3.24 C 0 km/h
3105 14-12-2010 12:00:00 -2.42 C 2.66 g/m*3 -2.42 C 0 km/h
3106 14-12-2010 13:00:00 -2.2 C 2.64 g/m*3 -2.2 C 0 km/h
3107 14-12-2010 14:00:00 -2.44 C 2.66 g/m*3 -2.44 C 0 km/h
3108 14-12-2010 15:00:00 -2.76 C 2.7 g/m*3 -2.76 C 0 km/h
3109 14-12-2010 16:00:00 -2.9 C 2.8 g/m*3 -2.9 C 0 km/h
3110 14-12-2010 17:00:00 -2.98 C 2.91 g/m*3 -2.98 C 0 km/h
3111 14-12-2010 18:00:00 -3.06 C 2.78 g/m*3 -3.06 C 0 km/h
3112 14-12-2010 19:00:00 -2.82 C 2.84 g/m*3 -2.82 C 0 km/h
3113 14-12-2010 20:00:00 -3.04 C 2.74 g/m*3 -3.04 C 0 km/h
3114 14-12-2010 21:00:00 -3.12 C 2.64 g/m*3 -3.12 C 0 km/h
3115 14-12-2010 22:00:00 -3.16 C 2.58 g/m*3 -3.16 C 0 km/h
3116 14-12-2010 23:00:00 -3.22 C 2.51 g/m*3 -3.22 C 0 km/h
3117 15-12-2010 00:00:00 -3.3 C 2.5 g/m*3 -3.3 C 0 km/h
3118 15-12-2010 01:00:00 -3.26 C 2.57 g/m*3 -3.26 C 0 km/h
3119 15-12-2010 02:00:00 -4.16 C 2.54 g/m*3 -4.16 C 0 km/h
3120 15-12-2010 03:00:00 -4.9 C 2.5 g/m*3 -4.9 C 0 km/h
3121 15-12-2010 04:00:00 -4.86 C 2.54 g/m*3 -4.86 C 0 km/h
3122 15-12-2010 05:00:00 -4.72 C 2.63 g/m*3 -4.72 C 0 km/h
3123 15-12-2010 06:00:00 -3.78 C 2.71 g/m*3 -3.78 C 0 km/h
3124 15-12-2010 07:00:00 -3.42 C 2.81 g/m*3 -3.42 C 0 km/h
3125 15-12-2010 08:00:00 -3.3 C 2.88 g/m*3 -3.3 C 0 km/h
Sensor: Nr:Datum:Temp:Abs-Feuchte:Windchill:Wind:
Aussen-T/F 3126 15-12-2010 09:00:00 -2.56 C 3.02 g/m*3 -2.56 C 0 km/h
3127 15-12-2010 10:00:00 -1.76 C 3.22 g/m*3 -1.76 C 0 km/h
3128 15-12-2010 11:00:00 -0.68 C 3.51 g/m*3 -0.68 C 0 km/h
3129 15-12-2010 12:00:00 -0.48 C 3.47 g/m*3 -0.48 C 0 km/h
3130 15-12-2010 13:00:00 -0.38 C 3.56 g/m*3 -0.38 C 0 km/h
3131 15-12-2010 14:00:00 -0.12 C 3.36 g/m*3 -0.12 C 0 km/h
3132 15-12-2010 15:00:00 -1.44 C 2.8 g/m*3 -1.44 C 0 km/h
3133 15-12-2010 16:00:00 -3.2 C 2.7 g/m*3 -3.2 C 0 km/h
3134 15-12-2010 17:00:00 -4.34 C 2.74 g/m*3 -4.34 C 0 km/h
3135 15-12-2010 18:00:00 -4.86 C 2.77 g/m*3 -4.86 C 0 km/h
3136 15-12-2010 19:00:00 -4.42 C 2.86 g/m*3 -4.42 C 0 km/h
3137 15-12-2010 20:00:00 -3.62 C 2.83 g/m*3 -3.62 C 0 km/h
3138 15-12-2010 21:00:00 -3.18 C 2.77 g/m*3 -3.18 C 0 km/h
3139 15-12-2010 22:00:00 -3.78 C 2.76 g/m*3 -3.78 C 0 km/h
3140 15-12-2010 23:00:00 -4.54 C 2.76 g/m*3 -4.54 C 0 km/h
3141 16-12-2010 00:00:00 -4.68 C 2.85 g/m*3 -4.68 C 0 km/h
3142 16-12-2010 01:00:00 -4.84 C 2.87 g/m*3 -4.84 C 0 km/h
3143 16-12-2010 02:00:00 -5.3 C 2.73 g/m*3 -5.3 C 0 km/h
3144 16-12-2010 03:00:00 -5.36 C 2.75 g/m*3 -5.36 C 0 km/h
3145 16-12-2010 04:00:00 -5.58 C 2.66 g/m*3 -5.58 C 0 km/h
3146 16-12-2010 05:00:00 -6.4 C 2.41 g/m*3 -6.4 C 0 km/h
3147 16-12-2010 06:00:00 -7.54 C 2.25 g/m*3 -7.54 C 0 km/h
3148 16-12-2010 07:00:00 -8.28 C 2.11 g/m*3 -8.28 C 0 km/h
3149 16-12-2010 08:00:00 -7.86 C 2.18 g/m*3 -7.86 C 0 km/h
3150 16-12-2010 09:00:00 -6.6 C 2.26 g/m*3 -6.6 C 0 km/h
Sensor: Nr:Datum:Temp:Abs-Feuchte:Windchill:Wind:
Aussen-T/F 3151 16-12-2010 10:00:00 -4.84 C 2.47 g/m*3 -4.84 C 0 km/h
3152 16-12-2010 11:00:00 -3.42 C 2.65 g/m*3 -3.42 C 0 km/h
3153 16-12-2010 12:00:00 -2.84 C 2.8 g/m*3 -2.84 C 0 km/h
3154 16-12-2010 13:00:00 -2.12 C 2.99 g/m*3 -2.12 C 0 km/h
3155 16-12-2010 14:00:00 -1.72 C 3.2 g/m*3 -1.72 C 0 km/h
3156 16-12-2010 15:00:00 -1.4 C 3.45 g/m*3 -1.4 C 0 km/h
3157 16-12-2010 16:00:00 -1.3 C 3.43 g/m*3 -1.3 C 0 km/h
3158 16-12-2010 17:00:00 -1.26 C 3.47 g/m*3 -1.26 C 0 km/h
3159 16-12-2010 18:00:00 -0.7 C 3.61 g/m*3 -0.7 C 0 km/h
3160 16-12-2010 19:00:00 -0.28 C 3.67 g/m*3 -0.28 C 0 km/h
3161 16-12-2010 20:00:00 0.02 C 3.69 g/m*3 0.02 C 0 km/h
3162 16-12-2010 21:00:00 -0.12 C 3.79 g/m*3 -0.12 C 0 km/h
3163 16-12-2010 22:00:00 -0.34 C 3.88 g/m*3 -0.34 C 0 km/h
3164 16-12-2010 23:00:00 -0.46 C 3.84 g/m*3 -0.46 C 0 km/h
3165 17-12-2010 00:00:00 -0.28 C 3.85 g/m*3 -0.28 C 0 km/h
3166 17-12-2010 01:00:00 -0.34 C 3.88 g/m*3 -0.34 C 0 km/h
3167 17-12-2010 02:00:00 -0.58 C 3.62 g/m*3 -0.58 C 0 km/h
3168 17-12-2010 03:00:00 -1.2 C 3.36 g/m*3 -1.2 C 0 km/h
3169 17-12-2010 04:00:00 -1.28 C 3.16 g/m*3 -1.28 C 0 km/h
3170 17-12-2010 05:00:00 -1.62 C 3.26 g/m*3 -1.62 C 0 km/h
3171 17-12-2010 06:00:00 -2.24 C 2.97 g/m*3 -2.24 C 0 km/h
3172 17-12-2010 07:00:00 -2.28 C 2.65 g/m*3 -2.28 C 0 km/h
3173 17-12-2010 08:00:00 -2.22 C 3 g/m*3 -2.22 C 0 km/h
3174 17-12-2010 09:00:00 -1.92 C 3.01 g/m*3 -1.92 C 0 km/h
3175 17-12-2010 10:00:00 -1.66 C 2.95 g/m*3 -1.66 C 0 km/h
Sensor: Nr:Datum:Temp:Abs-Feuchte:Windchill:Wind:
Aussen-T/F 3176 17-12-2010 11:00:00 -1.2 C 2.74 g/m*3 -1.2 C 0 km/h
3177 17-12-2010 12:00:00 -1.14 C 2.52 g/m*3 -1.14 C 0 km/h
3178 17-12-2010 13:00:00 -1.22 C 2.43 g/m*3 -1.22 C 0 km/h
3179 17-12-2010 14:00:00 -1.4 C 2.66 g/m*3 -1.4 C 0 km/h
3180 17-12-2010 15:00:00 -1.82 C 2.98 g/m*3 -1.82 C 0 km/h
3181 17-12-2010 16:00:00 -2.08 C 3 g/m*3 -2.08 C 0 km/h
3182 17-12-2010 17:00:00 -4.06 C 2.8 g/m*3 -4.06 C 0 km/h
3183 17-12-2010 18:00:00 -5.22 C 2.69 g/m*3 -5.22 C 0 km/h
3184 17-12-2010 19:00:00 -6.48 C 2.51 g/m*3 -6.48 C 0 km/h
3185 17-12-2010 20:00:00 -6.58 C 2.52 g/m*3 -6.58 C 0 km/h
3186 17-12-2010 21:00:00 -6.94 C 2.44 g/m*3 -6.94 C 0 km/h
3187 17-12-2010 22:00:00 -6.92 C 2.44 g/m*3 -6.92 C 0 km/h
3188 17-12-2010 23:00:00 -5.9 C 2.66 g/m*3 -5.9 C 0 km/h
3189 18-12-2010 00:00:00 -4.74 C 2.93 g/m*3 -4.74 C 0 km/h
3190 18-12-2010 01:00:00 -4.44 C 2.9 g/m*3 -4.44 C 0 km/h
3191 18-12-2010 02:00:00 -5.28 C 2.7 g/m*3 -5.28 C 0 km/h
3192 18-12-2010 03:00:00 -4.36 C 2.87 g/m*3 -4.36 C 0 km/h
3193 18-12-2010 04:00:00 -4.36 C 2.94 g/m*3 -4.36 C 0 km/h
3194 18-12-2010 05:00:00 -4.44 C 2.98 g/m*3 -4.44 C 0 km/h
3195 18-12-2010 06:00:00 -4.34 C 3.01 g/m*3 -4.34 C 0 km/h
3196 18-12-2010 07:00:00 -5.26 C 2.81 g/m*3 -5.26 C 0 km/h
3197 18-12-2010 08:00:00 -5.34 C 2.8 g/m*3 -5.34 C 0 km/h
3198 18-12-2010 09:00:00 -4.84 C 2.73 g/m*3 -4.84 C 0 km/h
3199 18-12-2010 10:00:00 -3.82 C 2.68 g/m*3 -3.82 C 0 km/h
3200 18-12-2010 11:00:00 -3.48 C 2.59 g/m*3 -3.48 C 0 km/h
Sensor: Nr:Datum:Temp:Abs-Feuchte:Windchill:Wind:
Aussen-T/F 3201 18-12-2010 12:00:00 -3.28 C 2.46 g/m*3 -3.28 C 0 km/h
3202 18-12-2010 13:00:00 -2.96 C 2.36 g/m*3 -2.96 C 0 km/h
3203 18-12-2010 14:00:00 -3.84 C 2.29 g/m*3 -3.84 C 0 km/h
3204 18-12-2010 15:00:00 -5.48 C 2.31 g/m*3 -5.48 C 0 km/h
3205 18-12-2010 16:00:00 -7.06 C 2.27 g/m*3 -7.06 C 0 km/h
3206 18-12-2010 17:00:00 -7.56 C 2.29 g/m*3 -7.56 C 0 km/h
3207 18-12-2010 18:00:00 -6.74 C 2.48 g/m*3 -6.74 C 0 km/h
3208 18-12-2010 19:00:00 -5.34 C 2.79 g/m*3 -5.34 C 0 km/h
3209 18-12-2010 20:00:00 -4.36 C 2.97 g/m*3 -4.36 C 0 km/h
3210 18-12-2010 21:00:00 -3.98 C 3.05 g/m*3 -3.98 C 0 km/h
3211 18-12-2010 22:00:00 -3.42 C 3.2 g/m*3 -3.42 C 0 km/h
3212 18-12-2010 23:00:00 -3.08 C 3.28 g/m*3 -3.08 C 0 km/h